<?xml version='1.0' encoding='UTF-8'?>
<gpx version="1.1" creator="https://www.komoot.de" xmlns="http://www.topografix.com/GPX/1/1" xmlns:xsi="http://www.w3.org/2001/XMLSchema-instance" xsi:schemaLocation="http://www.topografix.com/GPX/1/1 http://www.topografix.com/GPX/1/1/gpx.xsd">
  <metadata>
    <name>Gravel-Tour III</name>
    <author>
      <link href="https://www.komoot.de">
        <text>komoot</text>
        <type>text/html</type>
      </link>
    </author>
  </metadata>
  <trk>
    <name>Gravel-Tour III</name>
    <trkseg>
      <trkpt lat="51.714193" lon="7.122921">
        <ele>37.352345</ele>
        <time>2025-08-26T08:06:01.449Z</time>
      </trkpt>
      <trkpt lat="51.714213" lon="7.123560">
        <ele>37.352345</ele>
        <time>2025-08-26T08:06:08.377Z</time>
      </trkpt>
      <trkpt lat="51.714182" lon="7.123784">
        <ele>37.352345</ele>
        <time>2025-08-26T08:06:10.897Z</time>
      </trkpt>
      <trkpt lat="51.714087" lon="7.124072">
        <ele>37.352345</ele>
        <time>2025-08-26T08:06:14.583Z</time>
      </trkpt>
      <trkpt lat="51.713936" lon="7.124223">
        <ele>37.347391</ele>
        <time>2025-08-26T08:06:17.911Z</time>
      </trkpt>
      <trkpt lat="51.713827" lon="7.124268">
        <ele>37.318199</ele>
        <time>2025-08-26T08:06:20.141Z</time>
      </trkpt>
      <trkpt lat="51.713700" lon="7.124235">
        <ele>37.284822</ele>
        <time>2025-08-26T08:06:22.650Z</time>
      </trkpt>
      <trkpt lat="51.713493" lon="7.124055">
        <ele>37.223814</ele>
        <time>2025-08-26T08:06:27.225Z</time>
      </trkpt>
      <trkpt lat="51.713417" lon="7.124091">
        <ele>37.203262</ele>
        <time>2025-08-26T08:06:28.814Z</time>
      </trkpt>
      <trkpt lat="51.713539" lon="7.124536">
        <ele>37.125032</ele>
        <time>2025-08-26T08:06:38.325Z</time>
      </trkpt>
      <trkpt lat="51.713658" lon="7.124662">
        <ele>37.088104</ele>
        <time>2025-08-26T08:06:42.649Z</time>
      </trkpt>
      <trkpt lat="51.713690" lon="7.124809">
        <ele>37.063056</ele>
        <time>2025-08-26T08:06:45.484Z</time>
      </trkpt>
      <trkpt lat="51.713712" lon="7.124932">
        <ele>37.042474</ele>
        <time>2025-08-26T08:06:47.821Z</time>
      </trkpt>
      <trkpt lat="51.712975" lon="7.125318">
        <ele>36.703646</ele>
        <time>2025-08-26T08:06:59.954Z</time>
      </trkpt>
      <trkpt lat="51.711874" lon="7.125880">
        <ele>35.470588</ele>
        <time>2025-08-26T08:07:17.246Z</time>
      </trkpt>
      <trkpt lat="51.710898" lon="7.126380">
        <ele>34.805732</ele>
        <time>2025-08-26T08:07:36.047Z</time>
      </trkpt>
      <trkpt lat="51.710839" lon="7.126410">
        <ele>34.787831</ele>
        <time>2025-08-26T08:07:37.394Z</time>
      </trkpt>
      <trkpt lat="51.710485" lon="7.126611">
        <ele>34.679237</ele>
        <time>2025-08-26T08:07:44.899Z</time>
      </trkpt>
      <trkpt lat="51.709895" lon="7.126878">
        <ele>34.501920</ele>
        <time>2025-08-26T08:07:55.137Z</time>
      </trkpt>
      <trkpt lat="51.709878" lon="7.126777">
        <ele>34.483153</ele>
        <time>2025-08-26T08:07:56.161Z</time>
      </trkpt>
      <trkpt lat="51.709813" lon="7.126229">
        <ele>34.213311</ele>
        <time>2025-08-26T08:08:03.328Z</time>
      </trkpt>
      <trkpt lat="51.709832" lon="7.125987">
        <ele>34.048726</ele>
        <time>2025-08-26T08:08:06.412Z</time>
      </trkpt>
      <trkpt lat="51.710113" lon="7.125186">
        <ele>33.427686</ele>
        <time>2025-08-26T08:08:17.874Z</time>
      </trkpt>
      <trkpt lat="51.710281" lon="7.124705">
        <ele>33.055150</ele>
        <time>2025-08-26T08:08:24.939Z</time>
      </trkpt>
      <trkpt lat="51.710287" lon="7.124634">
        <ele>33.006803</ele>
        <time>2025-08-26T08:08:25.915Z</time>
      </trkpt>
      <trkpt lat="51.710299" lon="7.124502">
        <ele>32.916789</ele>
        <time>2025-08-26T08:08:27.766Z</time>
      </trkpt>
      <trkpt lat="51.710278" lon="7.124258">
        <ele>32.750582</ele>
        <time>2025-08-26T08:08:31.193Z</time>
      </trkpt>
      <trkpt lat="51.710152" lon="7.123440">
        <ele>32.746003</ele>
        <time>2025-08-26T08:08:43.408Z</time>
      </trkpt>
      <trkpt lat="51.710275" lon="7.123399">
        <ele>32.862843</ele>
        <time>2025-08-26T08:08:46.637Z</time>
      </trkpt>
      <trkpt lat="51.710333" lon="7.123433">
        <ele>32.920248</ele>
        <time>2025-08-26T08:08:48.254Z</time>
      </trkpt>
      <trkpt lat="51.710408" lon="7.123549">
        <ele>33.016887</ele>
        <time>2025-08-26T08:08:50.987Z</time>
      </trkpt>
      <trkpt lat="51.710470" lon="7.123712">
        <ele>33.127136</ele>
        <time>2025-08-26T08:08:54.253Z</time>
      </trkpt>
      <trkpt lat="51.710593" lon="7.124120">
        <ele>33.388679</ele>
        <time>2025-08-26T08:09:02.300Z</time>
      </trkpt>
      <trkpt lat="51.710622" lon="7.124216">
        <ele>33.450243</ele>
        <time>2025-08-26T08:09:04.250Z</time>
      </trkpt>
      <trkpt lat="51.710648" lon="7.124446">
        <ele>33.585010</ele>
        <time>2025-08-26T08:09:08.574Z</time>
      </trkpt>
      <trkpt lat="51.710764" lon="7.124878">
        <ele>33.856405</ele>
        <time>2025-08-26T08:09:17.389Z</time>
      </trkpt>
      <trkpt lat="51.710968" lon="7.125923">
        <ele>34.344082</ele>
        <time>2025-08-26T08:09:36.688Z</time>
      </trkpt>
      <trkpt lat="51.711020" lon="7.126143">
        <ele>34.420385</ele>
        <time>2025-08-26T08:09:40.702Z</time>
      </trkpt>
      <trkpt lat="51.711025" lon="7.126501">
        <ele>34.536427</ele>
        <time>2025-08-26T08:09:46.629Z</time>
      </trkpt>
      <trkpt lat="51.710995" lon="7.126615">
        <ele>34.576563</ele>
        <time>2025-08-26T08:09:48.656Z</time>
      </trkpt>
      <trkpt lat="51.710888" lon="7.126736">
        <ele>34.644893</ele>
        <time>2025-08-26T08:09:52.002Z</time>
      </trkpt>
      <trkpt lat="51.708813" lon="7.127784">
        <ele>34.800298</ele>
        <time>2025-08-26T08:10:42.947Z</time>
      </trkpt>
      <trkpt lat="51.708631" lon="7.127906">
        <ele>34.755004</ele>
        <time>2025-08-26T08:10:47.264Z</time>
      </trkpt>
      <trkpt lat="51.708573" lon="7.128011">
        <ele>34.734972</ele>
        <time>2025-08-26T08:10:49.163Z</time>
      </trkpt>
      <trkpt lat="51.708559" lon="7.128092">
        <ele>34.722996</ele>
        <time>2025-08-26T08:10:50.281Z</time>
      </trkpt>
      <trkpt lat="51.708889" lon="7.129003">
        <ele>34.414087</ele>
        <time>2025-08-26T08:11:04.374Z</time>
      </trkpt>
      <trkpt lat="51.709156" lon="7.129762">
        <ele>34.116701</ele>
        <time>2025-08-26T08:11:16.173Z</time>
      </trkpt>
      <trkpt lat="51.709568" lon="7.130961">
        <ele>33.705018</ele>
        <time>2025-08-26T08:11:35.533Z</time>
      </trkpt>
      <trkpt lat="51.709999" lon="7.132243">
        <ele>33.781897</ele>
        <time>2025-08-26T08:11:56.597Z</time>
      </trkpt>
      <trkpt lat="51.710325" lon="7.133318">
        <ele>33.844982</ele>
        <time>2025-08-26T08:12:14.879Z</time>
      </trkpt>
      <trkpt lat="51.710414" lon="7.133667">
        <ele>33.894307</ele>
        <time>2025-08-26T08:12:20.832Z</time>
      </trkpt>
      <trkpt lat="51.710503" lon="7.134040">
        <ele>33.958778</ele>
        <time>2025-08-26T08:12:26.990Z</time>
      </trkpt>
      <trkpt lat="51.710746" lon="7.134955">
        <ele>34.119351</ele>
        <time>2025-08-26T08:12:45.987Z</time>
      </trkpt>
      <trkpt lat="51.711000" lon="7.135907">
        <ele>34.286537</ele>
        <time>2025-08-26T08:13:05.816Z</time>
      </trkpt>
      <trkpt lat="51.711071" lon="7.136116">
        <ele>34.323362</ele>
        <time>2025-08-26T08:13:10.227Z</time>
      </trkpt>
      <trkpt lat="51.711299" lon="7.136558">
        <ele>34.391822</ele>
        <time>2025-08-26T08:13:20.639Z</time>
      </trkpt>
      <trkpt lat="51.711625" lon="7.137691">
        <ele>34.540520</ele>
        <time>2025-08-26T08:13:43.610Z</time>
      </trkpt>
      <trkpt lat="51.712245" lon="7.139878">
        <ele>34.944449</ele>
        <time>2025-08-26T08:14:30.497Z</time>
      </trkpt>
      <trkpt lat="51.712645" lon="7.141465">
        <ele>35.298081</ele>
        <time>2025-08-26T08:15:03.119Z</time>
      </trkpt>
      <trkpt lat="51.712980" lon="7.142763">
        <ele>35.602848</ele>
        <time>2025-08-26T08:15:29.826Z</time>
      </trkpt>
      <trkpt lat="51.713138" lon="7.143401">
        <ele>35.751768</ele>
        <time>2025-08-26T08:15:43.156Z</time>
      </trkpt>
      <trkpt lat="51.713160" lon="7.143487">
        <ele>35.771934</ele>
        <time>2025-08-26T08:15:44.974Z</time>
      </trkpt>
      <trkpt lat="51.713406" lon="7.144300">
        <ele>35.946697</ele>
        <time>2025-08-26T08:16:02.810Z</time>
      </trkpt>
      <trkpt lat="51.713846" lon="7.145751">
        <ele>36.201970</ele>
        <time>2025-08-26T08:16:34.166Z</time>
      </trkpt>
      <trkpt lat="51.714244" lon="7.147183">
        <ele>36.288978</ele>
        <time>2025-08-26T08:16:51.831Z</time>
      </trkpt>
      <trkpt lat="51.714098" lon="7.147370">
        <ele>36.261469</ele>
        <time>2025-08-26T08:16:56.007Z</time>
      </trkpt>
      <trkpt lat="51.714546" lon="7.148978">
        <ele>36.100241</ele>
        <time>2025-08-26T08:17:17.202Z</time>
      </trkpt>
      <trkpt lat="51.714629" lon="7.149570">
        <ele>36.088468</ele>
        <time>2025-08-26T08:17:24.678Z</time>
      </trkpt>
      <trkpt lat="51.714697" lon="7.149857">
        <ele>36.092884</ele>
        <time>2025-08-26T08:17:28.468Z</time>
      </trkpt>
      <trkpt lat="51.715123" lon="7.151416">
        <ele>36.117371</ele>
        <time>2025-08-26T08:17:49.748Z</time>
      </trkpt>
      <trkpt lat="51.715428" lon="7.152151">
        <ele>36.100654</ele>
        <time>2025-08-26T08:18:00.335Z</time>
      </trkpt>
      <trkpt lat="51.716046" lon="7.154467">
        <ele>35.956868</ele>
        <time>2025-08-26T08:18:30.874Z</time>
      </trkpt>
      <trkpt lat="51.717435" lon="7.159425">
        <ele>36.264112</ele>
        <time>2025-08-26T08:19:38.854Z</time>
      </trkpt>
      <trkpt lat="51.717638" lon="7.160470">
        <ele>36.241735</ele>
        <time>2025-08-26T08:19:52.518Z</time>
      </trkpt>
      <trkpt lat="51.717702" lon="7.160667">
        <ele>36.229171</ele>
        <time>2025-08-26T08:19:55.079Z</time>
      </trkpt>
      <trkpt lat="51.717806" lon="7.160934">
        <ele>36.211359</ele>
        <time>2025-08-26T08:19:58.936Z</time>
      </trkpt>
      <trkpt lat="51.718191" lon="7.161421">
        <ele>36.166768</ele>
        <time>2025-08-26T08:20:08.493Z</time>
      </trkpt>
      <trkpt lat="51.718747" lon="7.162541">
        <ele>36.073957</ele>
        <time>2025-08-26T08:20:25.573Z</time>
      </trkpt>
      <trkpt lat="51.719003" lon="7.163006">
        <ele>36.026919</ele>
        <time>2025-08-26T08:20:32.923Z</time>
      </trkpt>
      <trkpt lat="51.719445" lon="7.163741">
        <ele>35.949465</ele>
        <time>2025-08-26T08:20:45.238Z</time>
      </trkpt>
      <trkpt lat="51.719730" lon="7.164151">
        <ele>35.902869</ele>
        <time>2025-08-26T08:20:52.880Z</time>
      </trkpt>
      <trkpt lat="51.720087" lon="7.164665">
        <ele>36.016578</ele>
        <time>2025-08-26T08:21:02.885Z</time>
      </trkpt>
      <trkpt lat="51.720311" lon="7.165146">
        <ele>36.109954</ele>
        <time>2025-08-26T08:21:10.817Z</time>
      </trkpt>
      <trkpt lat="51.720570" lon="7.165501">
        <ele>36.195061</ele>
        <time>2025-08-26T08:21:18.105Z</time>
      </trkpt>
      <trkpt lat="51.720609" lon="7.165535">
        <ele>36.206163</ele>
        <time>2025-08-26T08:21:19.063Z</time>
      </trkpt>
      <trkpt lat="51.720871" lon="7.165702">
        <ele>36.276721</ele>
        <time>2025-08-26T08:21:24.979Z</time>
      </trkpt>
      <trkpt lat="51.721154" lon="7.165986">
        <ele>36.344009</ele>
        <time>2025-08-26T08:21:31.780Z</time>
      </trkpt>
      <trkpt lat="51.721216" lon="7.165825">
        <ele>36.319313</ele>
        <time>2025-08-26T08:21:35.275Z</time>
      </trkpt>
      <trkpt lat="51.721556" lon="7.166270">
        <ele>36.227269</ele>
        <time>2025-08-26T08:21:43.268Z</time>
      </trkpt>
      <trkpt lat="51.722154" lon="7.167001">
        <ele>36.069532</ele>
        <time>2025-08-26T08:21:56.558Z</time>
      </trkpt>
      <trkpt lat="51.724008" lon="7.169501">
        <ele>35.532687</ele>
        <time>2025-08-26T08:22:39.817Z</time>
      </trkpt>
      <trkpt lat="51.724777" lon="7.170703">
        <ele>35.627165</ele>
        <time>2025-08-26T08:23:00.229Z</time>
      </trkpt>
      <trkpt lat="51.725350" lon="7.171720">
        <ele>35.738803</ele>
        <time>2025-08-26T08:23:16.672Z</time>
      </trkpt>
      <trkpt lat="51.725896" lon="7.172759">
        <ele>35.922407</ele>
        <time>2025-08-26T08:23:32.894Z</time>
      </trkpt>
      <trkpt lat="51.726392" lon="7.173781">
        <ele>36.102803</ele>
        <time>2025-08-26T08:23:48.653Z</time>
      </trkpt>
      <trkpt lat="51.726829" lon="7.174823">
        <ele>36.304587</ele>
        <time>2025-08-26T08:24:04.022Z</time>
      </trkpt>
      <trkpt lat="51.727363" lon="7.176350">
        <ele>36.584188</ele>
        <time>2025-08-26T08:24:25.146Z</time>
      </trkpt>
      <trkpt lat="51.727395" lon="7.176456">
        <ele>36.602514</ele>
        <time>2025-08-26T08:24:26.553Z</time>
      </trkpt>
      <trkpt lat="51.727931" lon="7.178227">
        <ele>36.908845</ele>
        <time>2025-08-26T08:24:50.244Z</time>
      </trkpt>
      <trkpt lat="51.727868" lon="7.178290">
        <ele>36.927439</ele>
        <time>2025-08-26T08:24:51.705Z</time>
      </trkpt>
      <trkpt lat="51.728450" lon="7.180734">
        <ele>37.405598</ele>
        <time>2025-08-26T08:25:25.662Z</time>
      </trkpt>
      <trkpt lat="51.728820" lon="7.182696">
        <ele>37.640430</ele>
        <time>2025-08-26T08:25:52.710Z</time>
      </trkpt>
      <trkpt lat="51.728957" lon="7.183455">
        <ele>37.703704</ele>
        <time>2025-08-26T08:26:02.768Z</time>
      </trkpt>
      <trkpt lat="51.729250" lon="7.185977">
        <ele>37.390431</ele>
        <time>2025-08-26T08:26:33.290Z</time>
      </trkpt>
      <trkpt lat="51.729320" lon="7.186353">
        <ele>37.311407</ele>
        <time>2025-08-26T08:26:37.774Z</time>
      </trkpt>
      <trkpt lat="51.729663" lon="7.187713">
        <ele>37.185685</ele>
        <time>2025-08-26T08:26:54.805Z</time>
      </trkpt>
      <trkpt lat="51.729785" lon="7.188519">
        <ele>37.194661</ele>
        <time>2025-08-26T08:27:04.749Z</time>
      </trkpt>
      <trkpt lat="51.729936" lon="7.190275">
        <ele>37.421709</ele>
        <time>2025-08-26T08:27:28.467Z</time>
      </trkpt>
      <trkpt lat="51.729983" lon="7.191988">
        <ele>38.154061</ele>
        <time>2025-08-26T08:27:53.168Z</time>
      </trkpt>
      <trkpt lat="51.730100" lon="7.192081">
        <ele>38.243990</ele>
        <time>2025-08-26T08:27:56.117Z</time>
      </trkpt>
      <trkpt lat="51.730157" lon="7.192168">
        <ele>38.298080</ele>
        <time>2025-08-26T08:27:57.874Z</time>
      </trkpt>
      <trkpt lat="51.730297" lon="7.192839">
        <ele>38.394358</ele>
        <time>2025-08-26T08:28:07.540Z</time>
      </trkpt>
      <trkpt lat="51.730257" lon="7.193437">
        <ele>38.302265</ele>
        <time>2025-08-26T08:28:14.887Z</time>
      </trkpt>
      <trkpt lat="51.730229" lon="7.194088">
        <ele>38.202349</ele>
        <time>2025-08-26T08:28:22.563Z</time>
      </trkpt>
      <trkpt lat="51.730137" lon="7.194454">
        <ele>38.141870</ele>
        <time>2025-08-26T08:28:27.081Z</time>
      </trkpt>
      <trkpt lat="51.729880" lon="7.194327">
        <ele>38.075429</ele>
        <time>2025-08-26T08:28:31.989Z</time>
      </trkpt>
      <trkpt lat="51.729777" lon="7.195442">
        <ele>37.836758</ele>
        <time>2025-08-26T08:28:44.830Z</time>
      </trkpt>
      <trkpt lat="51.729646" lon="7.196525">
        <ele>37.557619</ele>
        <time>2025-08-26T08:28:57.613Z</time>
      </trkpt>
      <trkpt lat="51.729518" lon="7.197301">
        <ele>37.354474</ele>
        <time>2025-08-26T08:29:07.293Z</time>
      </trkpt>
      <trkpt lat="51.729348" lon="7.198151">
        <ele>37.214593</ele>
        <time>2025-08-26T08:29:18.102Z</time>
      </trkpt>
      <trkpt lat="51.729130" lon="7.199109">
        <ele>37.114037</ele>
        <time>2025-08-26T08:29:30.281Z</time>
      </trkpt>
      <trkpt lat="51.728715" lon="7.200723">
        <ele>36.989864</ele>
        <time>2025-08-26T08:29:51.203Z</time>
      </trkpt>
      <trkpt lat="51.728077" lon="7.203069">
        <ele>37.020955</ele>
        <time>2025-08-26T08:30:23.363Z</time>
      </trkpt>
      <trkpt lat="51.727299" lon="7.206016">
        <ele>36.762686</ele>
        <time>2025-08-26T08:31:01.746Z</time>
      </trkpt>
      <trkpt lat="51.725842" lon="7.211752">
        <ele>36.719012</ele>
        <time>2025-08-26T08:32:17.562Z</time>
      </trkpt>
      <trkpt lat="51.725558" lon="7.213017">
        <ele>36.752173</ele>
        <time>2025-08-26T08:32:34.250Z</time>
      </trkpt>
      <trkpt lat="51.725329" lon="7.214137">
        <ele>36.801497</ele>
        <time>2025-08-26T08:32:49.097Z</time>
      </trkpt>
      <trkpt lat="51.723911" lon="7.221638">
        <ele>37.253181</ele>
        <time>2025-08-26T08:34:27.340Z</time>
      </trkpt>
      <trkpt lat="51.723807" lon="7.221940">
        <ele>37.258721</ele>
        <time>2025-08-26T08:34:31.426Z</time>
      </trkpt>
      <trkpt lat="51.723629" lon="7.222344">
        <ele>37.227687</ele>
        <time>2025-08-26T08:34:37.306Z</time>
      </trkpt>
      <trkpt lat="51.723574" lon="7.222622">
        <ele>37.201246</ele>
        <time>2025-08-26T08:34:40.750Z</time>
      </trkpt>
      <trkpt lat="51.723582" lon="7.223158">
        <ele>37.152668</ele>
        <time>2025-08-26T08:34:47.058Z</time>
      </trkpt>
      <trkpt lat="51.723522" lon="7.223688">
        <ele>37.103853</ele>
        <time>2025-08-26T08:34:53.408Z</time>
      </trkpt>
      <trkpt lat="51.723289" lon="7.224916">
        <ele>37.011818</ele>
        <time>2025-08-26T08:35:08.993Z</time>
      </trkpt>
      <trkpt lat="51.722935" lon="7.226776">
        <ele>37.254180</ele>
        <time>2025-08-26T08:35:34.445Z</time>
      </trkpt>
      <trkpt lat="51.722862" lon="7.227144">
        <ele>37.302309</ele>
        <time>2025-08-26T08:35:39.452Z</time>
      </trkpt>
      <trkpt lat="51.722749" lon="7.227575">
        <ele>37.357527</ele>
        <time>2025-08-26T08:35:45.315Z</time>
      </trkpt>
      <trkpt lat="51.722555" lon="7.228075">
        <ele>37.244889</ele>
        <time>2025-08-26T08:35:52.516Z</time>
      </trkpt>
      <trkpt lat="51.722485" lon="7.228429">
        <ele>37.173944</ele>
        <time>2025-08-26T08:35:57.107Z</time>
      </trkpt>
      <trkpt lat="51.722478" lon="7.228912">
        <ele>37.081704</ele>
        <time>2025-08-26T08:36:02.891Z</time>
      </trkpt>
      <trkpt lat="51.722414" lon="7.229527">
        <ele>36.962643</ele>
        <time>2025-08-26T08:36:10.002Z</time>
      </trkpt>
      <trkpt lat="51.722009" lon="7.231608">
        <ele>36.331032</ele>
        <time>2025-08-26T08:36:35.068Z</time>
      </trkpt>
      <trkpt lat="51.721756" lon="7.233083">
        <ele>35.795951</ele>
        <time>2025-08-26T08:36:52.694Z</time>
      </trkpt>
      <trkpt lat="51.721714" lon="7.233268">
        <ele>35.763675</ele>
        <time>2025-08-26T08:36:54.957Z</time>
      </trkpt>
      <trkpt lat="51.721455" lon="7.233870">
        <ele>35.656589</ele>
        <time>2025-08-26T08:37:03.401Z</time>
      </trkpt>
      <trkpt lat="51.721361" lon="7.234466">
        <ele>35.566733</ele>
        <time>2025-08-26T08:37:10.659Z</time>
      </trkpt>
      <trkpt lat="51.721323" lon="7.235271">
        <ele>35.448778</ele>
        <time>2025-08-26T08:37:20.435Z</time>
      </trkpt>
      <trkpt lat="51.721336" lon="7.235401">
        <ele>35.429538</ele>
        <time>2025-08-26T08:37:22.047Z</time>
      </trkpt>
      <trkpt lat="51.720827" lon="7.238094">
        <ele>35.849471</ele>
        <time>2025-08-26T08:37:57.885Z</time>
      </trkpt>
      <trkpt lat="51.719656" lon="7.240744">
        <ele>37.602066</ele>
        <time>2025-08-26T08:38:44.904Z</time>
      </trkpt>
      <trkpt lat="51.719194" lon="7.241607">
        <ele>38.088929</ele>
        <time>2025-08-26T08:39:03.437Z</time>
      </trkpt>
      <trkpt lat="51.719104" lon="7.241767">
        <ele>38.174393</ele>
        <time>2025-08-26T08:39:06.656Z</time>
      </trkpt>
      <trkpt lat="51.717971" lon="7.244349">
        <ele>38.409086</ele>
        <time>2025-08-26T08:39:42.106Z</time>
      </trkpt>
      <trkpt lat="51.717725" lon="7.245001">
        <ele>38.173813</ele>
        <time>2025-08-26T08:39:50.329Z</time>
      </trkpt>
      <trkpt lat="51.717505" lon="7.245700">
        <ele>37.975180</ele>
        <time>2025-08-26T08:39:58.861Z</time>
      </trkpt>
      <trkpt lat="51.717437" lon="7.245890">
        <ele>38.013673</ele>
        <time>2025-08-26T08:40:01.264Z</time>
      </trkpt>
      <trkpt lat="51.717301" lon="7.246101">
        <ele>38.067088</ele>
        <time>2025-08-26T08:40:04.646Z</time>
      </trkpt>
      <trkpt lat="51.716322" lon="7.249168">
        <ele>39.264426</ele>
        <time>2025-08-26T08:40:53.386Z</time>
      </trkpt>
      <trkpt lat="51.715754" lon="7.250888">
        <ele>40.475311</ele>
        <time>2025-08-26T08:41:24.446Z</time>
      </trkpt>
      <trkpt lat="51.715689" lon="7.251162">
        <ele>40.496791</ele>
        <time>2025-08-26T08:41:28.665Z</time>
      </trkpt>
      <trkpt lat="51.715598" lon="7.251752">
        <ele>40.541305</ele>
        <time>2025-08-26T08:41:36.823Z</time>
      </trkpt>
      <trkpt lat="51.714338" lon="7.257996">
        <ele>40.954655</ele>
        <time>2025-08-26T08:42:56.432Z</time>
      </trkpt>
      <trkpt lat="51.714001" lon="7.260164">
        <ele>41.273697</ele>
        <time>2025-08-26T08:43:25.448Z</time>
      </trkpt>
      <trkpt lat="51.713872" lon="7.261206">
        <ele>41.522174</ele>
        <time>2025-08-26T08:43:39.545Z</time>
      </trkpt>
      <trkpt lat="51.713740" lon="7.262649">
        <ele>41.873809</ele>
        <time>2025-08-26T08:43:58.992Z</time>
      </trkpt>
      <trkpt lat="51.713461" lon="7.266466">
        <ele>42.644315</ele>
        <time>2025-08-26T08:44:49.884Z</time>
      </trkpt>
      <trkpt lat="51.713416" lon="7.266925">
        <ele>42.712000</ele>
        <time>2025-08-26T08:44:55.658Z</time>
      </trkpt>
      <trkpt lat="51.713420" lon="7.267264">
        <ele>42.761384</ele>
        <time>2025-08-26T08:44:59.824Z</time>
      </trkpt>
      <trkpt lat="51.713335" lon="7.268095">
        <ele>42.794120</ele>
        <time>2025-08-26T08:45:10.056Z</time>
      </trkpt>
      <trkpt lat="51.712931" lon="7.273616">
        <ele>42.679491</ele>
        <time>2025-08-26T08:46:17.753Z</time>
      </trkpt>
      <trkpt lat="51.712935" lon="7.274090">
        <ele>42.698575</ele>
        <time>2025-08-26T08:46:23.869Z</time>
      </trkpt>
      <trkpt lat="51.712842" lon="7.274452">
        <ele>42.714351</ele>
        <time>2025-08-26T08:46:28.887Z</time>
      </trkpt>
      <trkpt lat="51.712796" lon="7.274780">
        <ele>42.727889</ele>
        <time>2025-08-26T08:46:33.183Z</time>
      </trkpt>
      <trkpt lat="51.712641" lon="7.275767">
        <ele>42.768878</ele>
        <time>2025-08-26T08:46:45.895Z</time>
      </trkpt>
      <trkpt lat="51.712189" lon="7.278187">
        <ele>42.491598</ele>
        <time>2025-08-26T08:47:15.949Z</time>
      </trkpt>
      <trkpt lat="51.711518" lon="7.280599">
        <ele>42.133884</ele>
        <time>2025-08-26T08:47:47.511Z</time>
      </trkpt>
      <trkpt lat="51.711487" lon="7.280818">
        <ele>42.103970</ele>
        <time>2025-08-26T08:47:50.179Z</time>
      </trkpt>
      <trkpt lat="51.711287" lon="7.281278">
        <ele>42.029138</ele>
        <time>2025-08-26T08:47:56.875Z</time>
      </trkpt>
      <trkpt lat="51.710983" lon="7.282148">
        <ele>41.990553</ele>
        <time>2025-08-26T08:48:08.858Z</time>
      </trkpt>
      <trkpt lat="51.710626" lon="7.283018">
        <ele>41.987638</ele>
        <time>2025-08-26T08:48:21.551Z</time>
      </trkpt>
      <trkpt lat="51.710153" lon="7.284104">
        <ele>41.981556</ele>
        <time>2025-08-26T08:48:38.391Z</time>
      </trkpt>
      <trkpt lat="51.709593" lon="7.285298">
        <ele>41.958899</ele>
        <time>2025-08-26T08:48:57.038Z</time>
      </trkpt>
      <trkpt lat="51.709060" lon="7.286671">
        <ele>41.880433</ele>
        <time>2025-08-26T08:49:16.498Z</time>
      </trkpt>
      <trkpt lat="51.708147" lon="7.288589">
        <ele>41.523516</ele>
        <time>2025-08-26T08:49:45.179Z</time>
      </trkpt>
      <trkpt lat="51.707311" lon="7.289972">
        <ele>41.284824</ele>
        <time>2025-08-26T08:50:08.410Z</time>
      </trkpt>
      <trkpt lat="51.706733" lon="7.291146">
        <ele>41.165686</ele>
        <time>2025-08-26T08:50:26.256Z</time>
      </trkpt>
      <trkpt lat="51.706551" lon="7.291542">
        <ele>41.175714</ele>
        <time>2025-08-26T08:50:32.163Z</time>
      </trkpt>
      <trkpt lat="51.706141" lon="7.292478">
        <ele>41.199028</ele>
        <time>2025-08-26T08:50:46.209Z</time>
      </trkpt>
      <trkpt lat="51.705564" lon="7.293916">
        <ele>41.458893</ele>
        <time>2025-08-26T08:51:08.877Z</time>
      </trkpt>
      <trkpt lat="51.705282" lon="7.294467">
        <ele>41.651678</ele>
        <time>2025-08-26T08:51:18.691Z</time>
      </trkpt>
      <trkpt lat="51.704806" lon="7.295272">
        <ele>41.951846</ele>
        <time>2025-08-26T08:51:34.068Z</time>
      </trkpt>
      <trkpt lat="51.704026" lon="7.296276">
        <ele>41.729743</ele>
        <time>2025-08-26T08:51:53.758Z</time>
      </trkpt>
      <trkpt lat="51.703639" lon="7.296830">
        <ele>41.573603</ele>
        <time>2025-08-26T08:52:03.301Z</time>
      </trkpt>
      <trkpt lat="51.703252" lon="7.297444">
        <ele>41.376936</ele>
        <time>2025-08-26T08:52:13.045Z</time>
      </trkpt>
      <trkpt lat="51.702360" lon="7.299098">
        <ele>40.673004</ele>
        <time>2025-08-26T08:52:38.140Z</time>
      </trkpt>
      <trkpt lat="51.700802" lon="7.301454">
        <ele>40.734956</ele>
        <time>2025-08-26T08:53:21.495Z</time>
      </trkpt>
      <trkpt lat="51.700024" lon="7.302680">
        <ele>41.060168</ele>
        <time>2025-08-26T08:53:44.081Z</time>
      </trkpt>
      <trkpt lat="51.699772" lon="7.303123">
        <ele>41.171616</ele>
        <time>2025-08-26T08:53:52.166Z</time>
      </trkpt>
      <trkpt lat="51.698656" lon="7.304576">
        <ele>41.617600</ele>
        <time>2025-08-26T08:54:22.375Z</time>
      </trkpt>
      <trkpt lat="51.697981" lon="7.305587">
        <ele>41.923576</ele>
        <time>2025-08-26T08:54:41.592Z</time>
      </trkpt>
      <trkpt lat="51.697827" lon="7.305944">
        <ele>42.025165</ele>
        <time>2025-08-26T08:54:50.021Z</time>
      </trkpt>
      <trkpt lat="51.697761" lon="7.306188">
        <ele>42.087346</ele>
        <time>2025-08-26T08:54:55.199Z</time>
      </trkpt>
      <trkpt lat="51.697703" lon="7.306308">
        <ele>42.122888</ele>
        <time>2025-08-26T08:54:58.198Z</time>
      </trkpt>
      <trkpt lat="51.697916" lon="7.306895">
        <ele>42.281759</ele>
        <time>2025-08-26T08:55:06.904Z</time>
      </trkpt>
      <trkpt lat="51.698109" lon="7.307548">
        <ele>42.450730</ele>
        <time>2025-08-26T08:55:16.328Z</time>
      </trkpt>
      <trkpt lat="51.698216" lon="7.308025">
        <ele>42.419478</ele>
        <time>2025-08-26T08:55:22.439Z</time>
      </trkpt>
      <trkpt lat="51.698308" lon="7.308709">
        <ele>42.224866</ele>
        <time>2025-08-26T08:55:30.097Z</time>
      </trkpt>
      <trkpt lat="51.698359" lon="7.309018">
        <ele>42.135955</ele>
        <time>2025-08-26T08:55:33.336Z</time>
      </trkpt>
      <trkpt lat="51.698417" lon="7.309213">
        <ele>42.075816</ele>
        <time>2025-08-26T08:55:35.511Z</time>
      </trkpt>
      <trkpt lat="51.698505" lon="7.309343">
        <ele>42.022290</ele>
        <time>2025-08-26T08:55:37.426Z</time>
      </trkpt>
      <trkpt lat="51.698470" lon="7.309435">
        <ele>41.992275</ele>
        <time>2025-08-26T08:55:39.300Z</time>
      </trkpt>
      <trkpt lat="51.698454" lon="7.309615">
        <ele>41.941715</ele>
        <time>2025-08-26T08:55:42.441Z</time>
      </trkpt>
      <trkpt lat="51.698530" lon="7.309963">
        <ele>41.839123</ele>
        <time>2025-08-26T08:55:48.873Z</time>
      </trkpt>
      <trkpt lat="51.698740" lon="7.310528">
        <ele>41.647281</ele>
        <time>2025-08-26T08:56:00.453Z</time>
      </trkpt>
      <trkpt lat="51.698941" lon="7.310932">
        <ele>41.470416</ele>
        <time>2025-08-26T08:56:09.582Z</time>
      </trkpt>
      <trkpt lat="51.699176" lon="7.311267">
        <ele>41.297686</ele>
        <time>2025-08-26T08:56:18.562Z</time>
      </trkpt>
      <trkpt lat="51.699357" lon="7.311462">
        <ele>41.177804</ele>
        <time>2025-08-26T08:56:24.816Z</time>
      </trkpt>
      <trkpt lat="51.699687" lon="7.311732">
        <ele>40.973996</ele>
        <time>2025-08-26T08:56:35.328Z</time>
      </trkpt>
      <trkpt lat="51.699860" lon="7.311835">
        <ele>40.872423</ele>
        <time>2025-08-26T08:56:40.531Z</time>
      </trkpt>
      <trkpt lat="51.700263" lon="7.311970">
        <ele>40.640785</ele>
        <time>2025-08-26T08:56:52.127Z</time>
      </trkpt>
      <trkpt lat="51.700501" lon="7.312002">
        <ele>40.497980</ele>
        <time>2025-08-26T08:56:58.904Z</time>
      </trkpt>
      <trkpt lat="51.700887" lon="7.312133">
        <ele>40.262120</ele>
        <time>2025-08-26T08:57:10.156Z</time>
      </trkpt>
      <trkpt lat="51.701029" lon="7.312126">
        <ele>40.177172</ele>
        <time>2025-08-26T08:57:14.220Z</time>
      </trkpt>
      <trkpt lat="51.701119" lon="7.312108">
        <ele>40.122944</ele>
        <time>2025-08-26T08:57:16.796Z</time>
      </trkpt>
      <trkpt lat="51.701199" lon="7.312019">
        <ele>40.064840</ele>
        <time>2025-08-26T08:57:19.566Z</time>
      </trkpt>
      <trkpt lat="51.701234" lon="7.311885">
        <ele>40.010951</ele>
        <time>2025-08-26T08:57:22.125Z</time>
      </trkpt>
      <trkpt lat="51.701275" lon="7.311825">
        <ele>39.977854</ele>
        <time>2025-08-26T08:57:23.035Z</time>
      </trkpt>
      <trkpt lat="51.701290" lon="7.311652">
        <ele>39.913118</ele>
        <time>2025-08-26T08:57:24.815Z</time>
      </trkpt>
      <trkpt lat="51.701515" lon="7.311598">
        <ele>39.777099</ele>
        <time>2025-08-26T08:57:28.530Z</time>
      </trkpt>
      <trkpt lat="51.701656" lon="7.311564">
        <ele>39.691852</ele>
        <time>2025-08-26T08:57:30.832Z</time>
      </trkpt>
      <trkpt lat="51.701656" lon="7.311508">
        <ele>39.671099</ele>
        <time>2025-08-26T08:57:31.592Z</time>
      </trkpt>
      <trkpt lat="51.701990" lon="7.311556">
        <ele>39.759381</ele>
        <time>2025-08-26T08:57:37.009Z</time>
      </trkpt>
      <trkpt lat="51.702274" lon="7.311741">
        <ele>39.912808</ele>
        <time>2025-08-26T08:57:42.281Z</time>
      </trkpt>
      <trkpt lat="51.702904" lon="7.312206">
        <ele>40.259859</ele>
        <time>2025-08-26T08:57:55.809Z</time>
      </trkpt>
      <trkpt lat="51.702911" lon="7.312209">
        <ele>40.263487</ele>
        <time>2025-08-26T08:57:55.946Z</time>
      </trkpt>
      <trkpt lat="51.703086" lon="7.312290">
        <ele>40.354689</ele>
        <time>2025-08-26T08:57:59.894Z</time>
      </trkpt>
      <trkpt lat="51.703483" lon="7.312570">
        <ele>40.745480</ele>
        <time>2025-08-26T08:58:10.155Z</time>
      </trkpt>
      <trkpt lat="51.703562" lon="7.312581">
        <ele>40.945822</ele>
        <time>2025-08-26T08:58:12.235Z</time>
      </trkpt>
      <trkpt lat="51.703653" lon="7.312649">
        <ele>41.199199</ele>
        <time>2025-08-26T08:58:14.904Z</time>
      </trkpt>
      <trkpt lat="51.703692" lon="7.312715">
        <ele>41.341990</ele>
        <time>2025-08-26T08:58:16.468Z</time>
      </trkpt>
      <trkpt lat="51.704349" lon="7.313237">
        <ele>43.192268</ele>
        <time>2025-08-26T08:58:38.118Z</time>
      </trkpt>
      <trkpt lat="51.704606" lon="7.313508">
        <ele>43.967951</ele>
        <time>2025-08-26T08:58:46.996Z</time>
      </trkpt>
      <trkpt lat="51.704721" lon="7.313715">
        <ele>44.403235</ele>
        <time>2025-08-26T08:58:51.908Z</time>
      </trkpt>
      <trkpt lat="51.704795" lon="7.313927">
        <ele>44.784210</ele>
        <time>2025-08-26T08:58:56.308Z</time>
      </trkpt>
      <trkpt lat="51.704863" lon="7.314218">
        <ele>45.183666</ele>
        <time>2025-08-26T08:59:01.964Z</time>
      </trkpt>
      <trkpt lat="51.704883" lon="7.314552">
        <ele>45.476858</ele>
        <time>2025-08-26T08:59:07.915Z</time>
      </trkpt>
      <trkpt lat="51.704862" lon="7.314871">
        <ele>45.757153</ele>
        <time>2025-08-26T08:59:13.385Z</time>
      </trkpt>
      <trkpt lat="51.704746" lon="7.315424">
        <ele>46.267268</ele>
        <time>2025-08-26T08:59:22.696Z</time>
      </trkpt>
      <trkpt lat="51.704711" lon="7.315566">
        <ele>46.400795</ele>
        <time>2025-08-26T08:59:25.030Z</time>
      </trkpt>
      <trkpt lat="51.704659" lon="7.315789">
        <ele>46.608979</ele>
        <time>2025-08-26T08:59:28.453Z</time>
      </trkpt>
      <trkpt lat="51.704628" lon="7.315908">
        <ele>46.721769</ele>
        <time>2025-08-26T08:59:30.244Z</time>
      </trkpt>
      <trkpt lat="51.705349" lon="7.316696">
        <ele>47.499414</ele>
        <time>2025-08-26T08:59:48.439Z</time>
      </trkpt>
      <trkpt lat="51.705771" lon="7.317296">
        <ele>47.243759</ele>
        <time>2025-08-26T08:59:58.654Z</time>
      </trkpt>
      <trkpt lat="51.705988" lon="7.317838">
        <ele>47.061996</ele>
        <time>2025-08-26T09:00:05.946Z</time>
      </trkpt>
      <trkpt lat="51.706601" lon="7.319043">
        <ele>46.783011</ele>
        <time>2025-08-26T09:00:23.813Z</time>
      </trkpt>
      <trkpt lat="51.707064" lon="7.320116">
        <ele>46.764294</ele>
        <time>2025-08-26T09:00:40.262Z</time>
      </trkpt>
      <trkpt lat="51.707354" lon="7.320765">
        <ele>46.752841</ele>
        <time>2025-08-26T09:00:50.523Z</time>
      </trkpt>
      <trkpt lat="51.707708" lon="7.321456">
        <ele>46.717134</ele>
        <time>2025-08-26T09:01:02.102Z</time>
      </trkpt>
      <trkpt lat="51.707925" lon="7.321960">
        <ele>46.688315</ele>
        <time>2025-08-26T09:01:09.884Z</time>
      </trkpt>
      <trkpt lat="51.708180" lon="7.322734">
        <ele>46.647153</ele>
        <time>2025-08-26T09:01:20.278Z</time>
      </trkpt>
      <trkpt lat="51.708286" lon="7.323222">
        <ele>46.622871</ele>
        <time>2025-08-26T09:01:26.334Z</time>
      </trkpt>
      <trkpt lat="51.708331" lon="7.323771">
        <ele>46.563856</ele>
        <time>2025-08-26T09:01:32.840Z</time>
      </trkpt>
      <trkpt lat="51.708339" lon="7.325975">
        <ele>46.257879</ele>
        <time>2025-08-26T09:01:59.272Z</time>
      </trkpt>
      <trkpt lat="51.708403" lon="7.326349">
        <ele>46.202971</ele>
        <time>2025-08-26T09:02:06.265Z</time>
      </trkpt>
      <trkpt lat="51.708707" lon="7.327516">
        <ele>46.000120</ele>
        <time>2025-08-26T09:02:28.945Z</time>
      </trkpt>
      <trkpt lat="51.709568" lon="7.330995">
        <ele>45.370395</ele>
        <time>2025-08-26T09:03:36.550Z</time>
      </trkpt>
      <trkpt lat="51.710418" lon="7.333531">
        <ele>44.751966</ele>
        <time>2025-08-26T09:04:28.122Z</time>
      </trkpt>
      <trkpt lat="51.710762" lon="7.334547">
        <ele>44.456044</ele>
        <time>2025-08-26T09:04:48.656Z</time>
      </trkpt>
      <trkpt lat="51.712444" lon="7.334858">
        <ele>43.674869</ele>
        <time>2025-08-26T09:05:36.686Z</time>
      </trkpt>
      <trkpt lat="51.714810" lon="7.335357">
        <ele>43.663511</ele>
        <time>2025-08-26T09:06:47.863Z</time>
      </trkpt>
      <trkpt lat="51.716116" lon="7.335631">
        <ele>43.901648</ele>
        <time>2025-08-26T09:07:27.628Z</time>
      </trkpt>
      <trkpt lat="51.718222" lon="7.336070">
        <ele>44.961704</ele>
        <time>2025-08-26T09:08:34.690Z</time>
      </trkpt>
      <trkpt lat="51.718223" lon="7.335999">
        <ele>44.994123</ele>
        <time>2025-08-26T09:08:35.681Z</time>
      </trkpt>
      <trkpt lat="51.718240" lon="7.335105">
        <ele>45.402411</ele>
        <time>2025-08-26T09:08:48.044Z</time>
      </trkpt>
      <trkpt lat="51.718262" lon="7.334467">
        <ele>45.694098</ele>
        <time>2025-08-26T09:08:56.527Z</time>
      </trkpt>
      <trkpt lat="51.718330" lon="7.334181">
        <ele>45.833936</ele>
        <time>2025-08-26T09:09:00.522Z</time>
      </trkpt>
      <trkpt lat="51.719969" lon="7.331217">
        <ele>47.303581</ele>
        <time>2025-08-26T09:09:50.251Z</time>
      </trkpt>
      <trkpt lat="51.720744" lon="7.329719">
        <ele>47.847075</ele>
        <time>2025-08-26T09:10:13.983Z</time>
      </trkpt>
      <trkpt lat="51.721332" lon="7.328583">
        <ele>47.836607</ele>
        <time>2025-08-26T09:10:31.176Z</time>
      </trkpt>
      <trkpt lat="51.724153" lon="7.323167">
        <ele>46.694093</ele>
        <time>2025-08-26T09:11:46.055Z</time>
      </trkpt>
      <trkpt lat="51.725084" lon="7.321356">
        <ele>46.187000</ele>
        <time>2025-08-26T09:12:10.753Z</time>
      </trkpt>
      <trkpt lat="51.725880" lon="7.319633">
        <ele>45.935247</ele>
        <time>2025-08-26T09:12:33.471Z</time>
      </trkpt>
      <trkpt lat="51.728478" lon="7.320572">
        <ele>45.895764</ele>
        <time>2025-08-26T09:13:24.449Z</time>
      </trkpt>
      <trkpt lat="51.730194" lon="7.321187">
        <ele>44.936101</ele>
        <time>2025-08-26T09:13:54.343Z</time>
      </trkpt>
      <trkpt lat="51.733232" lon="7.322358">
        <ele>44.451713</ele>
        <time>2025-08-26T09:14:51.178Z</time>
      </trkpt>
      <trkpt lat="51.734567" lon="7.322872">
        <ele>44.757274</ele>
        <time>2025-08-26T09:15:17.615Z</time>
      </trkpt>
      <trkpt lat="51.734769" lon="7.321766">
        <ele>45.033627</ele>
        <time>2025-08-26T09:15:33.851Z</time>
      </trkpt>
      <trkpt lat="51.734909" lon="7.321666">
        <ele>45.092869</ele>
        <time>2025-08-26T09:15:37.271Z</time>
      </trkpt>
      <trkpt lat="51.735639" lon="7.322001">
        <ele>44.730326</ele>
        <time>2025-08-26T09:15:53.020Z</time>
      </trkpt>
      <trkpt lat="51.736080" lon="7.320685">
        <ele>44.184807</ele>
        <time>2025-08-26T09:16:12.767Z</time>
      </trkpt>
      <trkpt lat="51.736768" lon="7.321096">
        <ele>43.802909</ele>
        <time>2025-08-26T09:16:24.465Z</time>
      </trkpt>
      <trkpt lat="51.737097" lon="7.321280">
        <ele>43.630502</ele>
        <time>2025-08-26T09:16:30.311Z</time>
      </trkpt>
      <trkpt lat="51.737520" lon="7.321554">
        <ele>43.404818</ele>
        <time>2025-08-26T09:16:38.008Z</time>
      </trkpt>
      <trkpt lat="51.737855" lon="7.321872">
        <ele>43.212396</ele>
        <time>2025-08-26T09:16:45.357Z</time>
      </trkpt>
      <trkpt lat="51.738144" lon="7.322256">
        <ele>43.492951</ele>
        <time>2025-08-26T09:16:53.498Z</time>
      </trkpt>
      <trkpt lat="51.738432" lon="7.322783">
        <ele>43.948197</ele>
        <time>2025-08-26T09:17:03.222Z</time>
      </trkpt>
      <trkpt lat="51.740040" lon="7.326781">
        <ele>46.881859</ele>
        <time>2025-08-26T09:18:09.795Z</time>
      </trkpt>
      <trkpt lat="51.740894" lon="7.329024">
        <ele>46.594164</ele>
        <time>2025-08-26T09:18:37.266Z</time>
      </trkpt>
      <trkpt lat="51.740974" lon="7.328976">
        <ele>46.583699</ele>
        <time>2025-08-26T09:18:38.692Z</time>
      </trkpt>
      <trkpt lat="51.741356" lon="7.328712">
        <ele>46.710594</ele>
        <time>2025-08-26T09:18:45.745Z</time>
      </trkpt>
      <trkpt lat="51.741549" lon="7.328678">
        <ele>46.769885</ele>
        <time>2025-08-26T09:18:49.125Z</time>
      </trkpt>
      <trkpt lat="51.741753" lon="7.328741">
        <ele>46.833315</ele>
        <time>2025-08-26T09:18:52.945Z</time>
      </trkpt>
      <trkpt lat="51.742108" lon="7.328923">
        <ele>46.947062</ele>
        <time>2025-08-26T09:19:00.408Z</time>
      </trkpt>
      <trkpt lat="51.742356" lon="7.329054">
        <ele>47.026749</ele>
        <time>2025-08-26T09:19:05.922Z</time>
      </trkpt>
      <trkpt lat="51.742546" lon="7.329096">
        <ele>47.085315</ele>
        <time>2025-08-26T09:19:09.955Z</time>
      </trkpt>
      <trkpt lat="51.743456" lon="7.329114">
        <ele>47.552531</ele>
        <time>2025-08-26T09:19:29.448Z</time>
      </trkpt>
      <trkpt lat="51.746638" lon="7.329093">
        <ele>48.837507</ele>
        <time>2025-08-26T09:20:29.913Z</time>
      </trkpt>
      <trkpt lat="51.749246" lon="7.329071">
        <ele>49.956570</ele>
        <time>2025-08-26T09:21:21.048Z</time>
      </trkpt>
      <trkpt lat="51.752489" lon="7.329045">
        <ele>52.061234</ele>
        <time>2025-08-26T09:22:26.002Z</time>
      </trkpt>
      <trkpt lat="51.759606" lon="7.329290">
        <ele>58.774848</ele>
        <time>2025-08-26T09:25:03.247Z</time>
      </trkpt>
      <trkpt lat="51.759144" lon="7.324670">
        <ele>58.546676</ele>
        <time>2025-08-26T09:26:26.967Z</time>
      </trkpt>
      <trkpt lat="51.759123" lon="7.324467">
        <ele>58.604358</ele>
        <time>2025-08-26T09:26:30.703Z</time>
      </trkpt>
      <trkpt lat="51.758881" lon="7.322112">
        <ele>59.273409</ele>
        <time>2025-08-26T09:26:58.876Z</time>
      </trkpt>
      <trkpt lat="51.760577" lon="7.321782">
        <ele>61.638593</ele>
        <time>2025-08-26T09:27:40.010Z</time>
      </trkpt>
      <trkpt lat="51.762724" lon="7.321365">
        <ele>64.767980</ele>
        <time>2025-08-26T09:28:32.689Z</time>
      </trkpt>
      <trkpt lat="51.765191" lon="7.320972">
        <ele>66.533811</ele>
        <time>2025-08-26T09:29:20.405Z</time>
      </trkpt>
      <trkpt lat="51.765558" lon="7.320966">
        <ele>66.914388</ele>
        <time>2025-08-26T09:29:28.768Z</time>
      </trkpt>
      <trkpt lat="51.765746" lon="7.321172">
        <ele>67.149931</ele>
        <time>2025-08-26T09:29:34.320Z</time>
      </trkpt>
      <trkpt lat="51.765896" lon="7.321410">
        <ele>67.367923</ele>
        <time>2025-08-26T09:29:39.705Z</time>
      </trkpt>
      <trkpt lat="51.766194" lon="7.322019">
        <ele>67.600279</ele>
        <time>2025-08-26T09:29:51.588Z</time>
      </trkpt>
      <trkpt lat="51.766381" lon="7.322238">
        <ele>67.614975</ele>
        <time>2025-08-26T09:29:57.030Z</time>
      </trkpt>
      <trkpt lat="51.766711" lon="7.322350">
        <ele>67.636432</ele>
        <time>2025-08-26T09:30:04.388Z</time>
      </trkpt>
      <trkpt lat="51.768690" lon="7.322781">
        <ele>66.211573</ele>
        <time>2025-08-26T09:30:35.771Z</time>
      </trkpt>
      <trkpt lat="51.769647" lon="7.322978">
        <ele>64.874465</ele>
        <time>2025-08-26T09:30:50.028Z</time>
      </trkpt>
      <trkpt lat="51.769873" lon="7.322986">
        <ele>64.597249</ele>
        <time>2025-08-26T09:30:53.450Z</time>
      </trkpt>
      <trkpt lat="51.770285" lon="7.322935">
        <ele>64.090523</ele>
        <time>2025-08-26T09:30:59.787Z</time>
      </trkpt>
      <trkpt lat="51.770441" lon="7.322871">
        <ele>63.893147</ele>
        <time>2025-08-26T09:31:02.307Z</time>
      </trkpt>
      <trkpt lat="51.772174" lon="7.321759">
        <ele>62.140182</ele>
        <time>2025-08-26T09:31:32.323Z</time>
      </trkpt>
      <trkpt lat="51.772675" lon="7.321105">
        <ele>61.671052</ele>
        <time>2025-08-26T09:31:42.885Z</time>
      </trkpt>
      <trkpt lat="51.772899" lon="7.320705">
        <ele>61.595944</ele>
        <time>2025-08-26T09:31:48.531Z</time>
      </trkpt>
      <trkpt lat="51.774094" lon="7.318050">
        <ele>61.118871</ele>
        <time>2025-08-26T09:32:25.781Z</time>
      </trkpt>
      <trkpt lat="51.777525" lon="7.310253">
        <ele>56.310253</ele>
        <time>2025-08-26T09:34:00.731Z</time>
      </trkpt>
      <trkpt lat="51.777686" lon="7.309750">
        <ele>56.000119</ele>
        <time>2025-08-26T09:34:06.312Z</time>
      </trkpt>
      <trkpt lat="51.777799" lon="7.309178">
        <ele>55.671297</ele>
        <time>2025-08-26T09:34:12.304Z</time>
      </trkpt>
      <trkpt lat="51.777868" lon="7.308554">
        <ele>55.455523</ele>
        <time>2025-08-26T09:34:18.701Z</time>
      </trkpt>
      <trkpt lat="51.778319" lon="7.302103">
        <ele>53.708637</ele>
        <time>2025-08-26T09:35:26.911Z</time>
      </trkpt>
      <trkpt lat="51.778421" lon="7.300715">
        <ele>53.280934</ele>
        <time>2025-08-26T09:35:41.256Z</time>
      </trkpt>
      <trkpt lat="51.778455" lon="7.300041">
        <ele>53.065051</ele>
        <time>2025-08-26T09:35:48.175Z</time>
      </trkpt>
      <trkpt lat="51.778455" lon="7.299641">
        <ele>52.932899</ele>
        <time>2025-08-26T09:35:52.246Z</time>
      </trkpt>
      <trkpt lat="51.778426" lon="7.299201">
        <ele>52.786709</ele>
        <time>2025-08-26T09:35:56.725Z</time>
      </trkpt>
      <trkpt lat="51.778257" lon="7.298299">
        <ele>52.475340</ele>
        <time>2025-08-26T09:36:06.367Z</time>
      </trkpt>
      <trkpt lat="51.778081" lon="7.297766">
        <ele>52.275735</ele>
        <time>2025-08-26T09:36:12.595Z</time>
      </trkpt>
      <trkpt lat="51.777410" lon="7.296197">
        <ele>52.320309</ele>
        <time>2025-08-26T09:36:33.071Z</time>
      </trkpt>
      <trkpt lat="51.776370" lon="7.293812">
        <ele>53.099029</ele>
        <time>2025-08-26T09:37:09.882Z</time>
      </trkpt>
      <trkpt lat="51.776248" lon="7.293602">
        <ele>53.215878</ele>
        <time>2025-08-26T09:37:13.707Z</time>
      </trkpt>
      <trkpt lat="51.776121" lon="7.293465">
        <ele>53.315981</ele>
        <time>2025-08-26T09:37:16.965Z</time>
      </trkpt>
      <trkpt lat="51.775965" lon="7.293393">
        <ele>53.422343</ele>
        <time>2025-08-26T09:37:20.345Z</time>
      </trkpt>
      <trkpt lat="51.775796" lon="7.293379">
        <ele>53.533284</ele>
        <time>2025-08-26T09:37:23.801Z</time>
      </trkpt>
      <trkpt lat="51.775334" lon="7.293520">
        <ele>53.518663</ele>
        <time>2025-08-26T09:37:32.968Z</time>
      </trkpt>
      <trkpt lat="51.775208" lon="7.293520">
        <ele>53.506104</ele>
        <time>2025-08-26T09:37:35.321Z</time>
      </trkpt>
      <trkpt lat="51.775084" lon="7.293461">
        <ele>53.493221</ele>
        <time>2025-08-26T09:37:37.699Z</time>
      </trkpt>
      <trkpt lat="51.774904" lon="7.293296">
        <ele>53.472595</ele>
        <time>2025-08-26T09:37:41.402Z</time>
      </trkpt>
      <trkpt lat="51.774787" lon="7.293117">
        <ele>53.456537</ele>
        <time>2025-08-26T09:37:44.248Z</time>
      </trkpt>
      <trkpt lat="51.774703" lon="7.292877">
        <ele>53.439532</ele>
        <time>2025-08-26T09:37:47.211Z</time>
      </trkpt>
      <trkpt lat="51.774466" lon="7.290872">
        <ele>52.928552</ele>
        <time>2025-08-26T09:38:07.813Z</time>
      </trkpt>
      <trkpt lat="51.772962" lon="7.277559">
        <ele>47.485018</ele>
        <time>2025-08-26T09:40:25.560Z</time>
      </trkpt>
      <trkpt lat="51.772702" lon="7.275669">
        <ele>47.108341</ele>
        <time>2025-08-26T09:40:45.956Z</time>
      </trkpt>
      <trkpt lat="51.771864" lon="7.270721">
        <ele>46.725928</ele>
        <time>2025-08-26T09:41:41.468Z</time>
      </trkpt>
      <trkpt lat="51.770921" lon="7.265732">
        <ele>47.040263</ele>
        <time>2025-08-26T09:42:41.160Z</time>
      </trkpt>
      <trkpt lat="51.770576" lon="7.264086">
        <ele>47.088697</ele>
        <time>2025-08-26T09:43:00.299Z</time>
      </trkpt>
      <trkpt lat="51.769905" lon="7.261568">
        <ele>47.185478</ele>
        <time>2025-08-26T09:43:30.403Z</time>
      </trkpt>
      <trkpt lat="51.769705" lon="7.260614">
        <ele>47.381530</ele>
        <time>2025-08-26T09:43:41.986Z</time>
      </trkpt>
      <trkpt lat="51.769647" lon="7.259631">
        <ele>47.777649</ele>
        <time>2025-08-26T09:43:54.149Z</time>
      </trkpt>
      <trkpt lat="51.769610" lon="7.257087">
        <ele>48.902038</ele>
        <time>2025-08-26T09:44:27.994Z</time>
      </trkpt>
      <trkpt lat="51.769411" lon="7.255812">
        <ele>49.557738</ele>
        <time>2025-08-26T09:44:45.092Z</time>
      </trkpt>
      <trkpt lat="51.768496" lon="7.251670">
        <ele>50.552844</ele>
        <time>2025-08-26T09:45:38.817Z</time>
      </trkpt>
      <trkpt lat="51.766907" lon="7.244122">
        <ele>48.934336</ele>
        <time>2025-08-26T09:47:02.565Z</time>
      </trkpt>
      <trkpt lat="51.766584" lon="7.241925">
        <ele>47.714452</ele>
        <time>2025-08-26T09:47:24.781Z</time>
      </trkpt>
      <trkpt lat="51.766470" lon="7.241419">
        <ele>47.425873</ele>
        <time>2025-08-26T09:47:30.061Z</time>
      </trkpt>
      <trkpt lat="51.765928" lon="7.239509">
        <ele>46.336810</ele>
        <time>2025-08-26T09:47:51.141Z</time>
      </trkpt>
      <trkpt lat="51.765653" lon="7.238241">
        <ele>45.819849</ele>
        <time>2025-08-26T09:48:04.540Z</time>
      </trkpt>
      <trkpt lat="51.765058" lon="7.236229">
        <ele>45.284978</ele>
        <time>2025-08-26T09:48:28.131Z</time>
      </trkpt>
      <trkpt lat="51.764853" lon="7.235503">
        <ele>45.268760</ele>
        <time>2025-08-26T09:48:37.003Z</time>
      </trkpt>
      <trkpt lat="51.764640" lon="7.234475">
        <ele>45.256652</ele>
        <time>2025-08-26T09:48:49.554Z</time>
      </trkpt>
      <trkpt lat="51.764474" lon="7.233321">
        <ele>45.244390</ele>
        <time>2025-08-26T09:49:02.315Z</time>
      </trkpt>
      <trkpt lat="51.764320" lon="7.231684">
        <ele>45.238379</ele>
        <time>2025-08-26T09:49:20.275Z</time>
      </trkpt>
      <trkpt lat="51.764297" lon="7.231274">
        <ele>45.236884</ele>
        <time>2025-08-26T09:49:24.791Z</time>
      </trkpt>
      <trkpt lat="51.764305" lon="7.230940">
        <ele>45.235670</ele>
        <time>2025-08-26T09:49:28.500Z</time>
      </trkpt>
      <trkpt lat="51.764344" lon="7.230665">
        <ele>45.234646</ele>
        <time>2025-08-26T09:49:31.707Z</time>
      </trkpt>
      <trkpt lat="51.764409" lon="7.230412">
        <ele>45.263987</ele>
        <time>2025-08-26T09:49:34.883Z</time>
      </trkpt>
      <trkpt lat="51.764238" lon="7.230357">
        <ele>45.310377</ele>
        <time>2025-08-26T09:49:38.230Z</time>
      </trkpt>
      <trkpt lat="51.764338" lon="7.229658">
        <ele>45.428514</ele>
        <time>2025-08-26T09:49:52.339Z</time>
      </trkpt>
      <trkpt lat="51.764458" lon="7.229100">
        <ele>45.525788</ele>
        <time>2025-08-26T09:50:03.825Z</time>
      </trkpt>
      <trkpt lat="51.764676" lon="7.228407">
        <ele>45.653797</ele>
        <time>2025-08-26T09:50:18.826Z</time>
      </trkpt>
      <trkpt lat="51.764790" lon="7.228043">
        <ele>45.692640</ele>
        <time>2025-08-26T09:50:23.548Z</time>
      </trkpt>
      <trkpt lat="51.765113" lon="7.226999">
        <ele>45.213311</ele>
        <time>2025-08-26T09:50:35.711Z</time>
      </trkpt>
      <trkpt lat="51.765169" lon="7.226871">
        <ele>45.148938</ele>
        <time>2025-08-26T09:50:37.247Z</time>
      </trkpt>
      <trkpt lat="51.765040" lon="7.225454">
        <ele>44.560757</ele>
        <time>2025-08-26T09:50:51.130Z</time>
      </trkpt>
      <trkpt lat="51.764990" lon="7.224869">
        <ele>44.429014</ele>
        <time>2025-08-26T09:50:57.091Z</time>
      </trkpt>
      <trkpt lat="51.764797" lon="7.224663">
        <ele>44.360070</ele>
        <time>2025-08-26T09:51:00.985Z</time>
      </trkpt>
      <trkpt lat="51.764499" lon="7.224199">
        <ele>44.236718</ele>
        <time>2025-08-26T09:51:08.220Z</time>
      </trkpt>
      <trkpt lat="51.764297" lon="7.223534">
        <ele>44.100067</ele>
        <time>2025-08-26T09:51:16.535Z</time>
      </trkpt>
      <trkpt lat="51.764237" lon="7.223370">
        <ele>44.064924</ele>
        <time>2025-08-26T09:51:18.722Z</time>
      </trkpt>
      <trkpt lat="51.763853" lon="7.222600">
        <ele>43.866544</ele>
        <time>2025-08-26T09:51:29.513Z</time>
      </trkpt>
      <trkpt lat="51.763658" lon="7.222221">
        <ele>43.761218</ele>
        <time>2025-08-26T09:51:34.584Z</time>
      </trkpt>
      <trkpt lat="51.763580" lon="7.222088">
        <ele>43.722062</ele>
        <time>2025-08-26T09:51:36.444Z</time>
      </trkpt>
      <trkpt lat="51.763132" lon="7.221278">
        <ele>43.489914</ele>
        <time>2025-08-26T09:51:47.550Z</time>
      </trkpt>
      <trkpt lat="51.762869" lon="7.220986">
        <ele>43.379729</ele>
        <time>2025-08-26T09:51:52.962Z</time>
      </trkpt>
      <trkpt lat="51.762824" lon="7.220940">
        <ele>43.363363</ele>
        <time>2025-08-26T09:51:53.879Z</time>
      </trkpt>
      <trkpt lat="51.762234" lon="7.220331">
        <ele>43.696336</ele>
        <time>2025-08-26T09:52:06.677Z</time>
      </trkpt>
      <trkpt lat="51.761819" lon="7.219917">
        <ele>43.928298</ele>
        <time>2025-08-26T09:52:16.779Z</time>
      </trkpt>
      <trkpt lat="51.761722" lon="7.219830">
        <ele>43.981062</ele>
        <time>2025-08-26T09:52:19.172Z</time>
      </trkpt>
      <trkpt lat="51.761428" lon="7.219565">
        <ele>44.141174</ele>
        <time>2025-08-26T09:52:26.451Z</time>
      </trkpt>
      <trkpt lat="51.761213" lon="7.219436">
        <ele>44.254261</ele>
        <time>2025-08-26T09:52:31.401Z</time>
      </trkpt>
      <trkpt lat="51.760907" lon="7.219283">
        <ele>44.425329</ele>
        <time>2025-08-26T09:52:38.154Z</time>
      </trkpt>
      <trkpt lat="51.760302" lon="7.218984">
        <ele>44.763211</ele>
        <time>2025-08-26T09:52:50.722Z</time>
      </trkpt>
      <trkpt lat="51.759258" lon="7.218424">
        <ele>45.155081</ele>
        <time>2025-08-26T09:53:12.070Z</time>
      </trkpt>
      <trkpt lat="51.759176" lon="7.218387">
        <ele>45.148990</ele>
        <time>2025-08-26T09:53:13.661Z</time>
      </trkpt>
      <trkpt lat="51.759018" lon="7.218239">
        <ele>45.135924</ele>
        <time>2025-08-26T09:53:16.960Z</time>
      </trkpt>
      <trkpt lat="51.758907" lon="7.218104">
        <ele>45.125984</ele>
        <time>2025-08-26T09:53:19.455Z</time>
      </trkpt>
      <trkpt lat="51.758603" lon="7.217575">
        <ele>45.094019</ele>
        <time>2025-08-26T09:53:27.397Z</time>
      </trkpt>
      <trkpt lat="51.757951" lon="7.216303">
        <ele>44.870711</ele>
        <time>2025-08-26T09:53:44.480Z</time>
      </trkpt>
      <trkpt lat="51.757827" lon="7.216145">
        <ele>44.800140</ele>
        <time>2025-08-26T09:53:47.026Z</time>
      </trkpt>
      <trkpt lat="51.757440" lon="7.215865">
        <ele>44.610657</ele>
        <time>2025-08-26T09:53:53.963Z</time>
      </trkpt>
      <trkpt lat="51.757248" lon="7.215679">
        <ele>44.510617</ele>
        <time>2025-08-26T09:53:57.736Z</time>
      </trkpt>
      <trkpt lat="51.757191" lon="7.215573">
        <ele>44.471779</ele>
        <time>2025-08-26T09:53:59.218Z</time>
      </trkpt>
      <trkpt lat="51.756997" lon="7.214968">
        <ele>44.283313</ele>
        <time>2025-08-26T09:54:06.530Z</time>
      </trkpt>
      <trkpt lat="51.756880" lon="7.214702">
        <ele>44.229842</ele>
        <time>2025-08-26T09:54:10.097Z</time>
      </trkpt>
      <trkpt lat="51.756396" lon="7.214068">
        <ele>44.145687</ele>
        <time>2025-08-26T09:54:21.190Z</time>
      </trkpt>
      <trkpt lat="51.755959" lon="7.213662">
        <ele>44.077604</ele>
        <time>2025-08-26T09:54:30.147Z</time>
      </trkpt>
      <trkpt lat="51.755749" lon="7.213573">
        <ele>44.048282</ele>
        <time>2025-08-26T09:54:33.915Z</time>
      </trkpt>
      <trkpt lat="51.754928" lon="7.213585">
        <ele>43.861218</ele>
        <time>2025-08-26T09:54:47.675Z</time>
      </trkpt>
      <trkpt lat="51.753760" lon="7.212334">
        <ele>43.420152</ele>
        <time>2025-08-26T09:55:11.868Z</time>
      </trkpt>
      <trkpt lat="51.753227" lon="7.211264">
        <ele>42.865073</ele>
        <time>2025-08-26T09:55:26.881Z</time>
      </trkpt>
      <trkpt lat="51.753103" lon="7.211013">
        <ele>42.735283</ele>
        <time>2025-08-26T09:55:30.099Z</time>
      </trkpt>
      <trkpt lat="51.752951" lon="7.211473">
        <ele>42.524538</ele>
        <time>2025-08-26T09:55:35.158Z</time>
      </trkpt>
      <trkpt lat="51.752914" lon="7.211673">
        <ele>42.440172</ele>
        <time>2025-08-26T09:55:37.169Z</time>
      </trkpt>
      <trkpt lat="51.752905" lon="7.211884">
        <ele>42.354690</ele>
        <time>2025-08-26T09:55:39.440Z</time>
      </trkpt>
      <trkpt lat="51.752925" lon="7.212095">
        <ele>42.237832</ele>
        <time>2025-08-26T09:55:41.724Z</time>
      </trkpt>
      <trkpt lat="51.753022" lon="7.212538">
        <ele>41.879771</ele>
        <time>2025-08-26T09:55:46.687Z</time>
      </trkpt>
      <trkpt lat="51.753203" lon="7.212933">
        <ele>41.505293</ele>
        <time>2025-08-26T09:55:51.804Z</time>
      </trkpt>
      <trkpt lat="51.753455" lon="7.213393">
        <ele>41.037231</ele>
        <time>2025-08-26T09:55:58.215Z</time>
      </trkpt>
      <trkpt lat="51.753922" lon="7.214534">
        <ele>40.144394</ele>
        <time>2025-08-26T09:56:13.301Z</time>
      </trkpt>
      <trkpt lat="51.754236" lon="7.215568">
        <ele>40.661583</ele>
        <time>2025-08-26T09:56:27.256Z</time>
      </trkpt>
      <trkpt lat="51.755462" lon="7.219496">
        <ele>43.879414</ele>
        <time>2025-08-26T09:57:38.244Z</time>
      </trkpt>
      <trkpt lat="51.755831" lon="7.220656">
        <ele>44.131389</ele>
        <time>2025-08-26T09:57:56.878Z</time>
      </trkpt>
      <trkpt lat="51.756087" lon="7.221365">
        <ele>44.222087</ele>
        <time>2025-08-26T09:58:06.787Z</time>
      </trkpt>
      <trkpt lat="51.756372" lon="7.222270">
        <ele>44.291372</ele>
        <time>2025-08-26T09:58:18.497Z</time>
      </trkpt>
      <trkpt lat="51.756595" lon="7.223233">
        <ele>43.953475</ele>
        <time>2025-08-26T09:58:30.268Z</time>
      </trkpt>
      <trkpt lat="51.756743" lon="7.224055">
        <ele>43.672142</ele>
        <time>2025-08-26T09:58:40.128Z</time>
      </trkpt>
      <trkpt lat="51.756853" lon="7.225058">
        <ele>43.337577</ele>
        <time>2025-08-26T09:58:51.852Z</time>
      </trkpt>
      <trkpt lat="51.756897" lon="7.226121">
        <ele>42.989578</ele>
        <time>2025-08-26T09:59:04.278Z</time>
      </trkpt>
      <trkpt lat="51.756895" lon="7.226313">
        <ele>42.926853</ele>
        <time>2025-08-26T09:59:06.500Z</time>
      </trkpt>
      <trkpt lat="51.756885" lon="7.226720">
        <ele>42.793804</ele>
        <time>2025-08-26T09:59:11.235Z</time>
      </trkpt>
      <trkpt lat="51.756840" lon="7.227294">
        <ele>42.604812</ele>
        <time>2025-08-26T09:59:17.419Z</time>
      </trkpt>
      <trkpt lat="51.756768" lon="7.227814">
        <ele>42.430759</ele>
        <time>2025-08-26T09:59:23.095Z</time>
      </trkpt>
      <trkpt lat="51.756653" lon="7.228383">
        <ele>42.266270</ele>
        <time>2025-08-26T09:59:29.491Z</time>
      </trkpt>
      <trkpt lat="51.756501" lon="7.228942">
        <ele>42.100431</ele>
        <time>2025-08-26T09:59:36.108Z</time>
      </trkpt>
      <trkpt lat="51.756122" lon="7.229950">
        <ele>41.780088</ele>
        <time>2025-08-26T09:59:48.871Z</time>
      </trkpt>
      <trkpt lat="51.755766" lon="7.230624">
        <ele>41.668892</ele>
        <time>2025-08-26T09:59:58.697Z</time>
      </trkpt>
      <trkpt lat="51.755561" lon="7.230958">
        <ele>41.723378</ele>
        <time>2025-08-26T10:00:04.090Z</time>
      </trkpt>
      <trkpt lat="51.755339" lon="7.231211">
        <ele>41.774221</ele>
        <time>2025-08-26T10:00:09.287Z</time>
      </trkpt>
      <trkpt lat="51.754967" lon="7.231575">
        <ele>41.855612</ele>
        <time>2025-08-26T10:00:17.859Z</time>
      </trkpt>
      <trkpt lat="51.754203" lon="7.232244">
        <ele>41.974033</ele>
        <time>2025-08-26T10:00:35.682Z</time>
      </trkpt>
      <trkpt lat="51.754030" lon="7.232475">
        <ele>41.979950</ele>
        <time>2025-08-26T10:00:40.216Z</time>
      </trkpt>
      <trkpt lat="51.753858" lon="7.232810">
        <ele>41.987054</ele>
        <time>2025-08-26T10:00:45.543Z</time>
      </trkpt>
      <trkpt lat="51.753781" lon="7.233055">
        <ele>41.991538</ele>
        <time>2025-08-26T10:00:48.849Z</time>
      </trkpt>
      <trkpt lat="51.753718" lon="7.233376">
        <ele>41.997034</ele>
        <time>2025-08-26T10:00:52.795Z</time>
      </trkpt>
      <trkpt lat="51.753383" lon="7.234935">
        <ele>41.864262</ele>
        <time>2025-08-26T10:01:10.737Z</time>
      </trkpt>
      <trkpt lat="51.753153" lon="7.236266">
        <ele>41.517904</ele>
        <time>2025-08-26T10:01:25.402Z</time>
      </trkpt>
      <trkpt lat="51.752919" lon="7.237056">
        <ele>41.298398</ele>
        <time>2025-08-26T10:01:35.103Z</time>
      </trkpt>
      <trkpt lat="51.751856" lon="7.239693">
        <ele>41.981887</ele>
        <time>2025-08-26T10:02:14.145Z</time>
      </trkpt>
      <trkpt lat="51.750899" lon="7.242142">
        <ele>43.088938</ele>
        <time>2025-08-26T10:02:52.777Z</time>
      </trkpt>
      <trkpt lat="51.750669" lon="7.242624">
        <ele>43.129080</ele>
        <time>2025-08-26T10:03:00.542Z</time>
      </trkpt>
      <trkpt lat="51.750467" lon="7.242883">
        <ele>43.156560</ele>
        <time>2025-08-26T10:03:05.510Z</time>
      </trkpt>
      <trkpt lat="51.750030" lon="7.243182">
        <ele>43.207127</ele>
        <time>2025-08-26T10:03:14.355Z</time>
      </trkpt>
      <trkpt lat="51.749800" lon="7.243285">
        <ele>43.232558</ele>
        <time>2025-08-26T10:03:18.526Z</time>
      </trkpt>
      <trkpt lat="51.749415" lon="7.243368">
        <ele>43.256593</ele>
        <time>2025-08-26T10:03:24.929Z</time>
      </trkpt>
      <trkpt lat="51.749237" lon="7.243386">
        <ele>43.214491</ele>
        <time>2025-08-26T10:03:27.793Z</time>
      </trkpt>
      <trkpt lat="51.748847" lon="7.243327">
        <ele>43.122022</ele>
        <time>2025-08-26T10:03:34.107Z</time>
      </trkpt>
      <trkpt lat="51.747695" lon="7.242905">
        <ele>42.847504</ele>
        <time>2025-08-26T10:03:54.583Z</time>
      </trkpt>
      <trkpt lat="51.747416" lon="7.242831">
        <ele>43.151350</ele>
        <time>2025-08-26T10:04:00.407Z</time>
      </trkpt>
      <trkpt lat="51.747054" lon="7.242698">
        <ele>43.550316</ele>
        <time>2025-08-26T10:04:08.730Z</time>
      </trkpt>
      <trkpt lat="51.746759" lon="7.242565">
        <ele>43.879461</ele>
        <time>2025-08-26T10:04:16.121Z</time>
      </trkpt>
      <trkpt lat="51.745977" lon="7.242046">
        <ele>44.778296</ele>
        <time>2025-08-26T10:04:36.340Z</time>
      </trkpt>
      <trkpt lat="51.745964" lon="7.241652">
        <ele>44.811556</ele>
        <time>2025-08-26T10:04:42.053Z</time>
      </trkpt>
      <trkpt lat="51.745961" lon="7.241062">
        <ele>44.861293</ele>
        <time>2025-08-26T10:04:50.118Z</time>
      </trkpt>
      <trkpt lat="51.745481" lon="7.238822">
        <ele>44.813838</ele>
        <time>2025-08-26T10:05:18.234Z</time>
      </trkpt>
      <trkpt lat="51.745775" lon="7.237963">
        <ele>44.376526</ele>
        <time>2025-08-26T10:05:29.244Z</time>
      </trkpt>
      <trkpt lat="51.746181" lon="7.237690">
        <ele>44.060055</ele>
        <time>2025-08-26T10:05:41.423Z</time>
      </trkpt>
      <trkpt lat="51.746726" lon="7.237398">
        <ele>43.659741</ele>
        <time>2025-08-26T10:05:57.288Z</time>
      </trkpt>
      <trkpt lat="51.748038" lon="7.236061">
        <ele>42.721967</ele>
        <time>2025-08-26T10:06:25.827Z</time>
      </trkpt>
      <trkpt lat="51.748109" lon="7.235890">
        <ele>42.644909</ele>
        <time>2025-08-26T10:06:28.291Z</time>
      </trkpt>
      <trkpt lat="51.747537" lon="7.234744">
        <ele>42.631522</ele>
        <time>2025-08-26T10:06:46.687Z</time>
      </trkpt>
      <trkpt lat="51.746828" lon="7.233321">
        <ele>42.596857</ele>
        <time>2025-08-26T10:07:09.386Z</time>
      </trkpt>
      <trkpt lat="51.746764" lon="7.233077">
        <ele>42.578681</ele>
        <time>2025-08-26T10:07:12.519Z</time>
      </trkpt>
      <trkpt lat="51.746679" lon="7.232897">
        <ele>42.563154</ele>
        <time>2025-08-26T10:07:15.191Z</time>
      </trkpt>
      <trkpt lat="51.746400" lon="7.232129">
        <ele>42.502077</ele>
        <time>2025-08-26T10:07:25.677Z</time>
      </trkpt>
      <trkpt lat="51.746303" lon="7.231939">
        <ele>42.485185</ele>
        <time>2025-08-26T10:07:28.611Z</time>
      </trkpt>
      <trkpt lat="51.746167" lon="7.231803">
        <ele>42.467465</ele>
        <time>2025-08-26T10:07:31.683Z</time>
      </trkpt>
      <trkpt lat="51.745710" lon="7.231724">
        <ele>42.452635</ele>
        <time>2025-08-26T10:07:40.762Z</time>
      </trkpt>
      <trkpt lat="51.745314" lon="7.231715">
        <ele>42.629769</ele>
        <time>2025-08-26T10:07:49.100Z</time>
      </trkpt>
      <trkpt lat="51.745249" lon="7.231713">
        <ele>42.658847</ele>
        <time>2025-08-26T10:07:50.517Z</time>
      </trkpt>
      <trkpt lat="51.744859" lon="7.231336">
        <ele>42.862137</ele>
        <time>2025-08-26T10:08:00.576Z</time>
      </trkpt>
      <trkpt lat="51.744449" lon="7.231014">
        <ele>43.066046</ele>
        <time>2025-08-26T10:08:10.713Z</time>
      </trkpt>
      <trkpt lat="51.743686" lon="7.230286">
        <ele>43.674414</ele>
        <time>2025-08-26T10:08:38.760Z</time>
      </trkpt>
      <trkpt lat="51.742629" lon="7.229389">
        <ele>44.691829</ele>
        <time>2025-08-26T10:09:18.653Z</time>
      </trkpt>
      <trkpt lat="51.741970" lon="7.228451">
        <ele>45.304801</ele>
        <time>2025-08-26T10:09:49.186Z</time>
      </trkpt>
      <trkpt lat="51.741228" lon="7.227351">
        <ele>45.983815</ele>
        <time>2025-08-26T10:10:21.137Z</time>
      </trkpt>
      <trkpt lat="51.740639" lon="7.226263">
        <ele>45.408885</ele>
        <time>2025-08-26T10:10:46.657Z</time>
      </trkpt>
      <trkpt lat="51.740556" lon="7.226182">
        <ele>45.346580</ele>
        <time>2025-08-26T10:10:49.406Z</time>
      </trkpt>
      <trkpt lat="51.740539" lon="7.225304">
        <ele>44.997113</ele>
        <time>2025-08-26T10:10:59.139Z</time>
      </trkpt>
      <trkpt lat="51.740469" lon="7.223926">
        <ele>44.054275</ele>
        <time>2025-08-26T10:11:14.081Z</time>
      </trkpt>
      <trkpt lat="51.740473" lon="7.223619">
        <ele>43.807515</ele>
        <time>2025-08-26T10:11:17.370Z</time>
      </trkpt>
      <trkpt lat="51.740451" lon="7.223238">
        <ele>43.500016</ele>
        <time>2025-08-26T10:11:21.448Z</time>
      </trkpt>
      <trkpt lat="51.740447" lon="7.223153">
        <ele>43.431513</ele>
        <time>2025-08-26T10:11:22.364Z</time>
      </trkpt>
      <trkpt lat="51.740377" lon="7.222379">
        <ele>42.802927</ele>
        <time>2025-08-26T10:11:30.662Z</time>
      </trkpt>
      <trkpt lat="51.740316" lon="7.222015">
        <ele>42.499893</ele>
        <time>2025-08-26T10:11:34.668Z</time>
      </trkpt>
      <trkpt lat="51.740296" lon="7.221445">
        <ele>42.330320</ele>
        <time>2025-08-26T10:11:40.873Z</time>
      </trkpt>
      <trkpt lat="51.740308" lon="7.221074">
        <ele>42.220767</ele>
        <time>2025-08-26T10:11:45.057Z</time>
      </trkpt>
      <trkpt lat="51.740943" lon="7.214965">
        <ele>42.052088</ele>
        <time>2025-08-26T10:12:59.757Z</time>
      </trkpt>
      <trkpt lat="51.741045" lon="7.214921">
        <ele>42.134643</ele>
        <time>2025-08-26T10:13:02.492Z</time>
      </trkpt>
      <trkpt lat="51.741211" lon="7.214747">
        <ele>42.289391</ele>
        <time>2025-08-26T10:13:07.756Z</time>
      </trkpt>
      <trkpt lat="51.741249" lon="7.214667">
        <ele>42.338211</ele>
        <time>2025-08-26T10:13:09.461Z</time>
      </trkpt>
      <trkpt lat="51.741270" lon="7.214625">
        <ele>42.364349</ele>
        <time>2025-08-26T10:13:10.361Z</time>
      </trkpt>
      <trkpt lat="51.741297" lon="7.214484">
        <ele>42.435810</ele>
        <time>2025-08-26T10:13:12.828Z</time>
      </trkpt>
      <trkpt lat="51.741361" lon="7.213611">
        <ele>42.785000</ele>
        <time>2025-08-26T10:13:27.356Z</time>
      </trkpt>
      <trkpt lat="51.741465" lon="7.213264">
        <ele>42.651395</ele>
        <time>2025-08-26T10:13:33.525Z</time>
      </trkpt>
      <trkpt lat="51.741496" lon="7.212996">
        <ele>42.556908</ele>
        <time>2025-08-26T10:13:37.483Z</time>
      </trkpt>
      <trkpt lat="51.741534" lon="7.212884">
        <ele>42.512648</ele>
        <time>2025-08-26T10:13:39.171Z</time>
      </trkpt>
      <trkpt lat="51.741594" lon="7.212704">
        <ele>42.441802</ele>
        <time>2025-08-26T10:13:41.670Z</time>
      </trkpt>
      <trkpt lat="51.741585" lon="7.212607">
        <ele>42.407809</ele>
        <time>2025-08-26T10:13:42.816Z</time>
      </trkpt>
      <trkpt lat="51.741559" lon="7.212144">
        <ele>42.246691</ele>
        <time>2025-08-26T10:13:48.010Z</time>
      </trkpt>
      <trkpt lat="51.741588" lon="7.211530">
        <ele>42.033282</ele>
        <time>2025-08-26T10:13:54.476Z</time>
      </trkpt>
      <trkpt lat="51.741563" lon="7.211448">
        <ele>42.001605</ele>
        <time>2025-08-26T10:13:55.435Z</time>
      </trkpt>
      <trkpt lat="51.741509" lon="7.211199">
        <ele>41.910171</ele>
        <time>2025-08-26T10:13:58.108Z</time>
      </trkpt>
      <trkpt lat="51.741492" lon="7.210667">
        <ele>41.567769</ele>
        <time>2025-08-26T10:14:03.486Z</time>
      </trkpt>
      <trkpt lat="51.741516" lon="7.210109">
        <ele>41.012641</ele>
        <time>2025-08-26T10:14:09.119Z</time>
      </trkpt>
      <trkpt lat="51.741481" lon="7.209874">
        <ele>40.772760</ele>
        <time>2025-08-26T10:14:11.556Z</time>
      </trkpt>
      <trkpt lat="51.741603" lon="7.208783">
        <ele>39.672471</ele>
        <time>2025-08-26T10:14:23.059Z</time>
      </trkpt>
      <trkpt lat="51.741636" lon="7.208682">
        <ele>39.559134</ele>
        <time>2025-08-26T10:14:24.293Z</time>
      </trkpt>
      <trkpt lat="51.741722" lon="7.207952">
        <ele>38.910344</ele>
        <time>2025-08-26T10:14:32.715Z</time>
      </trkpt>
      <trkpt lat="51.742020" lon="7.206973">
        <ele>38.735964</ele>
        <time>2025-08-26T10:14:45.363Z</time>
      </trkpt>
      <trkpt lat="51.742206" lon="7.206725">
        <ele>38.673698</ele>
        <time>2025-08-26T10:14:49.794Z</time>
      </trkpt>
      <trkpt lat="51.742742" lon="7.206061">
        <ele>38.499308</ele>
        <time>2025-08-26T10:15:02.014Z</time>
      </trkpt>
      <trkpt lat="51.742756" lon="7.206040">
        <ele>38.494376</ele>
        <time>2025-08-26T10:15:02.439Z</time>
      </trkpt>
      <trkpt lat="51.742980" lon="7.205735">
        <ele>38.668681</ele>
        <time>2025-08-26T10:15:09.128Z</time>
      </trkpt>
      <trkpt lat="51.743029" lon="7.205330">
        <ele>38.974812</ele>
        <time>2025-08-26T10:15:15.146Z</time>
      </trkpt>
      <trkpt lat="51.743087" lon="7.203314">
        <ele>40.471992</ele>
        <time>2025-08-26T10:15:47.500Z</time>
      </trkpt>
      <trkpt lat="51.743084" lon="7.202729">
        <ele>40.794054</ele>
        <time>2025-08-26T10:15:56.780Z</time>
      </trkpt>
      <trkpt lat="51.743147" lon="7.202722">
        <ele>40.840306</ele>
        <time>2025-08-26T10:15:58.291Z</time>
      </trkpt>
      <trkpt lat="51.743235" lon="7.202454">
        <ele>40.977880</ele>
        <time>2025-08-26T10:16:02.756Z</time>
      </trkpt>
      <trkpt lat="51.743295" lon="7.202136">
        <ele>41.128644</ele>
        <time>2025-08-26T10:16:07.447Z</time>
      </trkpt>
      <trkpt lat="51.743437" lon="7.201667">
        <ele>41.365408</ele>
        <time>2025-08-26T10:16:14.431Z</time>
      </trkpt>
      <trkpt lat="51.743560" lon="7.201125">
        <ele>41.627200</ele>
        <time>2025-08-26T10:16:21.973Z</time>
      </trkpt>
      <trkpt lat="51.743613" lon="7.200578">
        <ele>41.878288</ele>
        <time>2025-08-26T10:16:29.366Z</time>
      </trkpt>
      <trkpt lat="51.743690" lon="7.200084">
        <ele>42.054553</ele>
        <time>2025-08-26T10:16:36.266Z</time>
      </trkpt>
      <trkpt lat="51.743949" lon="7.199572">
        <ele>42.259992</ele>
        <time>2025-08-26T10:16:45.038Z</time>
      </trkpt>
      <trkpt lat="51.744149" lon="7.199595">
        <ele>42.360615</ele>
        <time>2025-08-26T10:16:49.409Z</time>
      </trkpt>
      <trkpt lat="51.744532" lon="7.199732">
        <ele>42.557479</ele>
        <time>2025-08-26T10:16:58.192Z</time>
      </trkpt>
      <trkpt lat="51.744722" lon="7.199967">
        <ele>42.677577</ele>
        <time>2025-08-26T10:17:03.629Z</time>
      </trkpt>
      <trkpt lat="51.745005" lon="7.200320">
        <ele>42.845672</ele>
        <time>2025-08-26T10:17:11.274Z</time>
      </trkpt>
      <trkpt lat="51.745231" lon="7.200516">
        <ele>42.897515</ele>
        <time>2025-08-26T10:17:16.548Z</time>
      </trkpt>
      <trkpt lat="51.745457" lon="7.200659">
        <ele>42.946569</ele>
        <time>2025-08-26T10:17:21.646Z</time>
      </trkpt>
      <trkpt lat="51.745691" lon="7.200739">
        <ele>42.994908</ele>
        <time>2025-08-26T10:17:26.762Z</time>
      </trkpt>
      <trkpt lat="51.745930" lon="7.200845">
        <ele>43.044998</ele>
        <time>2025-08-26T10:17:32.086Z</time>
      </trkpt>
      <trkpt lat="51.746013" lon="7.200878">
        <ele>43.062273</ele>
        <time>2025-08-26T10:17:33.887Z</time>
      </trkpt>
      <trkpt lat="51.746125" lon="7.201007">
        <ele>43.090074</ele>
        <time>2025-08-26T10:17:36.778Z</time>
      </trkpt>
      <trkpt lat="51.746414" lon="7.201425">
        <ele>43.168477</ele>
        <time>2025-08-26T10:17:44.533Z</time>
      </trkpt>
      <trkpt lat="51.746676" lon="7.201777">
        <ele>43.238332</ele>
        <time>2025-08-26T10:17:51.044Z</time>
      </trkpt>
      <trkpt lat="51.747296" lon="7.202506">
        <ele>43.397564</ele>
        <time>2025-08-26T10:18:05.627Z</time>
      </trkpt>
      <trkpt lat="51.747466" lon="7.202745">
        <ele>43.444361</ele>
        <time>2025-08-26T10:18:10.289Z</time>
      </trkpt>
      <trkpt lat="51.747839" lon="7.203161">
        <ele>43.538477</ele>
        <time>2025-08-26T10:18:20.609Z</time>
      </trkpt>
      <trkpt lat="51.747939" lon="7.203184">
        <ele>43.559450</ele>
        <time>2025-08-26T10:18:23.014Z</time>
      </trkpt>
      <trkpt lat="51.748018" lon="7.203151">
        <ele>43.582005</ele>
        <time>2025-08-26T10:18:24.951Z</time>
      </trkpt>
      <trkpt lat="51.748293" lon="7.202895">
        <ele>43.910021</ele>
        <time>2025-08-26T10:18:32.443Z</time>
      </trkpt>
      <trkpt lat="51.748662" lon="7.202482">
        <ele>44.373962</ele>
        <time>2025-08-26T10:18:43.245Z</time>
      </trkpt>
      <trkpt lat="51.748732" lon="7.202360">
        <ele>44.480385</ele>
        <time>2025-08-26T10:18:45.830Z</time>
      </trkpt>
      <trkpt lat="51.748880" lon="7.202452">
        <ele>44.644269</ele>
        <time>2025-08-26T10:18:49.596Z</time>
      </trkpt>
      <trkpt lat="51.748968" lon="7.202531">
        <ele>44.748313</ele>
        <time>2025-08-26T10:18:51.929Z</time>
      </trkpt>
      <trkpt lat="51.749200" lon="7.202842">
        <ele>45.059883</ele>
        <time>2025-08-26T10:18:58.677Z</time>
      </trkpt>
      <trkpt lat="51.749726" lon="7.203652">
        <ele>45.756294</ele>
        <time>2025-08-26T10:19:13.854Z</time>
      </trkpt>
      <trkpt lat="51.749926" lon="7.203904">
        <ele>45.980463</ele>
        <time>2025-08-26T10:19:19.255Z</time>
      </trkpt>
      <trkpt lat="51.751884" lon="7.205492">
        <ele>46.814294</ele>
        <time>2025-08-26T10:20:06.132Z</time>
      </trkpt>
      <trkpt lat="51.752635" lon="7.206312">
        <ele>46.550485</ele>
        <time>2025-08-26T10:20:20.031Z</time>
      </trkpt>
      <trkpt lat="51.752933" lon="7.206533">
        <ele>46.271789</ele>
        <time>2025-08-26T10:20:24.694Z</time>
      </trkpt>
      <trkpt lat="51.753317" lon="7.206693">
        <ele>45.934733</ele>
        <time>2025-08-26T10:20:30.504Z</time>
      </trkpt>
      <trkpt lat="51.753385" lon="7.206851">
        <ele>45.833485</ele>
        <time>2025-08-26T10:20:32.315Z</time>
      </trkpt>
      <trkpt lat="51.753429" lon="7.207034">
        <ele>45.730193</ele>
        <time>2025-08-26T10:20:34.198Z</time>
      </trkpt>
      <trkpt lat="51.753513" lon="7.207386">
        <ele>45.531705</ele>
        <time>2025-08-26T10:20:38.027Z</time>
      </trkpt>
      <trkpt lat="51.753649" lon="7.207741">
        <ele>45.312049</ele>
        <time>2025-08-26T10:20:42.729Z</time>
      </trkpt>
      <trkpt lat="51.753846" lon="7.208063">
        <ele>45.235989</ele>
        <time>2025-08-26T10:20:48.683Z</time>
      </trkpt>
      <trkpt lat="51.753976" lon="7.208176">
        <ele>45.527082</ele>
        <time>2025-08-26T10:20:52.124Z</time>
      </trkpt>
      <trkpt lat="51.754250" lon="7.207302">
        <ele>46.722929</ele>
        <time>2025-08-26T10:21:08.311Z</time>
      </trkpt>
      <trkpt lat="51.754297" lon="7.207146">
        <ele>46.934704</ele>
        <time>2025-08-26T10:21:11.608Z</time>
      </trkpt>
      <trkpt lat="51.754490" lon="7.206497">
        <ele>47.813563</ele>
        <time>2025-08-26T10:21:24.722Z</time>
      </trkpt>
      <trkpt lat="51.754588" lon="7.206203">
        <ele>48.221148</ele>
        <time>2025-08-26T10:21:30.326Z</time>
      </trkpt>
      <trkpt lat="51.754704" lon="7.205883">
        <ele>48.671175</ele>
        <time>2025-08-26T10:21:36.263Z</time>
      </trkpt>
      <trkpt lat="51.754815" lon="7.205672">
        <ele>48.811527</ele>
        <time>2025-08-26T10:21:40.421Z</time>
      </trkpt>
      <trkpt lat="51.754734" lon="7.205532">
        <ele>48.908657</ele>
        <time>2025-08-26T10:21:43.126Z</time>
      </trkpt>
      <trkpt lat="51.754702" lon="7.205410">
        <ele>48.975817</ele>
        <time>2025-08-26T10:21:45.369Z</time>
      </trkpt>
      <trkpt lat="51.754606" lon="7.205090">
        <ele>49.156058</ele>
        <time>2025-08-26T10:21:51.287Z</time>
      </trkpt>
      <trkpt lat="51.754541" lon="7.204745">
        <ele>49.338848</ele>
        <time>2025-08-26T10:21:56.963Z</time>
      </trkpt>
      <trkpt lat="51.754514" lon="7.204413">
        <ele>49.508574</ele>
        <time>2025-08-26T10:22:02.295Z</time>
      </trkpt>
      <trkpt lat="51.754519" lon="7.204294">
        <ele>49.569030</ele>
        <time>2025-08-26T10:22:04.121Z</time>
      </trkpt>
      <trkpt lat="51.754567" lon="7.203881">
        <ele>49.782024</ele>
        <time>2025-08-26T10:22:10.323Z</time>
      </trkpt>
      <trkpt lat="51.754693" lon="7.203437">
        <ele>50.029595</ele>
        <time>2025-08-26T10:22:17.448Z</time>
      </trkpt>
      <trkpt lat="51.754802" lon="7.203188">
        <ele>50.196586</ele>
        <time>2025-08-26T10:22:22.143Z</time>
      </trkpt>
      <trkpt lat="51.755244" lon="7.202435">
        <ele>50.877596</ele>
        <time>2025-08-26T10:22:39.462Z</time>
      </trkpt>
      <trkpt lat="51.755679" lon="7.201640">
        <ele>51.573923</ele>
        <time>2025-08-26T10:22:58.570Z</time>
      </trkpt>
      <trkpt lat="51.755913" lon="7.200866">
        <ele>52.181565</ele>
        <time>2025-08-26T10:23:13.649Z</time>
      </trkpt>
      <trkpt lat="51.755661" lon="7.200494">
        <ele>52.713230</ele>
        <time>2025-08-26T10:23:21.424Z</time>
      </trkpt>
      <trkpt lat="51.755010" lon="7.199531">
        <ele>54.088004</ele>
        <time>2025-08-26T10:23:43.117Z</time>
      </trkpt>
      <trkpt lat="51.755387" lon="7.198798">
        <ele>55.060787</ele>
        <time>2025-08-26T10:23:58.318Z</time>
      </trkpt>
      <trkpt lat="51.755043" lon="7.198282">
        <ele>56.044035</ele>
        <time>2025-08-26T10:24:11.183Z</time>
      </trkpt>
      <trkpt lat="51.754953" lon="7.198277">
        <ele>56.232658</ele>
        <time>2025-08-26T10:24:14.159Z</time>
      </trkpt>
      <trkpt lat="51.754852" lon="7.197998">
        <ele>56.651725</ele>
        <time>2025-08-26T10:24:20.819Z</time>
      </trkpt>
      <trkpt lat="51.754883" lon="7.197940">
        <ele>56.751081</ele>
        <time>2025-08-26T10:24:22.105Z</time>
      </trkpt>
      <trkpt lat="51.755965" lon="7.195789">
        <ele>60.072189</ele>
        <time>2025-08-26T10:25:06.654Z</time>
      </trkpt>
      <trkpt lat="51.756468" lon="7.194777">
        <ele>61.489389</ele>
        <time>2025-08-26T10:25:27.102Z</time>
      </trkpt>
      <trkpt lat="51.756608" lon="7.194501">
        <ele>61.802076</ele>
        <time>2025-08-26T10:25:32.368Z</time>
      </trkpt>
      <trkpt lat="51.757017" lon="7.193693">
        <ele>61.951434</ele>
        <time>2025-08-26T10:25:44.788Z</time>
      </trkpt>
      <trkpt lat="51.757141" lon="7.193448">
        <ele>61.996720</ele>
        <time>2025-08-26T10:25:48.052Z</time>
      </trkpt>
      <trkpt lat="51.757195" lon="7.193341">
        <ele>62.016475</ele>
        <time>2025-08-26T10:25:49.486Z</time>
      </trkpt>
      <trkpt lat="51.757376" lon="7.192984">
        <ele>62.082508</ele>
        <time>2025-08-26T10:25:54.202Z</time>
      </trkpt>
      <trkpt lat="51.757544" lon="7.192653">
        <ele>62.143759</ele>
        <time>2025-08-26T10:25:58.627Z</time>
      </trkpt>
      <trkpt lat="51.757720" lon="7.192304">
        <ele>62.213258</ele>
        <time>2025-08-26T10:26:03.421Z</time>
      </trkpt>
      <trkpt lat="51.758973" lon="7.189874">
        <ele>63.776661</ele>
        <time>2025-08-26T10:26:46.945Z</time>
      </trkpt>
      <trkpt lat="51.759131" lon="7.189649">
        <ele>63.834838</ele>
        <time>2025-08-26T10:26:51.480Z</time>
      </trkpt>
      <trkpt lat="51.760335" lon="7.187059">
        <ele>64.608096</ele>
        <time>2025-08-26T10:27:27.229Z</time>
      </trkpt>
      <trkpt lat="51.762944" lon="7.183433">
        <ele>67.865441</ele>
        <time>2025-08-26T10:28:44.585Z</time>
      </trkpt>
      <trkpt lat="51.763691" lon="7.182425">
        <ele>69.381431</ele>
        <time>2025-08-26T10:29:07.536Z</time>
      </trkpt>
      <trkpt lat="51.763831" lon="7.182373">
        <ele>69.605191</ele>
        <time>2025-08-26T10:29:11.154Z</time>
      </trkpt>
      <trkpt lat="51.765011" lon="7.182154">
        <ele>72.038860</ele>
        <time>2025-08-26T10:29:46.881Z</time>
      </trkpt>
      <trkpt lat="51.765337" lon="7.182055">
        <ele>72.762727</ele>
        <time>2025-08-26T10:30:00.502Z</time>
      </trkpt>
      <trkpt lat="51.765540" lon="7.182001">
        <ele>73.211685</ele>
        <time>2025-08-26T10:30:08.745Z</time>
      </trkpt>
      <trkpt lat="51.767934" lon="7.180927">
        <ele>74.879647</ele>
        <time>2025-08-26T10:31:26.306Z</time>
      </trkpt>
      <trkpt lat="51.768861" lon="7.180594">
        <ele>75.120333</ele>
        <time>2025-08-26T10:31:53.491Z</time>
      </trkpt>
      <trkpt lat="51.769224" lon="7.180344">
        <ele>75.220344</ele>
        <time>2025-08-26T10:32:05.865Z</time>
      </trkpt>
      <trkpt lat="51.770703" lon="7.178765">
        <ele>77.928049</ele>
        <time>2025-08-26T10:33:12.733Z</time>
      </trkpt>
      <trkpt lat="51.772005" lon="7.177877">
        <ele>77.756436</ele>
        <time>2025-08-26T10:33:57.773Z</time>
      </trkpt>
      <trkpt lat="51.772209" lon="7.177837">
        <ele>77.698227</ele>
        <time>2025-08-26T10:34:03.166Z</time>
      </trkpt>
      <trkpt lat="51.772652" lon="7.177776">
        <ele>77.349022</ele>
        <time>2025-08-26T10:34:09.705Z</time>
      </trkpt>
      <trkpt lat="51.773282" lon="7.177638">
        <ele>76.177893</ele>
        <time>2025-08-26T10:34:18.800Z</time>
      </trkpt>
      <trkpt lat="51.773974" lon="7.177478">
        <ele>74.890187</ele>
        <time>2025-08-26T10:34:29.459Z</time>
      </trkpt>
      <trkpt lat="51.773936" lon="7.176711">
        <ele>74.579782</ele>
        <time>2025-08-26T10:34:37.662Z</time>
      </trkpt>
      <trkpt lat="51.773898" lon="7.176135">
        <ele>75.225612</ele>
        <time>2025-08-26T10:34:45.883Z</time>
      </trkpt>
      <trkpt lat="51.773898" lon="7.176127">
        <ele>75.234532</ele>
        <time>2025-08-26T10:34:46.000Z</time>
      </trkpt>
      <trkpt lat="51.773879" lon="7.175857">
        <ele>75.537499</ele>
        <time>2025-08-26T10:34:50.443Z</time>
      </trkpt>
      <trkpt lat="51.773364" lon="7.175799">
        <ele>76.467695</ele>
        <time>2025-08-26T10:35:05.100Z</time>
      </trkpt>
      <trkpt lat="51.773022" lon="7.175634">
        <ele>77.110797</ele>
        <time>2025-08-26T10:35:14.769Z</time>
      </trkpt>
      <trkpt lat="51.772759" lon="7.175371">
        <ele>77.683336</ele>
        <time>2025-08-26T10:35:23.657Z</time>
      </trkpt>
      <trkpt lat="51.772285" lon="7.174692">
        <ele>78.961206</ele>
        <time>2025-08-26T10:35:41.924Z</time>
      </trkpt>
      <trkpt lat="51.772072" lon="7.174484">
        <ele>79.463283</ele>
        <time>2025-08-26T10:35:48.724Z</time>
      </trkpt>
      <trkpt lat="51.771769" lon="7.174261">
        <ele>80.134978</ele>
        <time>2025-08-26T10:35:57.312Z</time>
      </trkpt>
      <trkpt lat="51.771850" lon="7.173914">
        <ele>80.597966</ele>
        <time>2025-08-26T10:36:02.937Z</time>
      </trkpt>
      <trkpt lat="51.771892" lon="7.173511">
        <ele>81.108151</ele>
        <time>2025-08-26T10:36:08.834Z</time>
      </trkpt>
      <trkpt lat="51.772017" lon="7.170570">
        <ele>81.765921</ele>
        <time>2025-08-26T10:36:43.832Z</time>
      </trkpt>
      <trkpt lat="51.771629" lon="7.170814">
        <ele>81.084815</ele>
        <time>2025-08-26T10:36:50.567Z</time>
      </trkpt>
      <trkpt lat="51.771613" lon="7.170718">
        <ele>80.982785</ele>
        <time>2025-08-26T10:36:52.237Z</time>
      </trkpt>
      <trkpt lat="51.771569" lon="7.170426">
        <ele>80.674364</ele>
        <time>2025-08-26T10:36:57.280Z</time>
      </trkpt>
      <trkpt lat="51.770863" lon="7.165559">
        <ele>75.197998</ele>
        <time>2025-08-26T10:38:16.518Z</time>
      </trkpt>
      <trkpt lat="51.770581" lon="7.163668">
        <ele>75.965585</ele>
        <time>2025-08-26T10:38:55.370Z</time>
      </trkpt>
      <trkpt lat="51.769311" lon="7.161452">
        <ele>80.393895</ele>
        <time>2025-08-26T10:40:09.986Z</time>
      </trkpt>
      <trkpt lat="51.769464" lon="7.160667">
        <ele>81.953217</ele>
        <time>2025-08-26T10:40:27.485Z</time>
      </trkpt>
      <trkpt lat="51.769516" lon="7.160528">
        <ele>82.303298</ele>
        <time>2025-08-26T10:40:32.252Z</time>
      </trkpt>
      <trkpt lat="51.769934" lon="7.158593">
        <ele>86.720648</ele>
        <time>2025-08-26T10:41:30.268Z</time>
      </trkpt>
      <trkpt lat="51.769996" lon="7.158100">
        <ele>87.745027</ele>
        <time>2025-08-26T10:41:42.283Z</time>
      </trkpt>
      <trkpt lat="51.770079" lon="7.157437">
        <ele>88.031737</ele>
        <time>2025-08-26T10:41:57.046Z</time>
      </trkpt>
      <trkpt lat="51.770109" lon="7.157307">
        <ele>88.090546</ele>
        <time>2025-08-26T10:41:59.860Z</time>
      </trkpt>
      <trkpt lat="51.770322" lon="7.156792">
        <ele>88.353098</ele>
        <time>2025-08-26T10:42:11.716Z</time>
      </trkpt>
      <trkpt lat="51.770838" lon="7.155468">
        <ele>89.068723</ele>
        <time>2025-08-26T10:42:40.086Z</time>
      </trkpt>
      <trkpt lat="51.770868" lon="7.155304">
        <ele>89.211619</ele>
        <time>2025-08-26T10:42:43.279Z</time>
      </trkpt>
      <trkpt lat="51.770843" lon="7.154516">
        <ele>89.870915</ele>
        <time>2025-08-26T10:42:58.751Z</time>
      </trkpt>
      <trkpt lat="51.770654" lon="7.151506">
        <ele>93.320897</ele>
        <time>2025-08-26T10:44:09.457Z</time>
      </trkpt>
      <trkpt lat="51.770534" lon="7.149166">
        <ele>97.349964</ele>
        <time>2025-08-26T10:45:09.863Z</time>
      </trkpt>
      <trkpt lat="51.770494" lon="7.148495">
        <ele>98.711997</ele>
        <time>2025-08-26T10:45:28.021Z</time>
      </trkpt>
      <trkpt lat="51.770672" lon="7.145352">
        <ele>104.763058</ele>
        <time>2025-08-26T10:46:28.943Z</time>
      </trkpt>
      <trkpt lat="51.770662" lon="7.145034">
        <ele>105.340360</ele>
        <time>2025-08-26T10:46:34.410Z</time>
      </trkpt>
      <trkpt lat="51.770580" lon="7.144481">
        <ele>106.371376</ele>
        <time>2025-08-26T10:46:44.065Z</time>
      </trkpt>
      <trkpt lat="51.770445" lon="7.143844">
        <ele>107.583592</ele>
        <time>2025-08-26T10:46:55.231Z</time>
      </trkpt>
      <trkpt lat="51.770362" lon="7.143557">
        <ele>108.145901</ele>
        <time>2025-08-26T10:47:02.720Z</time>
      </trkpt>
      <trkpt lat="51.769783" lon="7.142185">
        <ele>111.093602</ele>
        <time>2025-08-26T10:47:44.842Z</time>
      </trkpt>
      <trkpt lat="51.769701" lon="7.141470">
        <ele>112.382420</ele>
        <time>2025-08-26T10:48:04.510Z</time>
      </trkpt>
      <trkpt lat="51.769535" lon="7.140641">
        <ele>113.856240</ele>
        <time>2025-08-26T10:48:27.948Z</time>
      </trkpt>
      <trkpt lat="51.769545" lon="7.139751">
        <ele>115.361906</ele>
        <time>2025-08-26T10:48:51.225Z</time>
      </trkpt>
      <trkpt lat="51.769604" lon="7.138233">
        <ele>117.590168</ele>
        <time>2025-08-26T10:49:26.857Z</time>
      </trkpt>
      <trkpt lat="51.769547" lon="7.137707">
        <ele>118.032429</ele>
        <time>2025-08-26T10:49:37.851Z</time>
      </trkpt>
      <trkpt lat="51.769417" lon="7.137130">
        <ele>118.540987</ele>
        <time>2025-08-26T10:49:50.641Z</time>
      </trkpt>
      <trkpt lat="51.769275" lon="7.136026">
        <ele>119.474863</ele>
        <time>2025-08-26T10:50:14.401Z</time>
      </trkpt>
      <trkpt lat="51.769222" lon="7.135306">
        <ele>120.383590</ele>
        <time>2025-08-26T10:50:30.286Z</time>
      </trkpt>
      <trkpt lat="51.769220" lon="7.135223">
        <ele>120.504291</ele>
        <time>2025-08-26T10:50:32.164Z</time>
      </trkpt>
      <trkpt lat="51.769259" lon="7.134814">
        <ele>121.105634</ele>
        <time>2025-08-26T10:50:41.767Z</time>
      </trkpt>
      <trkpt lat="51.769415" lon="7.133940">
        <ele>122.427437</ele>
        <time>2025-08-26T10:51:04.425Z</time>
      </trkpt>
      <trkpt lat="51.769411" lon="7.133660">
        <ele>122.834420</ele>
        <time>2025-08-26T10:51:11.681Z</time>
      </trkpt>
      <trkpt lat="51.769069" lon="7.132584">
        <ele>124.608819</ele>
        <time>2025-08-26T10:51:42.608Z</time>
      </trkpt>
      <trkpt lat="51.768970" lon="7.132359">
        <ele>125.019516</ele>
        <time>2025-08-26T10:51:49.658Z</time>
      </trkpt>
      <trkpt lat="51.767900" lon="7.130863">
        <ele>128.465598</ele>
        <time>2025-08-26T10:52:44.307Z</time>
      </trkpt>
      <trkpt lat="51.767299" lon="7.130317">
        <ele>130.482020</ele>
        <time>2025-08-26T10:53:10.614Z</time>
      </trkpt>
      <trkpt lat="51.766532" lon="7.128838">
        <ele>133.937046</ele>
        <time>2025-08-26T10:54:02.592Z</time>
      </trkpt>
      <trkpt lat="51.766361" lon="7.128342">
        <ele>134.887710</ele>
        <time>2025-08-26T10:54:18.528Z</time>
      </trkpt>
      <trkpt lat="51.766241" lon="7.127771">
        <ele>135.897407</ele>
        <time>2025-08-26T10:54:34.581Z</time>
      </trkpt>
      <trkpt lat="51.766051" lon="7.126572">
        <ele>137.969772</ele>
        <time>2025-08-26T10:55:04.051Z</time>
      </trkpt>
      <trkpt lat="51.765970" lon="7.125767">
        <ele>138.847750</ele>
        <time>2025-08-26T10:55:21.241Z</time>
      </trkpt>
      <trkpt lat="51.765841" lon="7.125298">
        <ele>139.285772</ele>
        <time>2025-08-26T10:55:31.991Z</time>
      </trkpt>
      <trkpt lat="51.765836" lon="7.124650">
        <ele>139.838855</ele>
        <time>2025-08-26T10:55:45.904Z</time>
      </trkpt>
      <trkpt lat="51.766065" lon="7.123879">
        <ele>140.568726</ele>
        <time>2025-08-26T10:56:04.785Z</time>
      </trkpt>
      <trkpt lat="51.766179" lon="7.123175">
        <ele>141.158254</ele>
        <time>2025-08-26T10:56:21.212Z</time>
      </trkpt>
      <trkpt lat="51.766517" lon="7.121039">
        <ele>142.878897</ele>
        <time>2025-08-26T10:57:08.216Z</time>
      </trkpt>
      <trkpt lat="51.766181" lon="7.119589">
        <ele>143.880908</ele>
        <time>2025-08-26T10:57:40.858Z</time>
      </trkpt>
      <trkpt lat="51.765893" lon="7.118690">
        <ele>144.507573</ele>
        <time>2025-08-26T10:58:03.414Z</time>
      </trkpt>
      <trkpt lat="51.765687" lon="7.117967">
        <ele>144.573411</ele>
        <time>2025-08-26T10:58:14.203Z</time>
      </trkpt>
      <trkpt lat="51.765522" lon="7.117325">
        <ele>143.359294</ele>
        <time>2025-08-26T10:58:26.334Z</time>
      </trkpt>
      <trkpt lat="51.765418" lon="7.117103">
        <ele>142.873007</ele>
        <time>2025-08-26T10:58:30.977Z</time>
      </trkpt>
      <trkpt lat="51.765246" lon="7.116834">
        <ele>142.197475</ele>
        <time>2025-08-26T10:58:36.962Z</time>
      </trkpt>
      <trkpt lat="51.764515" lon="7.116145">
        <ele>139.804903</ele>
        <time>2025-08-26T10:58:56.593Z</time>
      </trkpt>
      <trkpt lat="51.764290" lon="7.115979">
        <ele>138.241186</ele>
        <time>2025-08-26T10:59:02.243Z</time>
      </trkpt>
      <trkpt lat="51.764198" lon="7.115841">
        <ele>137.447568</ele>
        <time>2025-08-26T10:59:05.095Z</time>
      </trkpt>
      <trkpt lat="51.763765" lon="7.114695">
        <ele>132.194067</ele>
        <time>2025-08-26T10:59:23.483Z</time>
      </trkpt>
      <trkpt lat="51.763438" lon="7.114068">
        <ele>128.985910</ele>
        <time>2025-08-26T10:59:34.526Z</time>
      </trkpt>
      <trkpt lat="51.762728" lon="7.112880">
        <ele>123.339479</ele>
        <time>2025-08-26T10:59:56.842Z</time>
      </trkpt>
      <trkpt lat="51.762602" lon="7.112657">
        <ele>122.320801</ele>
        <time>2025-08-26T11:00:01.084Z</time>
      </trkpt>
      <trkpt lat="51.762420" lon="7.112109">
        <ele>120.222671</ele>
        <time>2025-08-26T11:00:10.023Z</time>
      </trkpt>
      <trkpt lat="51.762336" lon="7.110482">
        <ele>117.821300</ele>
        <time>2025-08-26T11:00:35.843Z</time>
      </trkpt>
      <trkpt lat="51.762296" lon="7.109259">
        <ele>116.961664</ele>
        <time>2025-08-26T11:00:58.105Z</time>
      </trkpt>
      <trkpt lat="51.762207" lon="7.108576">
        <ele>116.503855</ele>
        <time>2025-08-26T11:01:11.302Z</time>
      </trkpt>
      <trkpt lat="51.762193" lon="7.107846">
        <ele>116.121936</ele>
        <time>2025-08-26T11:01:24.611Z</time>
      </trkpt>
      <trkpt lat="51.760268" lon="7.107898">
        <ele>114.859439</ele>
        <time>2025-08-26T11:01:54.564Z</time>
      </trkpt>
      <trkpt lat="51.760544" lon="7.107423">
        <ele>114.731647</ele>
        <time>2025-08-26T11:02:06.831Z</time>
      </trkpt>
      <trkpt lat="51.760927" lon="7.107043">
        <ele>114.589214</ele>
        <time>2025-08-26T11:02:21.129Z</time>
      </trkpt>
      <trkpt lat="51.761347" lon="7.106723">
        <ele>114.149265</ele>
        <time>2025-08-26T11:02:35.717Z</time>
      </trkpt>
      <trkpt lat="51.761822" lon="7.106199">
        <ele>113.157767</ele>
        <time>2025-08-26T11:02:51.812Z</time>
      </trkpt>
      <trkpt lat="51.762154" lon="7.105635">
        <ele>112.327306</ele>
        <time>2025-08-26T11:03:03.894Z</time>
      </trkpt>
      <trkpt lat="51.762225" lon="7.105497">
        <ele>112.135839</ele>
        <time>2025-08-26T11:03:06.574Z</time>
      </trkpt>
      <trkpt lat="51.762371" lon="7.105213">
        <ele>111.741935</ele>
        <time>2025-08-26T11:03:12.118Z</time>
      </trkpt>
      <trkpt lat="51.762903" lon="7.104379">
        <ele>111.255910</ele>
        <time>2025-08-26T11:03:30.811Z</time>
      </trkpt>
      <trkpt lat="51.763082" lon="7.104038">
        <ele>111.179298</ele>
        <time>2025-08-26T11:03:38.290Z</time>
      </trkpt>
      <trkpt lat="51.763493" lon="7.102410">
        <ele>111.312442</ele>
        <time>2025-08-26T11:04:15.383Z</time>
      </trkpt>
      <trkpt lat="51.763696" lon="7.101442">
        <ele>113.558794</ele>
        <time>2025-08-26T11:04:42.995Z</time>
      </trkpt>
      <trkpt lat="51.763793" lon="7.101118">
        <ele>114.349841</ele>
        <time>2025-08-26T11:04:53.085Z</time>
      </trkpt>
      <trkpt lat="51.763996" lon="7.100273">
        <ele>116.342033</ele>
        <time>2025-08-26T11:05:18.898Z</time>
      </trkpt>
      <trkpt lat="51.764022" lon="7.100011">
        <ele>116.925225</ele>
        <time>2025-08-26T11:05:26.733Z</time>
      </trkpt>
      <trkpt lat="51.764170" lon="7.099048">
        <ele>119.158977</ele>
        <time>2025-08-26T11:05:56.447Z</time>
      </trkpt>
      <trkpt lat="51.764203" lon="7.098682">
        <ele>119.995669</ele>
        <time>2025-08-26T11:06:07.128Z</time>
      </trkpt>
      <trkpt lat="51.764183" lon="7.098352">
        <ele>120.745753</ele>
        <time>2025-08-26T11:06:16.423Z</time>
      </trkpt>
      <trkpt lat="51.764130" lon="7.097898">
        <ele>121.790886</ele>
        <time>2025-08-26T11:06:28.777Z</time>
      </trkpt>
      <trkpt lat="51.764073" lon="7.097552">
        <ele>122.600850</ele>
        <time>2025-08-26T11:06:38.043Z</time>
      </trkpt>
      <trkpt lat="51.763991" lon="7.097248">
        <ele>123.351025</ele>
        <time>2025-08-26T11:06:46.458Z</time>
      </trkpt>
      <trkpt lat="51.763942" lon="7.096871">
        <ele>124.049465</ele>
        <time>2025-08-26T11:06:56.185Z</time>
      </trkpt>
      <trkpt lat="51.763943" lon="7.096626">
        <ele>124.330818</ele>
        <time>2025-08-26T11:07:02.202Z</time>
      </trkpt>
      <trkpt lat="51.763994" lon="7.096236">
        <ele>124.788564</ele>
        <time>2025-08-26T11:07:11.678Z</time>
      </trkpt>
      <trkpt lat="51.764152" lon="7.095705">
        <ele>125.465151</ele>
        <time>2025-08-26T11:07:24.986Z</time>
      </trkpt>
      <trkpt lat="51.764222" lon="7.095498">
        <ele>125.736029</ele>
        <time>2025-08-26T11:07:30.187Z</time>
      </trkpt>
      <trkpt lat="51.764237" lon="7.095318">
        <ele>125.944597</ele>
        <time>2025-08-26T11:07:34.180Z</time>
      </trkpt>
      <trkpt lat="51.764281" lon="7.094058">
        <ele>127.363252</ele>
        <time>2025-08-26T11:08:01.708Z</time>
      </trkpt>
      <trkpt lat="51.763953" lon="7.092294">
        <ele>129.129692</ele>
        <time>2025-08-26T11:08:43.190Z</time>
      </trkpt>
      <trkpt lat="51.763909" lon="7.092020">
        <ele>129.401170</ele>
        <time>2025-08-26T11:08:49.586Z</time>
      </trkpt>
      <trkpt lat="51.763887" lon="7.091681">
        <ele>129.728067</ele>
        <time>2025-08-26T11:08:57.244Z</time>
      </trkpt>
      <trkpt lat="51.763978" lon="7.091253">
        <ele>130.075783</ele>
        <time>2025-08-26T11:09:07.283Z</time>
      </trkpt>
      <trkpt lat="51.764021" lon="7.091099">
        <ele>130.153838</ele>
        <time>2025-08-26T11:09:09.969Z</time>
      </trkpt>
      <trkpt lat="51.765524" lon="7.087207">
        <ele>131.332476</ele>
        <time>2025-08-26T11:10:12.075Z</time>
      </trkpt>
      <trkpt lat="51.766003" lon="7.085862">
        <ele>130.621356</ele>
        <time>2025-08-26T11:10:29.206Z</time>
      </trkpt>
      <trkpt lat="51.765834" lon="7.085276">
        <ele>129.937015</ele>
        <time>2025-08-26T11:10:39.797Z</time>
      </trkpt>
      <trkpt lat="51.764446" lon="7.080577">
        <ele>123.519588</ele>
        <time>2025-08-26T11:12:03.303Z</time>
      </trkpt>
      <trkpt lat="51.763708" lon="7.078053">
        <ele>120.134100</ele>
        <time>2025-08-26T11:12:47.455Z</time>
      </trkpt>
      <trkpt lat="51.763110" lon="7.076026">
        <ele>118.760094</ele>
        <time>2025-08-26T11:13:26.234Z</time>
      </trkpt>
      <trkpt lat="51.763089" lon="7.075963">
        <ele>118.722434</ele>
        <time>2025-08-26T11:13:27.554Z</time>
      </trkpt>
      <trkpt lat="51.762430" lon="7.073691">
        <ele>119.600732</ele>
        <time>2025-08-26T11:14:18.209Z</time>
      </trkpt>
      <trkpt lat="51.761832" lon="7.071742">
        <ele>119.588474</ele>
        <time>2025-08-26T11:15:02.839Z</time>
      </trkpt>
      <trkpt lat="51.761483" lon="7.070888">
        <ele>119.503043</ele>
        <time>2025-08-26T11:15:20.447Z</time>
      </trkpt>
      <trkpt lat="51.761149" lon="7.070081">
        <ele>117.275371</ele>
        <time>2025-08-26T11:15:35.570Z</time>
      </trkpt>
      <trkpt lat="51.759244" lon="7.065484">
        <ele>100.948250</ele>
        <time>2025-08-26T11:16:54.266Z</time>
      </trkpt>
      <trkpt lat="51.758339" lon="7.063378">
        <ele>92.438849</ele>
        <time>2025-08-26T11:17:30.250Z</time>
      </trkpt>
      <trkpt lat="51.757300" lon="7.060868">
        <ele>83.437339</ele>
        <time>2025-08-26T11:18:13.142Z</time>
      </trkpt>
      <trkpt lat="51.756777" lon="7.059619">
        <ele>80.577325</ele>
        <time>2025-08-26T11:18:36.353Z</time>
      </trkpt>
      <trkpt lat="51.756126" lon="7.058057">
        <ele>77.206083</ele>
        <time>2025-08-26T11:18:53.496Z</time>
      </trkpt>
      <trkpt lat="51.754414" lon="7.053998">
        <ele>68.325732</ele>
        <time>2025-08-26T11:19:35.501Z</time>
      </trkpt>
      <trkpt lat="51.753916" lon="7.052765">
        <ele>65.748249</ele>
        <time>2025-08-26T11:19:47.660Z</time>
      </trkpt>
      <trkpt lat="51.753857" lon="7.052465">
        <ele>65.198946</ele>
        <time>2025-08-26T11:19:50.293Z</time>
      </trkpt>
      <trkpt lat="51.753849" lon="7.052258">
        <ele>64.837015</ele>
        <time>2025-08-26T11:19:52.059Z</time>
      </trkpt>
      <trkpt lat="51.753946" lon="7.051069">
        <ele>63.210877</ele>
        <time>2025-08-26T11:20:02.867Z</time>
      </trkpt>
      <trkpt lat="51.754080" lon="7.049861">
        <ele>63.469689</ele>
        <time>2025-08-26T11:20:16.158Z</time>
      </trkpt>
      <trkpt lat="51.754237" lon="7.048777">
        <ele>63.704465</ele>
        <time>2025-08-26T11:20:31.992Z</time>
      </trkpt>
      <trkpt lat="51.754250" lon="7.048519">
        <ele>63.759054</ele>
        <time>2025-08-26T11:20:35.998Z</time>
      </trkpt>
      <trkpt lat="51.754224" lon="7.048305">
        <ele>63.918179</ele>
        <time>2025-08-26T11:20:39.465Z</time>
      </trkpt>
      <trkpt lat="51.753896" lon="7.046631">
        <ele>65.608389</ele>
        <time>2025-08-26T11:21:08.000Z</time>
      </trkpt>
      <trkpt lat="51.753670" lon="7.045475">
        <ele>66.477473</ele>
        <time>2025-08-26T11:21:24.758Z</time>
      </trkpt>
      <trkpt lat="51.753313" lon="7.044157">
        <ele>65.851284</ele>
        <time>2025-08-26T11:21:39.915Z</time>
      </trkpt>
      <trkpt lat="51.752563" lon="7.042899">
        <ele>64.724659</ele>
        <time>2025-08-26T11:21:56.085Z</time>
      </trkpt>
      <trkpt lat="51.751529" lon="7.040834">
        <ele>61.713891</ele>
        <time>2025-08-26T11:22:20.210Z</time>
      </trkpt>
      <trkpt lat="51.751037" lon="7.040114">
        <ele>60.979694</ele>
        <time>2025-08-26T11:22:30.310Z</time>
      </trkpt>
      <trkpt lat="51.750966" lon="7.039921">
        <ele>60.825988</ele>
        <time>2025-08-26T11:22:32.502Z</time>
      </trkpt>
      <trkpt lat="51.750692" lon="7.038510">
        <ele>59.758349</ele>
        <time>2025-08-26T11:22:47.975Z</time>
      </trkpt>
      <trkpt lat="51.750393" lon="7.037172">
        <ele>58.093322</ele>
        <time>2025-08-26T11:23:02.037Z</time>
      </trkpt>
      <trkpt lat="51.750196" lon="7.036411">
        <ele>57.127835</ele>
        <time>2025-08-26T11:23:09.103Z</time>
      </trkpt>
      <trkpt lat="51.750172" lon="7.036318">
        <ele>57.009899</ele>
        <time>2025-08-26T11:23:09.948Z</time>
      </trkpt>
      <trkpt lat="51.750141" lon="7.036171">
        <ele>56.828126</ele>
        <time>2025-08-26T11:23:11.248Z</time>
      </trkpt>
      <trkpt lat="51.750188" lon="7.035719">
        <ele>56.392457</ele>
        <time>2025-08-26T11:23:15.095Z</time>
      </trkpt>
      <trkpt lat="51.750294" lon="7.034905">
        <ele>55.912020</ele>
        <time>2025-08-26T11:23:22.192Z</time>
      </trkpt>
      <trkpt lat="51.750305" lon="7.034827">
        <ele>55.865815</ele>
        <time>2025-08-26T11:23:22.887Z</time>
      </trkpt>
      <trkpt lat="51.750365" lon="7.034401">
        <ele>55.613480</ele>
        <time>2025-08-26T11:23:26.819Z</time>
      </trkpt>
      <trkpt lat="51.750617" lon="7.033042">
        <ele>54.844950</ele>
        <time>2025-08-26T11:23:44.909Z</time>
      </trkpt>
      <trkpt lat="51.750696" lon="7.032433">
        <ele>55.472413</ele>
        <time>2025-08-26T11:23:55.918Z</time>
      </trkpt>
      <trkpt lat="51.750712" lon="7.032289">
        <ele>55.619945</ele>
        <time>2025-08-26T11:23:58.526Z</time>
      </trkpt>
      <trkpt lat="51.749788" lon="7.032056">
        <ele>57.143264</ele>
        <time>2025-08-26T11:24:23.432Z</time>
      </trkpt>
      <trkpt lat="51.748850" lon="7.031879">
        <ele>57.600363</ele>
        <time>2025-08-26T11:24:41.566Z</time>
      </trkpt>
      <trkpt lat="51.748434" lon="7.031810">
        <ele>57.497341</ele>
        <time>2025-08-26T11:24:48.600Z</time>
      </trkpt>
      <trkpt lat="51.747957" lon="7.031816">
        <ele>57.379827</ele>
        <time>2025-08-26T11:24:56.541Z</time>
      </trkpt>
      <trkpt lat="51.746986" lon="7.031906">
        <ele>56.392687</ele>
        <time>2025-08-26T11:25:11.979Z</time>
      </trkpt>
      <trkpt lat="51.746730" lon="7.031963">
        <ele>56.029853</ele>
        <time>2025-08-26T11:25:15.887Z</time>
      </trkpt>
      <trkpt lat="51.746047" lon="7.032253">
        <ele>55.038310</ele>
        <time>2025-08-26T11:25:26.474Z</time>
      </trkpt>
      <trkpt lat="51.745918" lon="7.032282">
        <ele>54.855442</ele>
        <time>2025-08-26T11:25:28.441Z</time>
      </trkpt>
      <trkpt lat="51.745694" lon="7.032333">
        <ele>54.530415</ele>
        <time>2025-08-26T11:25:31.834Z</time>
      </trkpt>
      <trkpt lat="51.745527" lon="7.032306">
        <ele>54.287370</ele>
        <time>2025-08-26T11:25:34.325Z</time>
      </trkpt>
      <trkpt lat="51.745412" lon="7.032248">
        <ele>54.112906</ele>
        <time>2025-08-26T11:25:36.117Z</time>
      </trkpt>
      <trkpt lat="51.745207" lon="7.032043">
        <ele>53.763745</ele>
        <time>2025-08-26T11:25:39.759Z</time>
      </trkpt>
      <trkpt lat="51.744929" lon="7.031794">
        <ele>53.303405</ele>
        <time>2025-08-26T11:25:44.652Z</time>
      </trkpt>
      <trkpt lat="51.744806" lon="7.031727">
        <ele>53.115428</ele>
        <time>2025-08-26T11:25:46.682Z</time>
      </trkpt>
      <trkpt lat="51.744166" lon="7.031539">
        <ele>52.173426</ele>
        <time>2025-08-26T11:25:56.839Z</time>
      </trkpt>
      <trkpt lat="51.743402" lon="7.031035">
        <ele>51.420711</ele>
        <time>2025-08-26T11:26:09.662Z</time>
      </trkpt>
      <trkpt lat="51.743287" lon="7.030972">
        <ele>51.310179</ele>
        <time>2025-08-26T11:26:11.578Z</time>
      </trkpt>
      <trkpt lat="51.743029" lon="7.030907">
        <ele>51.072505</ele>
        <time>2025-08-26T11:26:15.718Z</time>
      </trkpt>
      <trkpt lat="51.742978" lon="7.030889">
        <ele>51.024989</ele>
        <time>2025-08-26T11:26:16.582Z</time>
      </trkpt>
      <trkpt lat="51.742144" lon="7.030606">
        <ele>50.970422</ele>
        <time>2025-08-26T11:26:30.779Z</time>
      </trkpt>
      <trkpt lat="51.742108" lon="7.030591">
        <ele>51.022862</ele>
        <time>2025-08-26T11:26:31.536Z</time>
      </trkpt>
      <trkpt lat="51.741765" lon="7.030458">
        <ele>51.520402</ele>
        <time>2025-08-26T11:26:38.729Z</time>
      </trkpt>
      <trkpt lat="51.741579" lon="7.030355">
        <ele>51.797744</ele>
        <time>2025-08-26T11:26:43.174Z</time>
      </trkpt>
      <trkpt lat="51.741329" lon="7.030161">
        <ele>52.188956</ele>
        <time>2025-08-26T11:26:50.093Z</time>
      </trkpt>
      <trkpt lat="51.740314" lon="7.029205">
        <ele>54.396936</ele>
        <time>2025-08-26T11:27:24.816Z</time>
      </trkpt>
      <trkpt lat="51.739431" lon="7.028385">
        <ele>56.851524</ele>
        <time>2025-08-26T11:27:53.306Z</time>
      </trkpt>
      <trkpt lat="51.739187" lon="7.028072">
        <ele>57.463573</ele>
        <time>2025-08-26T11:28:00.795Z</time>
      </trkpt>
      <trkpt lat="51.738660" lon="7.027261">
        <ele>57.993707</ele>
        <time>2025-08-26T11:28:16.462Z</time>
      </trkpt>
      <trkpt lat="51.738320" lon="7.026645">
        <ele>58.365828</ele>
        <time>2025-08-26T11:28:26.238Z</time>
      </trkpt>
      <trkpt lat="51.737857" lon="7.025930">
        <ele>58.692047</ele>
        <time>2025-08-26T11:28:38.337Z</time>
      </trkpt>
      <trkpt lat="51.737183" lon="7.024763">
        <ele>58.563842</ele>
        <time>2025-08-26T11:28:56.415Z</time>
      </trkpt>
      <trkpt lat="51.736235" lon="7.023232">
        <ele>57.289918</ele>
        <time>2025-08-26T11:29:18.568Z</time>
      </trkpt>
      <trkpt lat="51.734340" lon="7.020044">
        <ele>51.708198</ele>
        <time>2025-08-26T11:29:57.578Z</time>
      </trkpt>
      <trkpt lat="51.733284" lon="7.018258">
        <ele>49.693539</ele>
        <time>2025-08-26T11:30:21.180Z</time>
      </trkpt>
      <trkpt lat="51.733125" lon="7.018044">
        <ele>49.444719</ele>
        <time>2025-08-26T11:30:24.587Z</time>
      </trkpt>
      <trkpt lat="51.732995" lon="7.017966">
        <ele>49.278010</ele>
        <time>2025-08-26T11:30:26.879Z</time>
      </trkpt>
      <trkpt lat="51.732854" lon="7.017945">
        <ele>49.151735</ele>
        <time>2025-08-26T11:30:29.244Z</time>
      </trkpt>
      <trkpt lat="51.732768" lon="7.017974">
        <ele>49.121753</ele>
        <time>2025-08-26T11:30:30.695Z</time>
      </trkpt>
      <trkpt lat="51.731531" lon="7.019064">
        <ele>48.640828</ele>
        <time>2025-08-26T11:30:55.048Z</time>
      </trkpt>
      <trkpt lat="51.731389" lon="7.019121">
        <ele>48.590893</ele>
        <time>2025-08-26T11:30:57.552Z</time>
      </trkpt>
      <trkpt lat="51.731069" lon="7.018998">
        <ele>48.413668</ele>
        <time>2025-08-26T11:31:03.160Z</time>
      </trkpt>
      <trkpt lat="51.731054" lon="7.018849">
        <ele>48.354734</ele>
        <time>2025-08-26T11:31:04.738Z</time>
      </trkpt>
      <trkpt lat="51.730848" lon="7.016712">
        <ele>47.510387</ele>
        <time>2025-08-26T11:31:26.707Z</time>
      </trkpt>
      <trkpt lat="51.730841" lon="7.016627">
        <ele>47.476910</ele>
        <time>2025-08-26T11:31:27.552Z</time>
      </trkpt>
      <trkpt lat="51.730813" lon="7.016283">
        <ele>47.408377</ele>
        <time>2025-08-26T11:31:30.944Z</time>
      </trkpt>
      <trkpt lat="51.730708" lon="7.015076">
        <ele>47.330054</ele>
        <time>2025-08-26T11:31:43.303Z</time>
      </trkpt>
      <trkpt lat="51.730652" lon="7.014562">
        <ele>47.296517</ele>
        <time>2025-08-26T11:31:48.923Z</time>
      </trkpt>
      <trkpt lat="51.730568" lon="7.014095">
        <ele>47.265267</ele>
        <time>2025-08-26T11:31:54.587Z</time>
      </trkpt>
      <trkpt lat="51.730463" lon="7.013700">
        <ele>47.237645</ele>
        <time>2025-08-26T11:32:00.246Z</time>
      </trkpt>
      <trkpt lat="51.730382" lon="7.013492">
        <ele>47.373105</ele>
        <time>2025-08-26T11:32:03.705Z</time>
      </trkpt>
      <trkpt lat="51.730017" lon="7.012459">
        <ele>48.179626</ele>
        <time>2025-08-26T11:32:21.377Z</time>
      </trkpt>
      <trkpt lat="51.729881" lon="7.012137">
        <ele>48.443935</ele>
        <time>2025-08-26T11:32:27.047Z</time>
      </trkpt>
      <trkpt lat="51.729463" lon="7.011413">
        <ele>49.115162</ele>
        <time>2025-08-26T11:32:40.655Z</time>
      </trkpt>
      <trkpt lat="51.729244" lon="7.011170">
        <ele>49.176538</ele>
        <time>2025-08-26T11:32:45.828Z</time>
      </trkpt>
      <trkpt lat="51.729097" lon="7.011079">
        <ele>49.152793</ele>
        <time>2025-08-26T11:32:48.738Z</time>
      </trkpt>
      <trkpt lat="51.728588" lon="7.010764">
        <ele>49.070576</ele>
        <time>2025-08-26T11:32:58.387Z</time>
      </trkpt>
      <trkpt lat="51.728478" lon="7.010661">
        <ele>49.051397</ele>
        <time>2025-08-26T11:33:00.626Z</time>
      </trkpt>
      <trkpt lat="51.728378" lon="7.010451">
        <ele>49.026652</ele>
        <time>2025-08-26T11:33:03.473Z</time>
      </trkpt>
      <trkpt lat="51.727512" lon="7.007946">
        <ele>47.601957</ele>
        <time>2025-08-26T11:33:32.375Z</time>
      </trkpt>
      <trkpt lat="51.727370" lon="7.007687">
        <ele>47.355333</ele>
        <time>2025-08-26T11:33:35.564Z</time>
      </trkpt>
      <trkpt lat="51.727205" lon="7.007576">
        <ele>47.149564</ele>
        <time>2025-08-26T11:33:38.191Z</time>
      </trkpt>
      <trkpt lat="51.727152" lon="7.007575">
        <ele>47.088550</ele>
        <time>2025-08-26T11:33:39.008Z</time>
      </trkpt>
      <trkpt lat="51.726908" lon="7.006494">
        <ele>46.392108</ele>
        <time>2025-08-26T11:33:50.030Z</time>
      </trkpt>
      <trkpt lat="51.726422" lon="7.003787">
        <ele>45.083046</ele>
        <time>2025-08-26T11:34:20.585Z</time>
      </trkpt>
      <trkpt lat="51.725612" lon="7.000733">
        <ele>44.703397</ele>
        <time>2025-08-26T11:34:57.594Z</time>
      </trkpt>
      <trkpt lat="51.725353" lon="7.000625">
        <ele>44.712912</ele>
        <time>2025-08-26T11:35:02.381Z</time>
      </trkpt>
      <trkpt lat="51.724945" lon="7.000301">
        <ele>44.729085</ele>
        <time>2025-08-26T11:35:10.914Z</time>
      </trkpt>
      <trkpt lat="51.724696" lon="7.000190">
        <ele>44.738273</ele>
        <time>2025-08-26T11:35:15.894Z</time>
      </trkpt>
      <trkpt lat="51.724660" lon="7.000181">
        <ele>44.739569</ele>
        <time>2025-08-26T11:35:16.561Z</time>
      </trkpt>
      <trkpt lat="51.724599" lon="6.999945">
        <ele>44.748078</ele>
        <time>2025-08-26T11:35:21.476Z</time>
      </trkpt>
      <trkpt lat="51.724520" lon="6.999898">
        <ele>44.753509</ele>
        <time>2025-08-26T11:35:24.104Z</time>
      </trkpt>
      <trkpt lat="51.724406" lon="6.999906">
        <ele>44.760870</ele>
        <time>2025-08-26T11:35:27.639Z</time>
      </trkpt>
      <trkpt lat="51.724423" lon="6.999464">
        <ele>44.778566</ele>
        <time>2025-08-26T11:35:33.107Z</time>
      </trkpt>
      <trkpt lat="51.724461" lon="6.999072">
        <ele>44.794421</ele>
        <time>2025-08-26T11:35:37.937Z</time>
      </trkpt>
      <trkpt lat="51.724463" lon="6.998994">
        <ele>44.797541</ele>
        <time>2025-08-26T11:35:38.872Z</time>
      </trkpt>
      <trkpt lat="51.724461" lon="6.998936">
        <ele>44.799862</ele>
        <time>2025-08-26T11:35:39.551Z</time>
      </trkpt>
      <trkpt lat="51.724454" lon="6.998287">
        <ele>44.825800</ele>
        <time>2025-08-26T11:35:47.066Z</time>
      </trkpt>
      <trkpt lat="51.723976" lon="6.998074">
        <ele>44.857656</ele>
        <time>2025-08-26T11:36:01.341Z</time>
      </trkpt>
      <trkpt lat="51.723630" lon="6.997812">
        <ele>44.846469</ele>
        <time>2025-08-26T11:36:12.385Z</time>
      </trkpt>
      <trkpt lat="51.723572" lon="6.997809">
        <ele>44.844770</ele>
        <time>2025-08-26T11:36:13.398Z</time>
      </trkpt>
      <trkpt lat="51.723499" lon="6.997871">
        <ele>44.842355</ele>
        <time>2025-08-26T11:36:14.855Z</time>
      </trkpt>
      <trkpt lat="51.723279" lon="6.997325">
        <ele>44.830544</ele>
        <time>2025-08-26T11:36:22.063Z</time>
      </trkpt>
      <trkpt lat="51.723014" lon="6.997605">
        <ele>44.821273</ele>
        <time>2025-08-26T11:36:27.819Z</time>
      </trkpt>
      <trkpt lat="51.722888" lon="6.997698">
        <ele>44.817217</ele>
        <time>2025-08-26T11:36:30.335Z</time>
      </trkpt>
      <trkpt lat="51.722499" lon="6.997862">
        <ele>44.805448</ele>
        <time>2025-08-26T11:36:37.742Z</time>
      </trkpt>
      <trkpt lat="51.722340" lon="6.997882">
        <ele>44.751270</ele>
        <time>2025-08-26T11:36:40.673Z</time>
      </trkpt>
      <trkpt lat="51.722123" lon="6.997848">
        <ele>44.670816</ele>
        <time>2025-08-26T11:36:44.680Z</time>
      </trkpt>
      <trkpt lat="51.721384" lon="6.997477">
        <ele>44.385226</ele>
        <time>2025-08-26T11:36:57.770Z</time>
      </trkpt>
      <trkpt lat="51.721007" lon="6.997445">
        <ele>44.245913</ele>
        <time>2025-08-26T11:37:03.890Z</time>
      </trkpt>
      <trkpt lat="51.720900" lon="6.997439">
        <ele>44.206404</ele>
        <time>2025-08-26T11:37:05.624Z</time>
      </trkpt>
      <trkpt lat="51.719416" lon="6.997340">
        <ele>43.714843</ele>
        <time>2025-08-26T11:37:30.328Z</time>
      </trkpt>
      <trkpt lat="51.718858" lon="6.997298">
        <ele>43.577390</ele>
        <time>2025-08-26T11:37:40.598Z</time>
      </trkpt>
      <trkpt lat="51.717975" lon="6.997233">
        <ele>43.861576</ele>
        <time>2025-08-26T11:37:58.387Z</time>
      </trkpt>
      <trkpt lat="51.717293" lon="6.997190">
        <ele>44.081011</ele>
        <time>2025-08-26T11:38:11.508Z</time>
      </trkpt>
      <trkpt lat="51.716730" lon="6.997155">
        <ele>44.059751</ele>
        <time>2025-08-26T11:38:21.663Z</time>
      </trkpt>
      <trkpt lat="51.715159" lon="6.997051">
        <ele>43.791954</ele>
        <time>2025-08-26T11:38:48.500Z</time>
      </trkpt>
      <trkpt lat="51.712497" lon="6.995846">
        <ele>43.545942</ele>
        <time>2025-08-26T11:39:37.600Z</time>
      </trkpt>
      <trkpt lat="51.712309" lon="6.995739">
        <ele>43.518998</ele>
        <time>2025-08-26T11:39:41.244Z</time>
      </trkpt>
      <trkpt lat="51.711900" lon="6.995383">
        <ele>43.453643</ele>
        <time>2025-08-26T11:39:49.570Z</time>
      </trkpt>
      <trkpt lat="51.711663" lon="6.995675">
        <ele>43.267056</ele>
        <time>2025-08-26T11:39:58.109Z</time>
      </trkpt>
      <trkpt lat="51.710231" lon="6.997091">
        <ele>42.331589</ele>
        <time>2025-08-26T11:40:45.149Z</time>
      </trkpt>
      <trkpt lat="51.709839" lon="6.997502">
        <ele>42.332216</ele>
        <time>2025-08-26T11:40:58.758Z</time>
      </trkpt>
      <trkpt lat="51.708641" lon="6.998005">
        <ele>42.340148</ele>
        <time>2025-08-26T11:41:36.963Z</time>
      </trkpt>
      <trkpt lat="51.707889" lon="6.998582">
        <ele>42.398756</ele>
        <time>2025-08-26T11:42:02.373Z</time>
      </trkpt>
      <trkpt lat="51.707772" lon="6.998721">
        <ele>42.408982</ele>
        <time>2025-08-26T11:42:06.695Z</time>
      </trkpt>
      <trkpt lat="51.707572" lon="6.998833">
        <ele>42.423882</ele>
        <time>2025-08-26T11:42:12.986Z</time>
      </trkpt>
      <trkpt lat="51.707200" lon="6.999211">
        <ele>42.454824</ele>
        <time>2025-08-26T11:42:25.984Z</time>
      </trkpt>
      <trkpt lat="51.706202" lon="7.000223">
        <ele>42.141069</ele>
        <time>2025-08-26T11:43:00.114Z</time>
      </trkpt>
      <trkpt lat="51.706024" lon="7.000531">
        <ele>42.065325</ele>
        <time>2025-08-26T11:43:07.648Z</time>
      </trkpt>
      <trkpt lat="51.705900" lon="7.001197">
        <ele>41.940255</ele>
        <time>2025-08-26T11:43:20.046Z</time>
      </trkpt>
      <trkpt lat="51.705856" lon="7.001263">
        <ele>41.922776</ele>
        <time>2025-08-26T11:43:21.784Z</time>
      </trkpt>
      <trkpt lat="51.705793" lon="7.001293">
        <ele>41.903657</ele>
        <time>2025-08-26T11:43:23.661Z</time>
      </trkpt>
      <trkpt lat="51.704922" lon="7.001242">
        <ele>41.649979</ele>
        <time>2025-08-26T11:43:48.844Z</time>
      </trkpt>
      <trkpt lat="51.704825" lon="7.001187">
        <ele>41.620055</ele>
        <time>2025-08-26T11:43:50.622Z</time>
      </trkpt>
      <trkpt lat="51.704461" lon="7.000761">
        <ele>41.489179</ele>
        <time>2025-08-26T11:43:58.544Z</time>
      </trkpt>
      <trkpt lat="51.704059" lon="7.000373">
        <ele>41.313553</ele>
        <time>2025-08-26T11:44:06.624Z</time>
      </trkpt>
      <trkpt lat="51.703874" lon="7.000218">
        <ele>41.214435</ele>
        <time>2025-08-26T11:44:10.175Z</time>
      </trkpt>
      <trkpt lat="51.703617" lon="7.000068">
        <ele>41.084483</ele>
        <time>2025-08-26T11:44:14.826Z</time>
      </trkpt>
      <trkpt lat="51.701054" lon="7.000618">
        <ele>39.680339</ele>
        <time>2025-08-26T11:44:57.662Z</time>
      </trkpt>
      <trkpt lat="51.700858" lon="7.000574">
        <ele>39.562910</ele>
        <time>2025-08-26T11:45:00.908Z</time>
      </trkpt>
      <trkpt lat="51.700361" lon="7.000320">
        <ele>39.299595</ele>
        <time>2025-08-26T11:45:09.474Z</time>
      </trkpt>
      <trkpt lat="51.699726" lon="7.000114">
        <ele>38.989389</ele>
        <time>2025-08-26T11:45:20.223Z</time>
      </trkpt>
      <trkpt lat="51.699504" lon="6.999983">
        <ele>38.876179</ele>
        <time>2025-08-26T11:45:24.177Z</time>
      </trkpt>
      <trkpt lat="51.698747" lon="6.999251">
        <ele>38.626222</ele>
        <time>2025-08-26T11:45:39.309Z</time>
      </trkpt>
      <trkpt lat="51.696522" lon="6.996977">
        <ele>38.647469</ele>
        <time>2025-08-26T11:46:26.908Z</time>
      </trkpt>
      <trkpt lat="51.694829" lon="6.995337">
        <ele>38.274402</ele>
        <time>2025-08-26T11:47:01.889Z</time>
      </trkpt>
      <trkpt lat="51.693852" lon="6.994263">
        <ele>37.602789</ele>
        <time>2025-08-26T11:47:20.838Z</time>
      </trkpt>
      <trkpt lat="51.693054" lon="6.993464">
        <ele>36.923772</ele>
        <time>2025-08-26T11:47:36.131Z</time>
      </trkpt>
      <trkpt lat="51.692880" lon="6.993257">
        <ele>36.828887</ele>
        <time>2025-08-26T11:47:39.769Z</time>
      </trkpt>
      <trkpt lat="51.692926" lon="6.993055">
        <ele>36.799649</ele>
        <time>2025-08-26T11:47:42.030Z</time>
      </trkpt>
      <trkpt lat="51.692990" lon="6.992700">
        <ele>36.749418</ele>
        <time>2025-08-26T11:47:45.991Z</time>
      </trkpt>
      <trkpt lat="51.693084" lon="6.991839">
        <ele>36.630637</ele>
        <time>2025-08-26T11:47:55.565Z</time>
      </trkpt>
      <trkpt lat="51.693542" lon="6.986466">
        <ele>36.245979</ele>
        <time>2025-08-26T11:48:54.031Z</time>
      </trkpt>
      <trkpt lat="51.693590" lon="6.986129">
        <ele>36.274219</ele>
        <time>2025-08-26T11:48:58.001Z</time>
      </trkpt>
      <trkpt lat="51.693818" lon="6.985009">
        <ele>36.370497</ele>
        <time>2025-08-26T11:49:12.067Z</time>
      </trkpt>
      <trkpt lat="51.693872" lon="6.984339">
        <ele>36.643409</ele>
        <time>2025-08-26T11:49:20.523Z</time>
      </trkpt>
      <trkpt lat="51.693936" lon="6.982907">
        <ele>37.304563</ele>
        <time>2025-08-26T11:49:39.300Z</time>
      </trkpt>
      <trkpt lat="51.693965" lon="6.982171">
        <ele>37.644178</ele>
        <time>2025-08-26T11:49:48.837Z</time>
      </trkpt>
      <trkpt lat="51.694031" lon="6.980704">
        <ele>38.198465</ele>
        <time>2025-08-26T11:50:08.203Z</time>
      </trkpt>
      <trkpt lat="51.694057" lon="6.980488">
        <ele>38.279236</ele>
        <time>2025-08-26T11:50:11.099Z</time>
      </trkpt>
      <trkpt lat="51.694110" lon="6.980328">
        <ele>38.345829</ele>
        <time>2025-08-26T11:50:13.454Z</time>
      </trkpt>
      <trkpt lat="51.694257" lon="6.980161">
        <ele>38.452301</ele>
        <time>2025-08-26T11:50:17.124Z</time>
      </trkpt>
      <trkpt lat="51.695112" lon="6.979789">
        <ele>38.683381</ele>
        <time>2025-08-26T11:50:33.460Z</time>
      </trkpt>
      <trkpt lat="51.695179" lon="6.979726">
        <ele>38.660781</ele>
        <time>2025-08-26T11:50:34.841Z</time>
      </trkpt>
      <trkpt lat="51.695229" lon="6.979613">
        <ele>38.635700</ele>
        <time>2025-08-26T11:50:36.340Z</time>
      </trkpt>
      <trkpt lat="51.695181" lon="6.979393">
        <ele>38.593568</ele>
        <time>2025-08-26T11:50:38.853Z</time>
      </trkpt>
      <trkpt lat="51.694998" lon="6.978948">
        <ele>38.497099</ele>
        <time>2025-08-26T11:50:44.484Z</time>
      </trkpt>
      <trkpt lat="51.694858" lon="6.978663">
        <ele>38.431408</ele>
        <time>2025-08-26T11:50:48.246Z</time>
      </trkpt>
      <trkpt lat="51.694735" lon="6.978477">
        <ele>38.382276</ele>
        <time>2025-08-26T11:50:51.005Z</time>
      </trkpt>
      <trkpt lat="51.693095" lon="6.976730">
        <ele>37.530293</ele>
        <time>2025-08-26T11:51:23.775Z</time>
      </trkpt>
      <trkpt lat="51.690176" lon="6.971133">
        <ele>36.816607</ele>
        <time>2025-08-26T11:53:36.569Z</time>
      </trkpt>
      <trkpt lat="51.689825" lon="6.969607">
        <ele>36.830864</ele>
        <time>2025-08-26T11:54:06.820Z</time>
      </trkpt>
      <trkpt lat="51.689296" lon="6.967922">
        <ele>36.853142</ele>
        <time>2025-08-26T11:54:42.099Z</time>
      </trkpt>
      <trkpt lat="51.688729" lon="6.966210">
        <ele>36.699714</ele>
        <time>2025-08-26T11:55:17.497Z</time>
      </trkpt>
      <trkpt lat="51.688085" lon="6.966775">
        <ele>36.429440</ele>
        <time>2025-08-26T11:55:30.089Z</time>
      </trkpt>
      <trkpt lat="51.688043" lon="6.966815">
        <ele>36.411458</ele>
        <time>2025-08-26T11:55:30.905Z</time>
      </trkpt>
      <trkpt lat="51.687638" lon="6.967192">
        <ele>36.239064</ele>
        <time>2025-08-26T11:55:38.814Z</time>
      </trkpt>
      <trkpt lat="51.687413" lon="6.967401">
        <ele>36.041128</ele>
        <time>2025-08-26T11:55:43.042Z</time>
      </trkpt>
      <trkpt lat="51.687255" lon="6.967529">
        <ele>35.867286</ele>
        <time>2025-08-26T11:55:45.838Z</time>
      </trkpt>
      <trkpt lat="51.686925" lon="6.967841">
        <ele>35.491193</ele>
        <time>2025-08-26T11:55:51.744Z</time>
      </trkpt>
      <trkpt lat="51.686311" lon="6.968416">
        <ele>34.793123</ele>
        <time>2025-08-26T11:56:02.615Z</time>
      </trkpt>
      <trkpt lat="51.685687" lon="6.969006">
        <ele>34.467400</ele>
        <time>2025-08-26T11:56:14.656Z</time>
      </trkpt>
      <trkpt lat="51.685101" lon="6.969551">
        <ele>34.525994</ele>
        <time>2025-08-26T11:56:27.386Z</time>
      </trkpt>
      <trkpt lat="51.684935" lon="6.969703">
        <ele>34.542529</ele>
        <time>2025-08-26T11:56:31.264Z</time>
      </trkpt>
      <trkpt lat="51.684842" lon="6.969338">
        <ele>34.563722</ele>
        <time>2025-08-26T11:56:36.480Z</time>
      </trkpt>
      <trkpt lat="51.684641" lon="6.968649">
        <ele>34.486070</ele>
        <time>2025-08-26T11:56:45.769Z</time>
      </trkpt>
      <trkpt lat="51.684530" lon="6.968345">
        <ele>34.327071</ele>
        <time>2025-08-26T11:56:49.480Z</time>
      </trkpt>
      <trkpt lat="51.684469" lon="6.968216">
        <ele>34.253954</ele>
        <time>2025-08-26T11:56:51.145Z</time>
      </trkpt>
      <trkpt lat="51.684268" lon="6.968022">
        <ele>34.083684</ele>
        <time>2025-08-26T11:56:54.959Z</time>
      </trkpt>
      <trkpt lat="51.684137" lon="6.967751">
        <ele>33.928815</ele>
        <time>2025-08-26T11:56:58.368Z</time>
      </trkpt>
      <trkpt lat="51.684072" lon="6.966938">
        <ele>33.559379</ele>
        <time>2025-08-26T11:57:06.376Z</time>
      </trkpt>
      <trkpt lat="51.683993" lon="6.966739">
        <ele>33.452884</ele>
        <time>2025-08-26T11:57:08.651Z</time>
      </trkpt>
      <trkpt lat="51.683908" lon="6.966619">
        <ele>33.370772</ele>
        <time>2025-08-26T11:57:10.391Z</time>
      </trkpt>
      <trkpt lat="51.683430" lon="6.965934">
        <ele>32.942739</ele>
        <time>2025-08-26T11:57:20.253Z</time>
      </trkpt>
      <trkpt lat="51.683357" lon="6.965786">
        <ele>32.865782</ele>
        <time>2025-08-26T11:57:22.138Z</time>
      </trkpt>
      <trkpt lat="51.683059" lon="6.965196">
        <ele>32.556117</ele>
        <time>2025-08-26T11:57:30.109Z</time>
      </trkpt>
      <trkpt lat="51.682821" lon="6.964619">
        <ele>32.274110</ele>
        <time>2025-08-26T11:57:37.471Z</time>
      </trkpt>
      <trkpt lat="51.682614" lon="6.964073">
        <ele>32.128470</ele>
        <time>2025-08-26T11:57:44.157Z</time>
      </trkpt>
      <trkpt lat="51.682587" lon="6.964001">
        <ele>32.137712</ele>
        <time>2025-08-26T11:57:45.072Z</time>
      </trkpt>
      <trkpt lat="51.682414" lon="6.963783">
        <ele>32.176604</ele>
        <time>2025-08-26T11:57:48.970Z</time>
      </trkpt>
      <trkpt lat="51.682212" lon="6.963574">
        <ele>32.219118</ele>
        <time>2025-08-26T11:57:53.451Z</time>
      </trkpt>
      <trkpt lat="51.682169" lon="6.963705">
        <ele>32.235398</ele>
        <time>2025-08-26T11:57:55.180Z</time>
      </trkpt>
      <trkpt lat="51.682044" lon="6.963607">
        <ele>32.260019</ele>
        <time>2025-08-26T11:57:57.832Z</time>
      </trkpt>
      <trkpt lat="51.682045" lon="6.963361">
        <ele>32.287040</ele>
        <time>2025-08-26T11:58:01.063Z</time>
      </trkpt>
      <trkpt lat="51.682013" lon="6.963112">
        <ele>32.314970</ele>
        <time>2025-08-26T11:58:04.408Z</time>
      </trkpt>
      <trkpt lat="51.681828" lon="6.962354">
        <ele>32.404444</ele>
        <time>2025-08-26T11:58:14.981Z</time>
      </trkpt>
      <trkpt lat="51.681714" lon="6.962092">
        <ele>32.443178</ele>
        <time>2025-08-26T11:58:19.224Z</time>
      </trkpt>
      <trkpt lat="51.681484" lon="6.961734">
        <ele>32.511789</ele>
        <time>2025-08-26T11:58:26.423Z</time>
      </trkpt>
      <trkpt lat="51.681339" lon="6.961574">
        <ele>32.549501</ele>
        <time>2025-08-26T11:58:30.335Z</time>
      </trkpt>
      <trkpt lat="51.681125" lon="6.961400">
        <ele>32.600943</ele>
        <time>2025-08-26T11:58:35.586Z</time>
      </trkpt>
      <trkpt lat="51.679074" lon="6.960517">
        <ele>32.474122</ele>
        <time>2025-08-26T11:59:13.019Z</time>
      </trkpt>
      <trkpt lat="51.678558" lon="6.960348">
        <ele>32.321506</ele>
        <time>2025-08-26T11:59:21.720Z</time>
      </trkpt>
      <trkpt lat="51.678471" lon="6.960114">
        <ele>32.259305</ele>
        <time>2025-08-26T11:59:24.483Z</time>
      </trkpt>
      <trkpt lat="51.678197" lon="6.959992">
        <ele>32.104458</ele>
        <time>2025-08-26T11:59:29.119Z</time>
      </trkpt>
      <trkpt lat="51.678066" lon="6.959902">
        <ele>32.026889</ele>
        <time>2025-08-26T11:59:31.456Z</time>
      </trkpt>
      <trkpt lat="51.678032" lon="6.959823">
        <ele>31.994406</ele>
        <time>2025-08-26T11:59:32.418Z</time>
      </trkpt>
      <trkpt lat="51.677984" lon="6.959701">
        <ele>31.945600</ele>
        <time>2025-08-26T11:59:33.883Z</time>
      </trkpt>
      <trkpt lat="51.677999" lon="6.959597">
        <ele>31.909532</ele>
        <time>2025-08-26T11:59:34.960Z</time>
      </trkpt>
      <trkpt lat="51.677850" lon="6.959194">
        <ele>31.751040</ele>
        <time>2025-08-26T11:59:41.377Z</time>
      </trkpt>
      <trkpt lat="51.677506" lon="6.958309">
        <ele>31.398214</ele>
        <time>2025-08-26T11:59:55.795Z</time>
      </trkpt>
      <trkpt lat="51.677353" lon="6.957965">
        <ele>31.260030</ele>
        <time>2025-08-26T12:00:01.821Z</time>
      </trkpt>
      <trkpt lat="51.677150" lon="6.958091">
        <ele>31.152430</ele>
        <time>2025-08-26T12:00:06.933Z</time>
      </trkpt>
      <trkpt lat="51.676952" lon="6.958199">
        <ele>31.049033</ele>
        <time>2025-08-26T12:00:11.760Z</time>
      </trkpt>
      <trkpt lat="51.676810" lon="6.958268">
        <ele>30.975670</ele>
        <time>2025-08-26T12:00:15.116Z</time>
      </trkpt>
      <trkpt lat="51.676390" lon="6.958428">
        <ele>30.762188</ele>
        <time>2025-08-26T12:00:24.723Z</time>
      </trkpt>
      <trkpt lat="51.676094" lon="6.958530">
        <ele>30.612458</ele>
        <time>2025-08-26T12:00:31.440Z</time>
      </trkpt>
      <trkpt lat="51.675804" lon="6.958576">
        <ele>30.468310</ele>
        <time>2025-08-26T12:00:37.840Z</time>
      </trkpt>
      <trkpt lat="51.675760" lon="6.958583">
        <ele>30.446439</ele>
        <time>2025-08-26T12:00:38.803Z</time>
      </trkpt>
      <trkpt lat="51.675745" lon="6.958583">
        <ele>30.439018</ele>
        <time>2025-08-26T12:00:39.057Z</time>
      </trkpt>
      <trkpt lat="51.675409" lon="6.958592">
        <ele>30.248119</ele>
        <time>2025-08-26T12:00:44.457Z</time>
      </trkpt>
      <trkpt lat="51.675396" lon="6.958592">
        <ele>30.240595</ele>
        <time>2025-08-26T12:00:44.653Z</time>
      </trkpt>
      <trkpt lat="51.675368" lon="6.958530">
        <ele>30.213068</ele>
        <time>2025-08-26T12:00:45.686Z</time>
      </trkpt>
      <trkpt lat="51.675267" lon="6.958438">
        <ele>30.145931</ele>
        <time>2025-08-26T12:00:48.145Z</time>
      </trkpt>
      <trkpt lat="51.675213" lon="6.958440">
        <ele>30.114669</ele>
        <time>2025-08-26T12:00:49.314Z</time>
      </trkpt>
      <trkpt lat="51.675173" lon="6.958439">
        <ele>30.091515</ele>
        <time>2025-08-26T12:00:50.164Z</time>
      </trkpt>
      <trkpt lat="51.675026" lon="6.958468">
        <ele>30.005802</ele>
        <time>2025-08-26T12:00:53.338Z</time>
      </trkpt>
      <trkpt lat="51.674855" lon="6.958603">
        <ele>29.895608</ele>
        <time>2025-08-26T12:00:57.466Z</time>
      </trkpt>
      <trkpt lat="51.674665" lon="6.958612">
        <ele>29.785595</ele>
        <time>2025-08-26T12:01:01.757Z</time>
      </trkpt>
      <trkpt lat="51.674459" lon="6.958482">
        <ele>29.657564</ele>
        <time>2025-08-26T12:01:05.768Z</time>
      </trkpt>
      <trkpt lat="51.674026" lon="6.958052">
        <ele>29.357218</ele>
        <time>2025-08-26T12:01:15.105Z</time>
      </trkpt>
      <trkpt lat="51.673726" lon="6.957883">
        <ele>29.091939</ele>
        <time>2025-08-26T12:01:20.640Z</time>
      </trkpt>
      <trkpt lat="51.673296" lon="6.957821">
        <ele>28.731547</ele>
        <time>2025-08-26T12:01:28.011Z</time>
      </trkpt>
      <trkpt lat="51.673262" lon="6.957869">
        <ele>28.693823</ele>
        <time>2025-08-26T12:01:28.973Z</time>
      </trkpt>
      <trkpt lat="51.673220" lon="6.957815">
        <ele>28.648982</ele>
        <time>2025-08-26T12:01:30.131Z</time>
      </trkpt>
      <trkpt lat="51.672747" lon="6.957726">
        <ele>28.251447</ele>
        <time>2025-08-26T12:01:38.056Z</time>
      </trkpt>
      <trkpt lat="51.672190" lon="6.957695">
        <ele>27.866415</ele>
        <time>2025-08-26T12:01:46.976Z</time>
      </trkpt>
      <trkpt lat="51.672163" lon="6.957739">
        <ele>27.863191</ele>
        <time>2025-08-26T12:01:47.596Z</time>
      </trkpt>
      <trkpt lat="51.672171" lon="6.958102">
        <ele>27.844275</ele>
        <time>2025-08-26T12:01:51.289Z</time>
      </trkpt>
      <trkpt lat="51.672144" lon="6.958116">
        <ele>27.841893</ele>
        <time>2025-08-26T12:01:51.771Z</time>
      </trkpt>
      <trkpt lat="51.671708" lon="6.958954">
        <ele>27.784927</ele>
        <time>2025-08-26T12:02:07.583Z</time>
      </trkpt>
      <trkpt lat="51.671475" lon="6.959212">
        <ele>27.761192</ele>
        <time>2025-08-26T12:02:14.960Z</time>
      </trkpt>
      <trkpt lat="51.671090" lon="6.959494">
        <ele>27.725682</ele>
        <time>2025-08-26T12:02:26.098Z</time>
      </trkpt>
      <trkpt lat="51.670791" lon="6.959746">
        <ele>27.765067</ele>
        <time>2025-08-26T12:02:34.662Z</time>
      </trkpt>
      <trkpt lat="51.670197" lon="6.959972">
        <ele>27.842376</ele>
        <time>2025-08-26T12:02:49.586Z</time>
      </trkpt>
      <trkpt lat="51.669717" lon="6.960092">
        <ele>27.903905</ele>
        <time>2025-08-26T12:03:00.562Z</time>
      </trkpt>
      <trkpt lat="51.668927" lon="6.960279">
        <ele>28.128066</ele>
        <time>2025-08-26T12:03:19.169Z</time>
      </trkpt>
      <trkpt lat="51.668796" lon="6.960329">
        <ele>28.184801</ele>
        <time>2025-08-26T12:03:22.559Z</time>
      </trkpt>
      <trkpt lat="51.667896" lon="6.960700">
        <ele>28.576295</ele>
        <time>2025-08-26T12:03:41.410Z</time>
      </trkpt>
      <trkpt lat="51.667813" lon="6.960749">
        <ele>28.613546</ele>
        <time>2025-08-26T12:03:43.723Z</time>
      </trkpt>
      <trkpt lat="51.667763" lon="6.960517">
        <ele>28.677744</ele>
        <time>2025-08-26T12:03:47.192Z</time>
      </trkpt>
      <trkpt lat="51.667751" lon="6.960292">
        <ele>28.728632</ele>
        <time>2025-08-26T12:03:50.385Z</time>
      </trkpt>
      <trkpt lat="51.667670" lon="6.959970">
        <ele>28.791632</ele>
        <time>2025-08-26T12:03:55.211Z</time>
      </trkpt>
      <trkpt lat="51.667567" lon="6.959641">
        <ele>28.858451</ele>
        <time>2025-08-26T12:04:00.221Z</time>
      </trkpt>
      <trkpt lat="51.667416" lon="6.959399">
        <ele>28.920690</ele>
        <time>2025-08-26T12:04:04.664Z</time>
      </trkpt>
      <trkpt lat="51.667383" lon="6.959116">
        <ele>28.972900</ele>
        <time>2025-08-26T12:04:08.265Z</time>
      </trkpt>
      <trkpt lat="51.667334" lon="6.958928">
        <ele>29.009873</ele>
        <time>2025-08-26T12:04:10.747Z</time>
      </trkpt>
      <trkpt lat="51.667121" lon="6.958304">
        <ele>29.139013</ele>
        <time>2025-08-26T12:04:19.689Z</time>
      </trkpt>
      <trkpt lat="51.666892" lon="6.957635">
        <ele>29.243074</ele>
        <time>2025-08-26T12:04:29.348Z</time>
      </trkpt>
      <trkpt lat="51.666453" lon="6.956351">
        <ele>29.288357</ele>
        <time>2025-08-26T12:04:47.401Z</time>
      </trkpt>
      <trkpt lat="51.666280" lon="6.955604">
        <ele>29.312985</ele>
        <time>2025-08-26T12:04:57.474Z</time>
      </trkpt>
      <trkpt lat="51.666201" lon="6.955336">
        <ele>29.322149</ele>
        <time>2025-08-26T12:05:01.267Z</time>
      </trkpt>
      <trkpt lat="51.665880" lon="6.953814">
        <ele>29.103757</ele>
        <time>2025-08-26T12:05:20.632Z</time>
      </trkpt>
      <trkpt lat="51.665530" lon="6.952275">
        <ele>28.879912</ele>
        <time>2025-08-26T12:05:39.850Z</time>
      </trkpt>
      <trkpt lat="51.665475" lon="6.952493">
        <ele>28.863959</ele>
        <time>2025-08-26T12:05:42.585Z</time>
      </trkpt>
      <trkpt lat="51.665146" lon="6.953782">
        <ele>28.769470</ele>
        <time>2025-08-26T12:05:59.372Z</time>
      </trkpt>
      <trkpt lat="51.664933" lon="6.954680">
        <ele>28.704296</ele>
        <time>2025-08-26T12:06:11.567Z</time>
      </trkpt>
      <trkpt lat="51.664638" lon="6.956142">
        <ele>28.716890</ele>
        <time>2025-08-26T12:06:30.795Z</time>
      </trkpt>
      <trkpt lat="51.664522" lon="6.956975">
        <ele>28.727106</ele>
        <time>2025-08-26T12:06:41.138Z</time>
      </trkpt>
      <trkpt lat="51.664453" lon="6.957565">
        <ele>28.733388</ele>
        <time>2025-08-26T12:06:48.407Z</time>
      </trkpt>
      <trkpt lat="51.664353" lon="6.958202">
        <ele>28.710044</ele>
        <time>2025-08-26T12:06:56.371Z</time>
      </trkpt>
      <trkpt lat="51.664337" lon="6.958463">
        <ele>28.700726</ele>
        <time>2025-08-26T12:06:59.526Z</time>
      </trkpt>
      <trkpt lat="51.664270" lon="6.959906">
        <ele>28.649317</ele>
        <time>2025-08-26T12:07:16.857Z</time>
      </trkpt>
      <trkpt lat="51.664270" lon="6.960117">
        <ele>28.641821</ele>
        <time>2025-08-26T12:07:19.417Z</time>
      </trkpt>
      <trkpt lat="51.664271" lon="6.960973">
        <ele>28.764702</ele>
        <time>2025-08-26T12:07:30.265Z</time>
      </trkpt>
      <trkpt lat="51.664332" lon="6.962261">
        <ele>29.077144</ele>
        <time>2025-08-26T12:07:48.504Z</time>
      </trkpt>
      <trkpt lat="51.664407" lon="6.963200">
        <ele>29.306141</ele>
        <time>2025-08-26T12:08:00.568Z</time>
      </trkpt>
      <trkpt lat="51.664489" lon="6.963888">
        <ele>29.315050</ele>
        <time>2025-08-26T12:08:09.509Z</time>
      </trkpt>
      <trkpt lat="51.664567" lon="6.964614">
        <ele>29.293416</ele>
        <time>2025-08-26T12:08:19.334Z</time>
      </trkpt>
      <trkpt lat="51.664609" lon="6.965019">
        <ele>29.281359</ele>
        <time>2025-08-26T12:08:24.127Z</time>
      </trkpt>
      <trkpt lat="51.664613" lon="6.965079">
        <ele>29.279588</ele>
        <time>2025-08-26T12:08:24.822Z</time>
      </trkpt>
      <trkpt lat="51.664687" lon="6.965820">
        <ele>29.257550</ele>
        <time>2025-08-26T12:08:38.143Z</time>
      </trkpt>
      <trkpt lat="51.664854" lon="6.966027">
        <ele>29.247579</ele>
        <time>2025-08-26T12:08:44.302Z</time>
      </trkpt>
      <trkpt lat="51.664918" lon="6.966523">
        <ele>29.091225</ele>
        <time>2025-08-26T12:08:53.607Z</time>
      </trkpt>
      <trkpt lat="51.665017" lon="6.966507">
        <ele>29.040819</ele>
        <time>2025-08-26T12:08:56.548Z</time>
      </trkpt>
      <trkpt lat="51.665091" lon="6.966726">
        <ele>28.962455</ele>
        <time>2025-08-26T12:09:01.105Z</time>
      </trkpt>
      <trkpt lat="51.665208" lon="6.966812">
        <ele>28.897313</ele>
        <time>2025-08-26T12:09:04.810Z</time>
      </trkpt>
      <trkpt lat="51.665301" lon="6.966937">
        <ele>28.835974</ele>
        <time>2025-08-26T12:09:08.277Z</time>
      </trkpt>
      <trkpt lat="51.665303" lon="6.967428">
        <ele>28.681687</ele>
        <time>2025-08-26T12:09:14.897Z</time>
      </trkpt>
      <trkpt lat="51.665597" lon="6.967303">
        <ele>28.527654</ele>
        <time>2025-08-26T12:09:21.382Z</time>
      </trkpt>
      <trkpt lat="51.665871" lon="6.968557">
        <ele>28.436555</ele>
        <time>2025-08-26T12:09:35.098Z</time>
      </trkpt>
      <trkpt lat="51.665987" lon="6.969081">
        <ele>28.514204</ele>
        <time>2025-08-26T12:09:41.215Z</time>
      </trkpt>
      <trkpt lat="51.666401" lon="6.970122">
        <ele>28.686787</ele>
        <time>2025-08-26T12:09:56.624Z</time>
      </trkpt>
      <trkpt lat="51.666235" lon="6.971526">
        <ele>29.087150</ele>
        <time>2025-08-26T12:10:15.721Z</time>
      </trkpt>
      <trkpt lat="51.666126" lon="6.972075">
        <ele>29.278706</ele>
        <time>2025-08-26T12:10:23.067Z</time>
      </trkpt>
      <trkpt lat="51.665374" lon="6.976270">
        <ele>30.157203</ele>
        <time>2025-08-26T12:11:13.846Z</time>
      </trkpt>
      <trkpt lat="51.665347" lon="6.976439">
        <ele>30.156479</ele>
        <time>2025-08-26T12:11:15.908Z</time>
      </trkpt>
      <trkpt lat="51.665312" lon="6.976763">
        <ele>30.155116</ele>
        <time>2025-08-26T12:11:19.786Z</time>
      </trkpt>
      <trkpt lat="51.665143" lon="6.977805">
        <ele>30.150650</ele>
        <time>2025-08-26T12:11:31.785Z</time>
      </trkpt>
      <trkpt lat="51.665061" lon="6.979386">
        <ele>30.075163</ele>
        <time>2025-08-26T12:11:50.846Z</time>
      </trkpt>
      <trkpt lat="51.664994" lon="6.982189">
        <ele>29.679982</ele>
        <time>2025-08-26T12:12:24.083Z</time>
      </trkpt>
      <trkpt lat="51.664932" lon="6.984783">
        <ele>29.601151</ele>
        <time>2025-08-26T12:12:55.712Z</time>
      </trkpt>
      <trkpt lat="51.664811" lon="6.990538">
        <ele>30.735130</ele>
        <time>2025-08-26T12:14:11.159Z</time>
      </trkpt>
      <trkpt lat="51.664723" lon="6.990545">
        <ele>30.740939</ele>
        <time>2025-08-26T12:14:12.816Z</time>
      </trkpt>
      <trkpt lat="51.664663" lon="6.990630">
        <ele>30.746205</ele>
        <time>2025-08-26T12:14:14.311Z</time>
      </trkpt>
      <trkpt lat="51.664641" lon="6.990761">
        <ele>30.751755</ele>
        <time>2025-08-26T12:14:16.019Z</time>
      </trkpt>
      <trkpt lat="51.664006" lon="6.990790">
        <ele>30.793640</ele>
        <time>2025-08-26T12:14:29.077Z</time>
      </trkpt>
      <trkpt lat="51.663866" lon="6.990841">
        <ele>30.803104</ele>
        <time>2025-08-26T12:14:32.004Z</time>
      </trkpt>
      <trkpt lat="51.663809" lon="6.990940">
        <ele>30.808628</ele>
        <time>2025-08-26T12:14:33.693Z</time>
      </trkpt>
      <trkpt lat="51.663685" lon="6.991034">
        <ele>30.817662</ele>
        <time>2025-08-26T12:14:37.786Z</time>
      </trkpt>
      <trkpt lat="51.663626" lon="6.991162">
        <ele>30.824184</ele>
        <time>2025-08-26T12:14:40.707Z</time>
      </trkpt>
      <trkpt lat="51.663562" lon="6.991147">
        <ele>30.828449</ele>
        <time>2025-08-26T12:14:41.963Z</time>
      </trkpt>
      <trkpt lat="51.663569" lon="6.991421">
        <ele>30.839664</ele>
        <time>2025-08-26T12:14:44.943Z</time>
      </trkpt>
      <trkpt lat="51.663579" lon="6.991821">
        <ele>30.831396</ele>
        <time>2025-08-26T12:14:49.241Z</time>
      </trkpt>
      <trkpt lat="51.663613" lon="6.993107">
        <ele>30.426560</ele>
        <time>2025-08-26T12:15:02.779Z</time>
      </trkpt>
      <trkpt lat="51.663553" lon="6.997088">
        <ele>29.077202</ele>
        <time>2025-08-26T12:15:43.388Z</time>
      </trkpt>
      <trkpt lat="51.663549" lon="6.997543">
        <ele>28.916004</ele>
        <time>2025-08-26T12:15:48.122Z</time>
      </trkpt>
      <trkpt lat="51.663523" lon="7.000891">
        <ele>29.461450</ele>
        <time>2025-08-26T12:16:25.238Z</time>
      </trkpt>
      <trkpt lat="51.663476" lon="7.003061">
        <ele>31.599232</ele>
        <time>2025-08-26T12:17:00.131Z</time>
      </trkpt>
      <trkpt lat="51.663466" lon="7.003640">
        <ele>32.117926</ele>
        <time>2025-08-26T12:17:09.825Z</time>
      </trkpt>
      <trkpt lat="51.663466" lon="7.003701">
        <ele>32.167265</ele>
        <time>2025-08-26T12:17:10.842Z</time>
      </trkpt>
      <trkpt lat="51.663410" lon="7.007001">
        <ele>34.374699</ele>
        <time>2025-08-26T12:17:56.606Z</time>
      </trkpt>
      <trkpt lat="51.663358" lon="7.007787">
        <ele>34.530258</ele>
        <time>2025-08-26T12:18:05.868Z</time>
      </trkpt>
      <trkpt lat="51.663279" lon="7.009279">
        <ele>34.742062</ele>
        <time>2025-08-26T12:18:22.260Z</time>
      </trkpt>
      <trkpt lat="51.663313" lon="7.009594">
        <ele>34.621262</ele>
        <time>2025-08-26T12:18:25.593Z</time>
      </trkpt>
      <trkpt lat="51.663374" lon="7.009799">
        <ele>34.535358</ele>
        <time>2025-08-26T12:18:27.954Z</time>
      </trkpt>
      <trkpt lat="51.663414" lon="7.009900">
        <ele>34.490084</ele>
        <time>2025-08-26T12:18:29.205Z</time>
      </trkpt>
      <trkpt lat="51.664849" lon="7.013383">
        <ele>33.208000</ele>
        <time>2025-08-26T12:19:11.384Z</time>
      </trkpt>
      <trkpt lat="51.667929" lon="7.020859">
        <ele>35.439598</ele>
        <time>2025-08-26T12:21:01.988Z</time>
      </trkpt>
      <trkpt lat="51.668967" lon="7.023379">
        <ele>35.772656</ele>
        <time>2025-08-26T12:21:35.826Z</time>
      </trkpt>
      <trkpt lat="51.669025" lon="7.023520">
        <ele>35.786040</ele>
        <time>2025-08-26T12:21:37.777Z</time>
      </trkpt>
      <trkpt lat="51.669053" lon="7.023581">
        <ele>35.792043</ele>
        <time>2025-08-26T12:21:38.622Z</time>
      </trkpt>
      <trkpt lat="51.669490" lon="7.024629">
        <ele>36.270482</ele>
        <time>2025-08-26T12:21:53.774Z</time>
      </trkpt>
      <trkpt lat="51.669690" lon="7.025198">
        <ele>36.547056</ele>
        <time>2025-08-26T12:22:02.240Z</time>
      </trkpt>
      <trkpt lat="51.669773" lon="7.025559">
        <ele>36.709866</ele>
        <time>2025-08-26T12:22:07.386Z</time>
      </trkpt>
      <trkpt lat="51.670389" lon="7.028306">
        <ele>37.723303</ele>
        <time>2025-08-26T12:22:46.423Z</time>
      </trkpt>
      <trkpt lat="51.670440" lon="7.028532">
        <ele>37.800319</ele>
        <time>2025-08-26T12:22:49.071Z</time>
      </trkpt>
      <trkpt lat="51.670487" lon="7.028758">
        <ele>37.876654</ele>
        <time>2025-08-26T12:22:51.635Z</time>
      </trkpt>
      <trkpt lat="51.670935" lon="7.030867">
        <ele>37.463824</ele>
        <time>2025-08-26T12:23:14.128Z</time>
      </trkpt>
      <trkpt lat="51.670998" lon="7.031082">
        <ele>37.403907</ele>
        <time>2025-08-26T12:23:16.593Z</time>
      </trkpt>
      <trkpt lat="51.671620" lon="7.032261">
        <ele>37.539796</ele>
        <time>2025-08-26T12:23:34.065Z</time>
      </trkpt>
      <trkpt lat="51.671999" lon="7.032971">
        <ele>37.880266</ele>
        <time>2025-08-26T12:23:46.609Z</time>
      </trkpt>
      <trkpt lat="51.672383" lon="7.033714">
        <ele>38.231781</ele>
        <time>2025-08-26T12:23:59.602Z</time>
      </trkpt>
      <trkpt lat="51.673680" lon="7.036080">
        <ele>39.095532</ele>
        <time>2025-08-26T12:24:38.156Z</time>
      </trkpt>
      <trkpt lat="51.673761" lon="7.036234">
        <ele>39.080805</ele>
        <time>2025-08-26T12:24:40.360Z</time>
      </trkpt>
      <trkpt lat="51.674244" lon="7.037048">
        <ele>38.998637</ele>
        <time>2025-08-26T12:24:52.440Z</time>
      </trkpt>
      <trkpt lat="51.675251" lon="7.038236">
        <ele>38.803535</ele>
        <time>2025-08-26T12:25:13.975Z</time>
      </trkpt>
      <trkpt lat="51.675354" lon="7.038390">
        <ele>38.767312</ele>
        <time>2025-08-26T12:25:16.426Z</time>
      </trkpt>
      <trkpt lat="51.675621" lon="7.038940">
        <ele>38.655610</ele>
        <time>2025-08-26T12:25:23.975Z</time>
      </trkpt>
      <trkpt lat="51.675890" lon="7.039604">
        <ele>38.528771</ele>
        <time>2025-08-26T12:25:32.472Z</time>
      </trkpt>
      <trkpt lat="51.676150" lon="7.040260">
        <ele>38.379220</ele>
        <time>2025-08-26T12:25:40.661Z</time>
      </trkpt>
      <trkpt lat="51.676265" lon="7.040653">
        <ele>38.238163</ele>
        <time>2025-08-26T12:25:45.180Z</time>
      </trkpt>
      <trkpt lat="51.676304" lon="7.041441">
        <ele>37.981568</ele>
        <time>2025-08-26T12:25:53.501Z</time>
      </trkpt>
      <trkpt lat="51.676362" lon="7.041801">
        <ele>37.860833</ele>
        <time>2025-08-26T12:25:57.425Z</time>
      </trkpt>
      <trkpt lat="51.676483" lon="7.042225">
        <ele>37.709329</ele>
        <time>2025-08-26T12:26:02.269Z</time>
      </trkpt>
      <trkpt lat="51.676642" lon="7.042608">
        <ele>37.559721</ele>
        <time>2025-08-26T12:26:06.951Z</time>
      </trkpt>
      <trkpt lat="51.676743" lon="7.043004">
        <ele>37.330144</ele>
        <time>2025-08-26T12:26:11.234Z</time>
      </trkpt>
      <trkpt lat="51.676972" lon="7.043869">
        <ele>36.608002</ele>
        <time>2025-08-26T12:26:20.363Z</time>
      </trkpt>
      <trkpt lat="51.677278" lon="7.044611">
        <ele>35.923811</ele>
        <time>2025-08-26T12:26:28.722Z</time>
      </trkpt>
      <trkpt lat="51.677559" lon="7.045435">
        <ele>35.248180</ele>
        <time>2025-08-26T12:26:37.573Z</time>
      </trkpt>
      <trkpt lat="51.677943" lon="7.046093">
        <ele>35.107209</ele>
        <time>2025-08-26T12:26:46.782Z</time>
      </trkpt>
      <trkpt lat="51.678060" lon="7.046438">
        <ele>35.045860</ele>
        <time>2025-08-26T12:26:50.975Z</time>
      </trkpt>
      <trkpt lat="51.678275" lon="7.047251">
        <ele>34.907969</ele>
        <time>2025-08-26T12:27:00.664Z</time>
      </trkpt>
      <trkpt lat="51.678346" lon="7.047415">
        <ele>34.876764</ele>
        <time>2025-08-26T12:27:03.137Z</time>
      </trkpt>
      <trkpt lat="51.678479" lon="7.047631">
        <ele>34.829273</ele>
        <time>2025-08-26T12:27:07.034Z</time>
      </trkpt>
      <trkpt lat="51.679029" lon="7.048108">
        <ele>34.951527</ele>
        <time>2025-08-26T12:27:19.724Z</time>
      </trkpt>
      <trkpt lat="51.679147" lon="7.048244">
        <ele>34.990376</ele>
        <time>2025-08-26T12:27:22.436Z</time>
      </trkpt>
      <trkpt lat="51.679269" lon="7.048411">
        <ele>35.033238</ele>
        <time>2025-08-26T12:27:25.341Z</time>
      </trkpt>
      <trkpt lat="51.680191" lon="7.049747">
        <ele>35.395762</ele>
        <time>2025-08-26T12:27:47.812Z</time>
      </trkpt>
      <trkpt lat="51.680536" lon="7.050306">
        <ele>35.579367</ele>
        <time>2025-08-26T12:27:56.843Z</time>
      </trkpt>
      <trkpt lat="51.680695" lon="7.050562">
        <ele>35.663717</ele>
        <time>2025-08-26T12:28:01.146Z</time>
      </trkpt>
      <trkpt lat="51.681868" lon="7.052225">
        <ele>36.055143</ele>
        <time>2025-08-26T12:28:33.331Z</time>
      </trkpt>
      <trkpt lat="51.682045" lon="7.052522">
        <ele>36.085576</ele>
        <time>2025-08-26T12:28:38.210Z</time>
      </trkpt>
      <trkpt lat="51.682421" lon="7.053291">
        <ele>36.157926</ele>
        <time>2025-08-26T12:28:48.671Z</time>
      </trkpt>
      <trkpt lat="51.683013" lon="7.054459">
        <ele>35.493939</ele>
        <time>2025-08-26T12:29:03.438Z</time>
      </trkpt>
      <trkpt lat="51.683768" lon="7.056105">
        <ele>34.641766</ele>
        <time>2025-08-26T12:29:23.578Z</time>
      </trkpt>
      <trkpt lat="51.683946" lon="7.056423">
        <ele>34.738466</ele>
        <time>2025-08-26T12:29:28.254Z</time>
      </trkpt>
      <trkpt lat="51.684369" lon="7.057024">
        <ele>34.943685</ele>
        <time>2025-08-26T12:29:39.351Z</time>
      </trkpt>
      <trkpt lat="51.684821" lon="7.058021">
        <ele>35.228865</ele>
        <time>2025-08-26T12:29:56.417Z</time>
      </trkpt>
      <trkpt lat="51.684973" lon="7.058807">
        <ele>35.534998</ele>
        <time>2025-08-26T12:30:07.490Z</time>
      </trkpt>
      <trkpt lat="51.685093" lon="7.059159">
        <ele>35.684357</ele>
        <time>2025-08-26T12:30:12.634Z</time>
      </trkpt>
      <trkpt lat="51.685152" lon="7.059449">
        <ele>35.797840</ele>
        <time>2025-08-26T12:30:16.487Z</time>
      </trkpt>
      <trkpt lat="51.685226" lon="7.060370">
        <ele>36.143142</ele>
        <time>2025-08-26T12:30:27.510Z</time>
      </trkpt>
      <trkpt lat="51.685311" lon="7.060964">
        <ele>36.305214</ele>
        <time>2025-08-26T12:30:34.364Z</time>
      </trkpt>
      <trkpt lat="51.685415" lon="7.061556">
        <ele>36.345918</ele>
        <time>2025-08-26T12:30:41.475Z</time>
      </trkpt>
      <trkpt lat="51.685437" lon="7.062034">
        <ele>36.377626</ele>
        <time>2025-08-26T12:30:47.010Z</time>
      </trkpt>
      <trkpt lat="51.685410" lon="7.062292">
        <ele>36.394935</ele>
        <time>2025-08-26T12:30:50.040Z</time>
      </trkpt>
      <trkpt lat="51.685330" lon="7.062693">
        <ele>36.422802</ele>
        <time>2025-08-26T12:30:54.865Z</time>
      </trkpt>
      <trkpt lat="51.684963" lon="7.063819">
        <ele>36.419317</ele>
        <time>2025-08-26T12:31:08.980Z</time>
      </trkpt>
      <trkpt lat="51.684916" lon="7.064226">
        <ele>36.345870</ele>
        <time>2025-08-26T12:31:13.433Z</time>
      </trkpt>
      <trkpt lat="51.684925" lon="7.064736">
        <ele>36.255354</ele>
        <time>2025-08-26T12:31:18.815Z</time>
      </trkpt>
      <trkpt lat="51.685006" lon="7.065401">
        <ele>36.135121</ele>
        <time>2025-08-26T12:31:25.884Z</time>
      </trkpt>
      <trkpt lat="51.685131" lon="7.065830">
        <ele>36.051027</ele>
        <time>2025-08-26T12:31:30.773Z</time>
      </trkpt>
      <trkpt lat="51.685473" lon="7.066671">
        <ele>36.106356</ele>
        <time>2025-08-26T12:31:41.340Z</time>
      </trkpt>
      <trkpt lat="51.685519" lon="7.066889">
        <ele>36.165112</ele>
        <time>2025-08-26T12:31:43.865Z</time>
      </trkpt>
      <trkpt lat="51.685566" lon="7.067401">
        <ele>36.297172</ele>
        <time>2025-08-26T12:31:49.847Z</time>
      </trkpt>
      <trkpt lat="51.685637" lon="7.067835">
        <ele>36.411696</ele>
        <time>2025-08-26T12:31:55.207Z</time>
      </trkpt>
      <trkpt lat="51.685686" lon="7.068024">
        <ele>36.463966</ele>
        <time>2025-08-26T12:31:57.682Z</time>
      </trkpt>
      <trkpt lat="51.685744" lon="7.068093">
        <ele>36.493626</ele>
        <time>2025-08-26T12:31:59.116Z</time>
      </trkpt>
      <trkpt lat="51.685816" lon="7.068098">
        <ele>36.523284</ele>
        <time>2025-08-26T12:32:00.561Z</time>
      </trkpt>
      <trkpt lat="51.686306" lon="7.067698">
        <ele>36.764372</ele>
        <time>2025-08-26T12:32:13.201Z</time>
      </trkpt>
      <trkpt lat="51.686542" lon="7.067577">
        <ele>36.904124</ele>
        <time>2025-08-26T12:32:19.042Z</time>
      </trkpt>
      <trkpt lat="51.686778" lon="7.067658">
        <ele>37.040291</ele>
        <time>2025-08-26T12:32:24.495Z</time>
      </trkpt>
      <trkpt lat="51.686900" lon="7.067780">
        <ele>37.121298</ele>
        <time>2025-08-26T12:32:27.581Z</time>
      </trkpt>
      <trkpt lat="51.687142" lon="7.068195">
        <ele>37.320631</ele>
        <time>2025-08-26T12:32:34.828Z</time>
      </trkpt>
      <trkpt lat="51.687616" lon="7.067720">
        <ele>37.635549</ele>
        <time>2025-08-26T12:32:45.204Z</time>
      </trkpt>
      <trkpt lat="51.688127" lon="7.067296">
        <ele>37.467308</ele>
        <time>2025-08-26T12:32:54.853Z</time>
      </trkpt>
      <trkpt lat="51.688830" lon="7.066853">
        <ele>37.004694</ele>
        <time>2025-08-26T12:33:07.030Z</time>
      </trkpt>
      <trkpt lat="51.689190" lon="7.066676">
        <ele>36.774011</ele>
        <time>2025-08-26T12:33:13.298Z</time>
      </trkpt>
      <trkpt lat="51.689689" lon="7.066496">
        <ele>36.389742</ele>
        <time>2025-08-26T12:33:21.719Z</time>
      </trkpt>
      <trkpt lat="51.690244" lon="7.066358">
        <ele>35.893754</ele>
        <time>2025-08-26T12:33:30.799Z</time>
      </trkpt>
      <trkpt lat="51.690578" lon="7.066312">
        <ele>35.597677</ele>
        <time>2025-08-26T12:33:36.115Z</time>
      </trkpt>
      <trkpt lat="51.691352" lon="7.066316">
        <ele>35.006779</ele>
        <time>2025-08-26T12:33:48.176Z</time>
      </trkpt>
      <trkpt lat="51.692093" lon="7.066450">
        <ele>34.863193</ele>
        <time>2025-08-26T12:34:00.849Z</time>
      </trkpt>
      <trkpt lat="51.692618" lon="7.066630">
        <ele>34.759836</ele>
        <time>2025-08-26T12:34:10.734Z</time>
      </trkpt>
      <trkpt lat="51.693158" lon="7.066891">
        <ele>34.703280</ele>
        <time>2025-08-26T12:34:21.602Z</time>
      </trkpt>
      <trkpt lat="51.693836" lon="7.067334">
        <ele>34.771742</ele>
        <time>2025-08-26T12:34:35.017Z</time>
      </trkpt>
      <trkpt lat="51.694873" lon="7.068240">
        <ele>34.864683</ele>
        <time>2025-08-26T12:34:55.882Z</time>
      </trkpt>
      <trkpt lat="51.694969" lon="7.068336">
        <ele>34.868554</ele>
        <time>2025-08-26T12:34:57.986Z</time>
      </trkpt>
      <trkpt lat="51.694892" lon="7.068681">
        <ele>34.876344</ele>
        <time>2025-08-26T12:35:04.873Z</time>
      </trkpt>
      <trkpt lat="51.694843" lon="7.068776">
        <ele>34.878969</ele>
        <time>2025-08-26T12:35:07.202Z</time>
      </trkpt>
      <trkpt lat="51.694978" lon="7.069258">
        <ele>34.890206</ele>
        <time>2025-08-26T12:35:17.158Z</time>
      </trkpt>
      <trkpt lat="51.695175" lon="7.069835">
        <ele>34.904200</ele>
        <time>2025-08-26T12:35:29.516Z</time>
      </trkpt>
      <trkpt lat="51.695330" lon="7.070052">
        <ele>34.911234</ele>
        <time>2025-08-26T12:35:35.592Z</time>
      </trkpt>
      <trkpt lat="51.695791" lon="7.070429">
        <ele>34.895435</ele>
        <time>2025-08-26T12:35:50.683Z</time>
      </trkpt>
      <trkpt lat="51.696085" lon="7.070573">
        <ele>34.878159</ele>
        <time>2025-08-26T12:35:59.632Z</time>
      </trkpt>
      <trkpt lat="51.696475" lon="7.070989">
        <ele>34.851871</ele>
        <time>2025-08-26T12:36:13.429Z</time>
      </trkpt>
      <trkpt lat="51.696739" lon="7.070856">
        <ele>34.836319</ele>
        <time>2025-08-26T12:36:21.618Z</time>
      </trkpt>
      <trkpt lat="51.696792" lon="7.070887">
        <ele>34.833150</ele>
        <time>2025-08-26T12:36:23.288Z</time>
      </trkpt>
      <trkpt lat="51.696840" lon="7.070994">
        <ele>34.828546</ele>
        <time>2025-08-26T12:36:25.702Z</time>
      </trkpt>
      <trkpt lat="51.696860" lon="7.071026">
        <ele>34.826962</ele>
        <time>2025-08-26T12:36:26.267Z</time>
      </trkpt>
      <trkpt lat="51.696892" lon="7.071073">
        <ele>34.824529</ele>
        <time>2025-08-26T12:36:27.130Z</time>
      </trkpt>
      <trkpt lat="51.696982" lon="7.071096">
        <ele>34.819406</ele>
        <time>2025-08-26T12:36:28.939Z</time>
      </trkpt>
      <trkpt lat="51.697430" lon="7.071078">
        <ele>34.873808</ele>
        <time>2025-08-26T12:36:38.032Z</time>
      </trkpt>
      <trkpt lat="51.697931" lon="7.071242">
        <ele>34.954465</ele>
        <time>2025-08-26T12:36:48.534Z</time>
      </trkpt>
      <trkpt lat="51.698854" lon="7.072137">
        <ele>35.159293</ele>
        <time>2025-08-26T12:37:10.495Z</time>
      </trkpt>
      <trkpt lat="51.699333" lon="7.072522">
        <ele>35.359530</ele>
        <time>2025-08-26T12:37:21.672Z</time>
      </trkpt>
      <trkpt lat="51.699735" lon="7.072966">
        <ele>35.541813</ele>
        <time>2025-08-26T12:37:32.062Z</time>
      </trkpt>
      <trkpt lat="51.700042" lon="7.073195">
        <ele>35.668366</ele>
        <time>2025-08-26T12:37:39.483Z</time>
      </trkpt>
      <trkpt lat="51.700299" lon="7.073271">
        <ele>35.766130</ele>
        <time>2025-08-26T12:37:45.235Z</time>
      </trkpt>
      <trkpt lat="51.700699" lon="7.073567">
        <ele>35.780134</ele>
        <time>2025-08-26T12:37:54.687Z</time>
      </trkpt>
      <trkpt lat="51.700755" lon="7.073582">
        <ele>35.781234</ele>
        <time>2025-08-26T12:37:55.872Z</time>
      </trkpt>
      <trkpt lat="51.700835" lon="7.073516">
        <ele>35.782975</ele>
        <time>2025-08-26T12:37:57.736Z</time>
      </trkpt>
      <trkpt lat="51.700979" lon="7.073307">
        <ele>35.786728</ele>
        <time>2025-08-26T12:38:01.736Z</time>
      </trkpt>
      <trkpt lat="51.701181" lon="7.073203">
        <ele>35.790836</ele>
        <time>2025-08-26T12:38:06.031Z</time>
      </trkpt>
      <trkpt lat="51.701975" lon="7.076104">
        <ele>35.225024</ele>
        <time>2025-08-26T12:38:43.301Z</time>
      </trkpt>
      <trkpt lat="51.702157" lon="7.076850">
        <ele>34.972309</ele>
        <time>2025-08-26T12:38:52.304Z</time>
      </trkpt>
      <trkpt lat="51.702280" lon="7.077437">
        <ele>34.738740</ele>
        <time>2025-08-26T12:38:59.347Z</time>
      </trkpt>
      <trkpt lat="51.702287" lon="7.077928">
        <ele>34.532415</ele>
        <time>2025-08-26T12:39:04.985Z</time>
      </trkpt>
      <trkpt lat="51.702270" lon="7.078043">
        <ele>34.482748</ele>
        <time>2025-08-26T12:39:06.326Z</time>
      </trkpt>
      <trkpt lat="51.702292" lon="7.078071">
        <ele>34.463755</ele>
        <time>2025-08-26T12:39:06.850Z</time>
      </trkpt>
      <trkpt lat="51.702287" lon="7.078267">
        <ele>34.381345</ele>
        <time>2025-08-26T12:39:09.085Z</time>
      </trkpt>
      <trkpt lat="51.702033" lon="7.079736">
        <ele>33.740646</ele>
        <time>2025-08-26T12:39:26.097Z</time>
      </trkpt>
      <trkpt lat="51.702035" lon="7.079952">
        <ele>33.666758</ele>
        <time>2025-08-26T12:39:28.671Z</time>
      </trkpt>
      <trkpt lat="51.702564" lon="7.080495">
        <ele>33.555916</ele>
        <time>2025-08-26T12:39:41.321Z</time>
      </trkpt>
      <trkpt lat="51.702609" lon="7.081185">
        <ele>33.479898</ele>
        <time>2025-08-26T12:39:49.975Z</time>
      </trkpt>
      <trkpt lat="51.702588" lon="7.082175">
        <ele>33.371365</ele>
        <time>2025-08-26T12:40:01.946Z</time>
      </trkpt>
      <trkpt lat="51.702505" lon="7.083507">
        <ele>32.789280</ele>
        <time>2025-08-26T12:40:17.253Z</time>
      </trkpt>
      <trkpt lat="51.702493" lon="7.084493">
        <ele>32.319429</ele>
        <time>2025-08-26T12:40:27.859Z</time>
      </trkpt>
      <trkpt lat="51.702490" lon="7.084737">
        <ele>32.203156</ele>
        <time>2025-08-26T12:40:30.520Z</time>
      </trkpt>
      <trkpt lat="51.702459" lon="7.085241">
        <ele>31.972251</ele>
        <time>2025-08-26T12:40:36.147Z</time>
      </trkpt>
      <trkpt lat="51.702114" lon="7.087523">
        <ele>31.998833</ele>
        <time>2025-08-26T12:41:05.134Z</time>
      </trkpt>
      <trkpt lat="51.702007" lon="7.087953">
        <ele>32.004077</ele>
        <time>2025-08-26T12:41:11.425Z</time>
      </trkpt>
      <trkpt lat="51.701847" lon="7.088414">
        <ele>32.154340</ele>
        <time>2025-08-26T12:41:18.621Z</time>
      </trkpt>
      <trkpt lat="51.701641" lon="7.088849">
        <ele>32.332346</ele>
        <time>2025-08-26T12:41:26.127Z</time>
      </trkpt>
      <trkpt lat="51.701343" lon="7.089346">
        <ele>32.557197</ele>
        <time>2025-08-26T12:41:35.654Z</time>
      </trkpt>
      <trkpt lat="51.701230" lon="7.089489">
        <ele>32.632540</ele>
        <time>2025-08-26T12:41:38.774Z</time>
      </trkpt>
      <trkpt lat="51.701007" lon="7.089683">
        <ele>32.765458</ele>
        <time>2025-08-26T12:41:44.343Z</time>
      </trkpt>
      <trkpt lat="51.700321" lon="7.090033">
        <ele>33.088521</ele>
        <time>2025-08-26T12:41:59.958Z</time>
      </trkpt>
      <trkpt lat="51.700167" lon="7.090171">
        <ele>33.155080</ele>
        <time>2025-08-26T12:42:03.860Z</time>
      </trkpt>
      <trkpt lat="51.700008" lon="7.090393">
        <ele>33.234526</ele>
        <time>2025-08-26T12:42:08.543Z</time>
      </trkpt>
      <trkpt lat="51.700027" lon="7.090665">
        <ele>33.298624</ele>
        <time>2025-08-26T12:42:13.945Z</time>
      </trkpt>
      <trkpt lat="51.700320" lon="7.090684">
        <ele>33.409419</ele>
        <time>2025-08-26T12:42:19.689Z</time>
      </trkpt>
      <trkpt lat="51.700344" lon="7.090687">
        <ele>33.418515</ele>
        <time>2025-08-26T12:42:20.134Z</time>
      </trkpt>
      <trkpt lat="51.700338" lon="7.090843">
        <ele>33.455116</ele>
        <time>2025-08-26T12:42:22.198Z</time>
      </trkpt>
      <trkpt lat="51.700353" lon="7.091408">
        <ele>33.587545</ele>
        <time>2025-08-26T12:42:29.392Z</time>
      </trkpt>
      <trkpt lat="51.700484" lon="7.091788">
        <ele>33.590303</ele>
        <time>2025-08-26T12:42:34.725Z</time>
      </trkpt>
      <trkpt lat="51.700637" lon="7.091836">
        <ele>33.553989</ele>
        <time>2025-08-26T12:42:37.785Z</time>
      </trkpt>
      <trkpt lat="51.700808" lon="7.091942">
        <ele>33.511310</ele>
        <time>2025-08-26T12:42:41.383Z</time>
      </trkpt>
      <trkpt lat="51.700935" lon="7.092075">
        <ele>33.476035</ele>
        <time>2025-08-26T12:42:44.331Z</time>
      </trkpt>
      <trkpt lat="51.701073" lon="7.092313">
        <ele>33.428974</ele>
        <time>2025-08-26T12:42:48.203Z</time>
      </trkpt>
      <trkpt lat="51.701157" lon="7.092528">
        <ele>33.392276</ele>
        <time>2025-08-26T12:42:51.190Z</time>
      </trkpt>
      <trkpt lat="51.701923" lon="7.095309">
        <ele>32.834412</ele>
        <time>2025-08-26T12:43:26.843Z</time>
      </trkpt>
      <trkpt lat="51.702106" lon="7.095850">
        <ele>32.704277</ele>
        <time>2025-08-26T12:43:34.123Z</time>
      </trkpt>
      <trkpt lat="51.702199" lon="7.096212">
        <ele>32.621536</ele>
        <time>2025-08-26T12:43:38.764Z</time>
      </trkpt>
      <trkpt lat="51.702264" lon="7.096598">
        <ele>32.544357</ele>
        <time>2025-08-26T12:43:43.507Z</time>
      </trkpt>
      <trkpt lat="51.702379" lon="7.097685">
        <ele>32.340157</ele>
        <time>2025-08-26T12:43:56.649Z</time>
      </trkpt>
      <trkpt lat="51.702593" lon="7.100351">
        <ele>31.505647</ele>
        <time>2025-08-26T12:44:28.414Z</time>
      </trkpt>
      <trkpt lat="51.702669" lon="7.100869">
        <ele>31.253759</ele>
        <time>2025-08-26T12:44:34.445Z</time>
      </trkpt>
      <trkpt lat="51.702732" lon="7.101091">
        <ele>31.138221</ele>
        <time>2025-08-26T12:44:37.164Z</time>
      </trkpt>
      <trkpt lat="51.702908" lon="7.101543">
        <ele>30.885627</ele>
        <time>2025-08-26T12:44:43.023Z</time>
      </trkpt>
      <trkpt lat="51.703068" lon="7.101845">
        <ele>30.697624</ele>
        <time>2025-08-26T12:44:47.312Z</time>
      </trkpt>
      <trkpt lat="51.703503" lon="7.102344">
        <ele>29.833466</ele>
        <time>2025-08-26T12:44:56.438Z</time>
      </trkpt>
      <trkpt lat="51.704785" lon="7.103279">
        <ele>27.605953</ele>
        <time>2025-08-26T12:45:20.024Z</time>
      </trkpt>
      <trkpt lat="51.704998" lon="7.103474">
        <ele>27.372455</ele>
        <time>2025-08-26T12:45:24.199Z</time>
      </trkpt>
      <trkpt lat="51.705278" lon="7.103811">
        <ele>27.039400</ele>
        <time>2025-08-26T12:45:30.295Z</time>
      </trkpt>
      <trkpt lat="51.705835" lon="7.104619">
        <ele>26.325269</ele>
        <time>2025-08-26T12:45:43.945Z</time>
      </trkpt>
      <trkpt lat="51.705998" lon="7.104943">
        <ele>26.078685</ele>
        <time>2025-08-26T12:45:48.828Z</time>
      </trkpt>
      <trkpt lat="51.706194" lon="7.105421">
        <ele>25.954036</ele>
        <time>2025-08-26T12:45:55.660Z</time>
      </trkpt>
      <trkpt lat="51.706471" lon="7.106187">
        <ele>25.843552</ele>
        <time>2025-08-26T12:46:06.544Z</time>
      </trkpt>
      <trkpt lat="51.706695" lon="7.106826">
        <ele>25.752094</ele>
        <time>2025-08-26T12:46:15.823Z</time>
      </trkpt>
      <trkpt lat="51.707116" lon="7.108208">
        <ele>25.456228</ele>
        <time>2025-08-26T12:46:33.816Z</time>
      </trkpt>
      <trkpt lat="51.707368" lon="7.108966">
        <ele>25.224353</ele>
        <time>2025-08-26T12:46:43.546Z</time>
      </trkpt>
      <trkpt lat="51.707684" lon="7.108626">
        <ele>25.059142</ele>
        <time>2025-08-26T12:46:50.068Z</time>
      </trkpt>
      <trkpt lat="51.707748" lon="7.108699">
        <ele>25.025049</ele>
        <time>2025-08-26T12:46:51.437Z</time>
      </trkpt>
      <trkpt lat="51.707802" lon="7.108715">
        <ele>25.001167</ele>
        <time>2025-08-26T12:46:52.374Z</time>
      </trkpt>
      <trkpt lat="51.708351" lon="7.108704">
        <ele>25.043547</ele>
        <time>2025-08-26T12:47:02.213Z</time>
      </trkpt>
      <trkpt lat="51.708459" lon="7.108787">
        <ele>25.131016</ele>
        <time>2025-08-26T12:47:04.500Z</time>
      </trkpt>
      <trkpt lat="51.708692" lon="7.109102">
        <ele>25.353275</ele>
        <time>2025-08-26T12:47:10.901Z</time>
      </trkpt>
      <trkpt lat="51.708827" lon="7.109177">
        <ele>25.457676</ele>
        <time>2025-08-26T12:47:14.185Z</time>
      </trkpt>
      <trkpt lat="51.708929" lon="7.109156">
        <ele>25.532865</ele>
        <time>2025-08-26T12:47:16.637Z</time>
      </trkpt>
      <trkpt lat="51.708996" lon="7.109100">
        <ele>25.588037</ele>
        <time>2025-08-26T12:47:18.424Z</time>
      </trkpt>
      <trkpt lat="51.709192" lon="7.108856">
        <ele>25.769044</ele>
        <time>2025-08-26T12:47:24.299Z</time>
      </trkpt>
      <trkpt lat="51.709262" lon="7.108703">
        <ele>25.855217</ele>
        <time>2025-08-26T12:47:27.098Z</time>
      </trkpt>
      <trkpt lat="51.710012" lon="7.108434">
        <ele>26.469487</ele>
        <time>2025-08-26T12:47:44.037Z</time>
      </trkpt>
      <trkpt lat="51.710099" lon="7.108453">
        <ele>26.548042</ele>
        <time>2025-08-26T12:47:45.880Z</time>
      </trkpt>
      <trkpt lat="51.710160" lon="7.108540">
        <ele>26.620885</ele>
        <time>2025-08-26T12:47:47.592Z</time>
      </trkpt>
      <trkpt lat="51.710201" lon="7.108718">
        <ele>26.726174</ele>
        <time>2025-08-26T12:47:49.999Z</time>
      </trkpt>
      <trkpt lat="51.710280" lon="7.109426">
        <ele>27.125034</ele>
        <time>2025-08-26T12:47:59.096Z</time>
      </trkpt>
      <trkpt lat="51.710371" lon="7.109921">
        <ele>27.411307</ele>
        <time>2025-08-26T12:48:05.748Z</time>
      </trkpt>
      <trkpt lat="51.710500" lon="7.110570">
        <ele>27.789200</ele>
        <time>2025-08-26T12:48:14.740Z</time>
      </trkpt>
      <trkpt lat="51.711038" lon="7.113267">
        <ele>29.926539</ele>
        <time>2025-08-26T12:48:55.083Z</time>
      </trkpt>
      <trkpt lat="51.711139" lon="7.113442">
        <ele>30.138975</ele>
        <time>2025-08-26T12:48:58.460Z</time>
      </trkpt>
      <trkpt lat="51.711192" lon="7.113448">
        <ele>30.220292</ele>
        <time>2025-08-26T12:48:59.673Z</time>
      </trkpt>
      <trkpt lat="51.711353" lon="7.113335">
        <ele>30.489002</ele>
        <time>2025-08-26T12:49:03.623Z</time>
      </trkpt>
      <trkpt lat="51.712240" lon="7.112529">
        <ele>32.046980</ele>
        <time>2025-08-26T12:49:27.265Z</time>
      </trkpt>
      <trkpt lat="51.712405" lon="7.112476">
        <ele>32.304471</ele>
        <time>2025-08-26T12:49:31.362Z</time>
      </trkpt>
      <trkpt lat="51.712530" lon="7.112566">
        <ele>32.513963</ele>
        <time>2025-08-26T12:49:34.732Z</time>
      </trkpt>
      <trkpt lat="51.712603" lon="7.112685">
        <ele>32.672767</ele>
        <time>2025-08-26T12:49:37.333Z</time>
      </trkpt>
      <trkpt lat="51.713176" lon="7.114488">
        <ele>35.290893</ele>
        <time>2025-08-26T12:50:11.147Z</time>
      </trkpt>
      <trkpt lat="51.713471" lon="7.115353">
        <ele>36.550577</ele>
        <time>2025-08-26T12:50:27.618Z</time>
      </trkpt>
      <trkpt lat="51.714045" lon="7.117173">
        <ele>37.958518</ele>
        <time>2025-08-26T12:50:56.896Z</time>
      </trkpt>
      <trkpt lat="51.714087" lon="7.117480">
        <ele>38.175266</ele>
        <time>2025-08-26T12:51:00.758Z</time>
      </trkpt>
      <trkpt lat="51.714100" lon="7.117990">
        <ele>38.519982</ele>
        <time>2025-08-26T12:51:06.976Z</time>
      </trkpt>
      <trkpt lat="51.714121" lon="7.118451">
        <ele>38.462454</ele>
        <time>2025-08-26T12:51:12.304Z</time>
      </trkpt>
      <trkpt lat="51.714178" lon="7.118755">
        <ele>38.422926</ele>
        <time>2025-08-26T12:51:15.759Z</time>
      </trkpt>
      <trkpt lat="51.714249" lon="7.118921">
        <ele>38.397822</ele>
        <time>2025-08-26T12:51:17.898Z</time>
      </trkpt>
      <trkpt lat="51.714224" lon="7.119139">
        <ele>38.370231</ele>
        <time>2025-08-26T12:51:20.221Z</time>
      </trkpt>
      <trkpt lat="51.714111" lon="7.119590">
        <ele>38.309687</ele>
        <time>2025-08-26T12:51:25.296Z</time>
      </trkpt>
      <trkpt lat="51.714093" lon="7.119860">
        <ele>38.275890</ele>
        <time>2025-08-26T12:51:28.147Z</time>
      </trkpt>
      <trkpt lat="51.714193" lon="7.122921">
        <ele>38.159795</ele>
        <time>2025-08-26T12:52:00.121Z</time>
      </trkpt>
    </trkseg>
  </trk>
</gpx>